<?xml version="1.0" encoding="UTF-8" standalone="no" ?>
<gpx xmlns="http://www.topografix.com/GPX/1/1" xmlns:xsi="http://www.w3.org/2001/XMLSchema-instance" xsi:schemaLocation="http://www.topografix.com/GPX/1/1 http://www.topografix.com/GPX/1/1/gpx.xsd" version="1.1" creator="VisuGPX - https://www.visugpx.com">
  <metadata>
    <name>PontChoranAures Cyclisme de route 28 août 2021 à 17:14</name>
  </metadata>
  <trk>
    <name><![CDATA[PontChoranAures Cyclisme de route 28 août 2021 à 17:14]]></name>
    <trkseg>
      <trkpt lat="45.11481" lon="5.31872">
        <ele>215</ele>
        <time>2021-08-28T15:14:48.000Z</time>
      </trkpt>
      <trkpt lat="45.11477" lon="5.31873">
        <ele>215</ele>
        <time>2021-08-28T15:14:57.000Z</time>
      </trkpt>
      <trkpt lat="45.11474" lon="5.31875">
        <ele>215</ele>
        <time>2021-08-28T15:15:01.000Z</time>
      </trkpt>
      <trkpt lat="45.11487" lon="5.31885">
        <ele>215</ele>
        <time>2021-08-28T15:15:05.000Z</time>
      </trkpt>
      <trkpt lat="45.11488" lon="5.31875">
        <ele>215</ele>
        <time>2021-08-28T15:15:09.000Z</time>
      </trkpt>
      <trkpt lat="45.1149" lon="5.31879">
        <ele>215</ele>
        <time>2021-08-28T15:15:14.000Z</time>
      </trkpt>
      <trkpt lat="45.11493" lon="5.31874">
        <ele>215</ele>
        <time>2021-08-28T15:15:19.000Z</time>
      </trkpt>
      <trkpt lat="45.11495" lon="5.3187">
        <ele>215</ele>
        <time>2021-08-28T15:15:25.000Z</time>
      </trkpt>
      <trkpt lat="45.11497" lon="5.31863">
        <ele>215</ele>
        <time>2021-08-28T15:15:29.000Z</time>
      </trkpt>
      <trkpt lat="45.11497" lon="5.31863">
        <ele>215</ele>
        <time>2021-08-28T15:15:46.000Z</time>
      </trkpt>
      <trkpt lat="45.11501" lon="5.31847">
        <ele>215</ele>
        <time>2021-08-28T15:15:50.000Z</time>
      </trkpt>
      <trkpt lat="45.11507" lon="5.31838">
        <ele>214.8</ele>
        <time>2021-08-28T15:15:55.000Z</time>
      </trkpt>
      <trkpt lat="45.1151" lon="5.31823">
        <ele>214.7</ele>
        <time>2021-08-28T15:16:00.000Z</time>
      </trkpt>
      <trkpt lat="45.1151" lon="5.31813">
        <ele>214.7</ele>
        <time>2021-08-28T15:16:04.000Z</time>
      </trkpt>
      <trkpt lat="45.11503" lon="5.318">
        <ele>214.7</ele>
        <time>2021-08-28T15:16:09.000Z</time>
      </trkpt>
      <trkpt lat="45.11494" lon="5.31783">
        <ele>214.4</ele>
        <time>2021-08-28T15:16:13.000Z</time>
      </trkpt>
      <trkpt lat="45.11482" lon="5.31764">
        <ele>214.6</ele>
        <time>2021-08-28T15:16:18.000Z</time>
      </trkpt>
      <trkpt lat="45.11474" lon="5.3175">
        <ele>214.9</ele>
        <time>2021-08-28T15:16:22.000Z</time>
      </trkpt>
      <trkpt lat="45.11461" lon="5.31724">
        <ele>214.4</ele>
        <time>2021-08-28T15:16:27.000Z</time>
      </trkpt>
      <trkpt lat="45.11452" lon="5.31703">
        <ele>214.7</ele>
        <time>2021-08-28T15:16:31.000Z</time>
      </trkpt>
      <trkpt lat="45.11444" lon="5.31678">
        <ele>214.4</ele>
        <time>2021-08-28T15:16:36.000Z</time>
      </trkpt>
      <trkpt lat="45.11437" lon="5.31657">
        <ele>214.3</ele>
        <time>2021-08-28T15:16:40.000Z</time>
      </trkpt>
      <trkpt lat="45.1143" lon="5.31638">
        <ele>214.5</ele>
        <time>2021-08-28T15:16:44.000Z</time>
      </trkpt>
      <trkpt lat="45.11422" lon="5.31609">
        <ele>214.8</ele>
        <time>2021-08-28T15:16:49.000Z</time>
      </trkpt>
      <trkpt lat="45.11413" lon="5.31582">
        <ele>214.1</ele>
        <time>2021-08-28T15:16:54.000Z</time>
      </trkpt>
      <trkpt lat="45.11406" lon="5.31561">
        <ele>214.4</ele>
        <time>2021-08-28T15:16:58.000Z</time>
      </trkpt>
      <trkpt lat="45.11396" lon="5.31543">
        <ele>214.4</ele>
        <time>2021-08-28T15:17:02.000Z</time>
      </trkpt>
      <trkpt lat="45.11381" lon="5.31524">
        <ele>214.3</ele>
        <time>2021-08-28T15:17:07.000Z</time>
      </trkpt>
      <trkpt lat="45.11369" lon="5.31509">
        <ele>214.2</ele>
        <time>2021-08-28T15:17:12.000Z</time>
      </trkpt>
      <trkpt lat="45.11355" lon="5.3149">
        <ele>214.2</ele>
        <time>2021-08-28T15:17:16.000Z</time>
      </trkpt>
      <trkpt lat="45.11334" lon="5.31461">
        <ele>215</ele>
        <time>2021-08-28T15:17:21.000Z</time>
      </trkpt>
      <trkpt lat="45.11323" lon="5.31448">
        <ele>215</ele>
        <time>2021-08-28T15:17:25.000Z</time>
      </trkpt>
      <trkpt lat="45.11306" lon="5.31433">
        <ele>215</ele>
        <time>2021-08-28T15:17:30.000Z</time>
      </trkpt>
      <trkpt lat="45.11293" lon="5.31419">
        <ele>215</ele>
        <time>2021-08-28T15:17:34.000Z</time>
      </trkpt>
      <trkpt lat="45.11277" lon="5.31398">
        <ele>215</ele>
        <time>2021-08-28T15:17:39.000Z</time>
      </trkpt>
      <trkpt lat="45.11264" lon="5.31381">
        <ele>215</ele>
        <time>2021-08-28T15:17:43.000Z</time>
      </trkpt>
      <trkpt lat="45.11251" lon="5.31363">
        <ele>215</ele>
        <time>2021-08-28T15:17:47.000Z</time>
      </trkpt>
      <trkpt lat="45.11241" lon="5.31343">
        <ele>215</ele>
        <time>2021-08-28T15:17:51.000Z</time>
      </trkpt>
      <trkpt lat="45.11228" lon="5.3132">
        <ele>214.9</ele>
        <time>2021-08-28T15:17:56.000Z</time>
      </trkpt>
      <trkpt lat="45.11218" lon="5.31302">
        <ele>214.9</ele>
        <time>2021-08-28T15:18:00.000Z</time>
      </trkpt>
      <trkpt lat="45.11207" lon="5.31283">
        <ele>214.6</ele>
        <time>2021-08-28T15:18:04.000Z</time>
      </trkpt>
      <trkpt lat="45.11195" lon="5.31264">
        <ele>215</ele>
        <time>2021-08-28T15:18:08.000Z</time>
      </trkpt>
      <trkpt lat="45.11184" lon="5.31242">
        <ele>214.8</ele>
        <time>2021-08-28T15:18:12.000Z</time>
      </trkpt>
      <trkpt lat="45.11172" lon="5.31222">
        <ele>214.8</ele>
        <time>2021-08-28T15:18:16.000Z</time>
      </trkpt>
      <trkpt lat="45.11157" lon="5.31195">
        <ele>214.4</ele>
        <time>2021-08-28T15:18:21.000Z</time>
      </trkpt>
      <trkpt lat="45.11146" lon="5.31174">
        <ele>215.3</ele>
        <time>2021-08-28T15:18:25.000Z</time>
      </trkpt>
      <trkpt lat="45.11136" lon="5.31147">
        <ele>215.4</ele>
        <time>2021-08-28T15:18:30.000Z</time>
      </trkpt>
      <trkpt lat="45.11129" lon="5.31124">
        <ele>215.4</ele>
        <time>2021-08-28T15:18:34.000Z</time>
      </trkpt>
      <trkpt lat="45.11123" lon="5.31099">
        <ele>215.3</ele>
        <time>2021-08-28T15:18:38.000Z</time>
      </trkpt>
      <trkpt lat="45.11117" lon="5.31066">
        <ele>215</ele>
        <time>2021-08-28T15:18:43.000Z</time>
      </trkpt>
      <trkpt lat="45.11109" lon="5.31033">
        <ele>215</ele>
        <time>2021-08-28T15:18:48.000Z</time>
      </trkpt>
      <trkpt lat="45.11101" lon="5.31007">
        <ele>214.5</ele>
        <time>2021-08-28T15:18:52.000Z</time>
      </trkpt>
      <trkpt lat="45.11092" lon="5.30981">
        <ele>214.7</ele>
        <time>2021-08-28T15:18:56.000Z</time>
      </trkpt>
      <trkpt lat="45.11082" lon="5.30953">
        <ele>215</ele>
        <time>2021-08-28T15:19:00.000Z</time>
      </trkpt>
      <trkpt lat="45.11071" lon="5.30919">
        <ele>214.5</ele>
        <time>2021-08-28T15:19:05.000Z</time>
      </trkpt>
      <trkpt lat="45.11062" lon="5.30893">
        <ele>214.8</ele>
        <time>2021-08-28T15:19:09.000Z</time>
      </trkpt>
      <trkpt lat="45.11053" lon="5.30865">
        <ele>214.1</ele>
        <time>2021-08-28T15:19:13.000Z</time>
      </trkpt>
      <trkpt lat="45.11044" lon="5.30838">
        <ele>214</ele>
        <time>2021-08-28T15:19:17.000Z</time>
      </trkpt>
      <trkpt lat="45.11031" lon="5.30805">
        <ele>214</ele>
        <time>2021-08-28T15:19:22.000Z</time>
      </trkpt>
      <trkpt lat="45.11012" lon="5.30776">
        <ele>213.9</ele>
        <time>2021-08-28T15:19:26.000Z</time>
      </trkpt>
      <trkpt lat="45.10995" lon="5.30747">
        <ele>213.2</ele>
        <time>2021-08-28T15:19:30.000Z</time>
      </trkpt>
      <trkpt lat="45.10977" lon="5.3072">
        <ele>213.8</ele>
        <time>2021-08-28T15:19:34.000Z</time>
      </trkpt>
      <trkpt lat="45.10977" lon="5.3072">
        <ele>213.8</ele>
        <time>2021-08-28T15:19:34.000Z</time>
      </trkpt>
      <trkpt lat="45.10959" lon="5.30694">
        <ele>213</ele>
        <time>2021-08-28T15:19:38.000Z</time>
      </trkpt>
      <trkpt lat="45.10937" lon="5.30664">
        <ele>213</ele>
        <time>2021-08-28T15:19:43.000Z</time>
      </trkpt>
      <trkpt lat="45.10916" lon="5.30639">
        <ele>213</ele>
        <time>2021-08-28T15:19:48.000Z</time>
      </trkpt>
      <trkpt lat="45.10898" lon="5.3062">
        <ele>213.7</ele>
        <time>2021-08-28T15:19:53.000Z</time>
      </trkpt>
      <trkpt lat="45.10884" lon="5.30629">
        <ele>214.2</ele>
        <time>2021-08-28T15:19:57.000Z</time>
      </trkpt>
      <trkpt lat="45.10875" lon="5.30651">
        <ele>214.7</ele>
        <time>2021-08-28T15:20:02.000Z</time>
      </trkpt>
      <trkpt lat="45.10861" lon="5.30669">
        <ele>216</ele>
        <time>2021-08-28T15:20:07.000Z</time>
      </trkpt>
      <trkpt lat="45.10848" lon="5.30689">
        <ele>216</ele>
        <time>2021-08-28T15:20:12.000Z</time>
      </trkpt>
      <trkpt lat="45.10835" lon="5.30705">
        <ele>216.4</ele>
        <time>2021-08-28T15:20:16.000Z</time>
      </trkpt>
      <trkpt lat="45.10821" lon="5.30726">
        <ele>217</ele>
        <time>2021-08-28T15:20:21.000Z</time>
      </trkpt>
      <trkpt lat="45.10806" lon="5.30749">
        <ele>217</ele>
        <time>2021-08-28T15:20:26.000Z</time>
      </trkpt>
      <trkpt lat="45.10793" lon="5.30767">
        <ele>217.5</ele>
        <time>2021-08-28T15:20:30.000Z</time>
      </trkpt>
      <trkpt lat="45.1078" lon="5.30785">
        <ele>217.9</ele>
        <time>2021-08-28T15:20:34.000Z</time>
      </trkpt>
      <trkpt lat="45.10766" lon="5.30804">
        <ele>218</ele>
        <time>2021-08-28T15:20:38.000Z</time>
      </trkpt>
      <trkpt lat="45.10753" lon="5.30823">
        <ele>218</ele>
        <time>2021-08-28T15:20:42.000Z</time>
      </trkpt>
      <trkpt lat="45.10736" lon="5.30834">
        <ele>218</ele>
        <time>2021-08-28T15:20:47.000Z</time>
      </trkpt>
      <trkpt lat="45.10736" lon="5.30834">
        <ele>218</ele>
        <time>2021-08-28T15:20:47.000Z</time>
      </trkpt>
      <trkpt lat="45.1072" lon="5.30816">
        <ele>217.9</ele>
        <time>2021-08-28T15:20:51.000Z</time>
      </trkpt>
      <trkpt lat="45.107" lon="5.30788">
        <ele>217.2</ele>
        <time>2021-08-28T15:20:56.000Z</time>
      </trkpt>
      <trkpt lat="45.10678" lon="5.30754">
        <ele>217</ele>
        <time>2021-08-28T15:21:01.000Z</time>
      </trkpt>
      <trkpt lat="45.10662" lon="5.30725">
        <ele>217</ele>
        <time>2021-08-28T15:21:05.000Z</time>
      </trkpt>
      <trkpt lat="45.10643" lon="5.30693">
        <ele>216.8</ele>
        <time>2021-08-28T15:21:10.000Z</time>
      </trkpt>
      <trkpt lat="45.10625" lon="5.30664">
        <ele>216.5</ele>
        <time>2021-08-28T15:21:15.000Z</time>
      </trkpt>
      <trkpt lat="45.10611" lon="5.30642">
        <ele>217</ele>
        <time>2021-08-28T15:21:19.000Z</time>
      </trkpt>
      <trkpt lat="45.10588" lon="5.30642">
        <ele>217</ele>
        <time>2021-08-28T15:21:23.000Z</time>
      </trkpt>
      <trkpt lat="45.10569" lon="5.30621">
        <ele>217.3</ele>
        <time>2021-08-28T15:21:27.000Z</time>
      </trkpt>
      <trkpt lat="45.10574" lon="5.30581">
        <ele>217.3</ele>
        <time>2021-08-28T15:21:31.000Z</time>
      </trkpt>
      <trkpt lat="45.10564" lon="5.30562">
        <ele>217.7</ele>
        <time>2021-08-28T15:21:35.000Z</time>
      </trkpt>
      <trkpt lat="45.10554" lon="5.30532">
        <ele>218</ele>
        <time>2021-08-28T15:21:40.000Z</time>
      </trkpt>
      <trkpt lat="45.10545" lon="5.30499">
        <ele>218</ele>
        <time>2021-08-28T15:21:45.000Z</time>
      </trkpt>
      <trkpt lat="45.10536" lon="5.30473">
        <ele>218</ele>
        <time>2021-08-28T15:21:49.000Z</time>
      </trkpt>
      <trkpt lat="45.10519" lon="5.30445">
        <ele>218</ele>
        <time>2021-08-28T15:21:54.000Z</time>
      </trkpt>
      <trkpt lat="45.105" lon="5.30416">
        <ele>218</ele>
        <time>2021-08-28T15:21:59.000Z</time>
      </trkpt>
      <trkpt lat="45.10485" lon="5.30393">
        <ele>218</ele>
        <time>2021-08-28T15:22:03.000Z</time>
      </trkpt>
      <trkpt lat="45.10469" lon="5.3037">
        <ele>218</ele>
        <time>2021-08-28T15:22:07.000Z</time>
      </trkpt>
      <trkpt lat="45.10449" lon="5.3034">
        <ele>218</ele>
        <time>2021-08-28T15:22:12.000Z</time>
      </trkpt>
      <trkpt lat="45.10433" lon="5.30315">
        <ele>218</ele>
        <time>2021-08-28T15:22:16.000Z</time>
      </trkpt>
      <trkpt lat="45.10413" lon="5.30287">
        <ele>218</ele>
        <time>2021-08-28T15:22:21.000Z</time>
      </trkpt>
      <trkpt lat="45.10395" lon="5.30249">
        <ele>218</ele>
        <time>2021-08-28T15:22:26.000Z</time>
      </trkpt>
      <trkpt lat="45.10379" lon="5.30237">
        <ele>217.5</ele>
        <time>2021-08-28T15:22:30.000Z</time>
      </trkpt>
      <trkpt lat="45.10366" lon="5.30219">
        <ele>217</ele>
        <time>2021-08-28T15:22:35.000Z</time>
      </trkpt>
      <trkpt lat="45.10352" lon="5.30197">
        <ele>217</ele>
        <time>2021-08-28T15:22:39.000Z</time>
      </trkpt>
      <trkpt lat="45.10334" lon="5.3017">
        <ele>217</ele>
        <time>2021-08-28T15:22:44.000Z</time>
      </trkpt>
      <trkpt lat="45.10317" lon="5.30146">
        <ele>216.4</ele>
        <time>2021-08-28T15:22:48.000Z</time>
      </trkpt>
      <trkpt lat="45.10297" lon="5.30122">
        <ele>216.4</ele>
        <time>2021-08-28T15:22:53.000Z</time>
      </trkpt>
      <trkpt lat="45.10276" lon="5.30098">
        <ele>216</ele>
        <time>2021-08-28T15:22:58.000Z</time>
      </trkpt>
      <trkpt lat="45.10261" lon="5.3008">
        <ele>216</ele>
        <time>2021-08-28T15:23:02.000Z</time>
      </trkpt>
      <trkpt lat="45.10261" lon="5.3008">
        <ele>216</ele>
        <time>2021-08-28T15:23:02.000Z</time>
      </trkpt>
      <trkpt lat="45.10244" lon="5.30062">
        <ele>216</ele>
        <time>2021-08-28T15:23:06.000Z</time>
      </trkpt>
      <trkpt lat="45.10226" lon="5.30049">
        <ele>216</ele>
        <time>2021-08-28T15:23:10.000Z</time>
      </trkpt>
      <trkpt lat="45.1021" lon="5.3007">
        <ele>216</ele>
        <time>2021-08-28T15:23:15.000Z</time>
      </trkpt>
      <trkpt lat="45.10201" lon="5.30101">
        <ele>216</ele>
        <time>2021-08-28T15:23:20.000Z</time>
      </trkpt>
      <trkpt lat="45.10193" lon="5.30126">
        <ele>216</ele>
        <time>2021-08-28T15:23:24.000Z</time>
      </trkpt>
      <trkpt lat="45.10184" lon="5.3015">
        <ele>215.6</ele>
        <time>2021-08-28T15:23:29.000Z</time>
      </trkpt>
      <trkpt lat="45.10175" lon="5.3017">
        <ele>215.3</ele>
        <time>2021-08-28T15:23:33.000Z</time>
      </trkpt>
      <trkpt lat="45.10162" lon="5.30198">
        <ele>214.8</ele>
        <time>2021-08-28T15:23:38.000Z</time>
      </trkpt>
      <trkpt lat="45.1015" lon="5.30224">
        <ele>214.4</ele>
        <time>2021-08-28T15:23:42.000Z</time>
      </trkpt>
      <trkpt lat="45.10134" lon="5.30255">
        <ele>214</ele>
        <time>2021-08-28T15:23:47.000Z</time>
      </trkpt>
      <trkpt lat="45.10125" lon="5.30283">
        <ele>214</ele>
        <time>2021-08-28T15:23:51.000Z</time>
      </trkpt>
      <trkpt lat="45.10117" lon="5.3031">
        <ele>214</ele>
        <time>2021-08-28T15:23:55.000Z</time>
      </trkpt>
      <trkpt lat="45.10109" lon="5.3034">
        <ele>214</ele>
        <time>2021-08-28T15:24:00.000Z</time>
      </trkpt>
      <trkpt lat="45.10101" lon="5.30368">
        <ele>214.2</ele>
        <time>2021-08-28T15:24:05.000Z</time>
      </trkpt>
      <trkpt lat="45.10095" lon="5.3039">
        <ele>215</ele>
        <time>2021-08-28T15:24:09.000Z</time>
      </trkpt>
      <trkpt lat="45.10088" lon="5.30408">
        <ele>215</ele>
        <time>2021-08-28T15:24:13.000Z</time>
      </trkpt>
      <trkpt lat="45.10081" lon="5.3043">
        <ele>215</ele>
        <time>2021-08-28T15:24:17.000Z</time>
      </trkpt>
      <trkpt lat="45.10073" lon="5.30453">
        <ele>215.5</ele>
        <time>2021-08-28T15:24:21.000Z</time>
      </trkpt>
      <trkpt lat="45.10067" lon="5.30474">
        <ele>216</ele>
        <time>2021-08-28T15:24:25.000Z</time>
      </trkpt>
      <trkpt lat="45.10055" lon="5.30503">
        <ele>216</ele>
        <time>2021-08-28T15:24:30.000Z</time>
      </trkpt>
      <trkpt lat="45.10045" lon="5.30523">
        <ele>216.3</ele>
        <time>2021-08-28T15:24:34.000Z</time>
      </trkpt>
      <trkpt lat="45.10035" lon="5.30543">
        <ele>216.8</ele>
        <time>2021-08-28T15:24:38.000Z</time>
      </trkpt>
      <trkpt lat="45.10025" lon="5.30561">
        <ele>217</ele>
        <time>2021-08-28T15:24:42.000Z</time>
      </trkpt>
      <trkpt lat="45.10013" lon="5.30582">
        <ele>217</ele>
        <time>2021-08-28T15:24:46.000Z</time>
      </trkpt>
      <trkpt lat="45.10002" lon="5.30605">
        <ele>217</ele>
        <time>2021-08-28T15:24:50.000Z</time>
      </trkpt>
      <trkpt lat="45.0999" lon="5.30626">
        <ele>217.2</ele>
        <time>2021-08-28T15:24:54.000Z</time>
      </trkpt>
      <trkpt lat="45.09976" lon="5.30655">
        <ele>217</ele>
        <time>2021-08-28T15:24:59.000Z</time>
      </trkpt>
      <trkpt lat="45.09964" lon="5.30679">
        <ele>217</ele>
        <time>2021-08-28T15:25:03.000Z</time>
      </trkpt>
      <trkpt lat="45.09947" lon="5.30709">
        <ele>217</ele>
        <time>2021-08-28T15:25:08.000Z</time>
      </trkpt>
      <trkpt lat="45.09935" lon="5.30733">
        <ele>217</ele>
        <time>2021-08-28T15:25:12.000Z</time>
      </trkpt>
      <trkpt lat="45.09923" lon="5.30757">
        <ele>217</ele>
        <time>2021-08-28T15:25:16.000Z</time>
      </trkpt>
      <trkpt lat="45.0991" lon="5.30781">
        <ele>217.2</ele>
        <time>2021-08-28T15:25:21.000Z</time>
      </trkpt>
      <trkpt lat="45.09901" lon="5.30798">
        <ele>217.2</ele>
        <time>2021-08-28T15:25:25.000Z</time>
      </trkpt>
      <trkpt lat="45.09891" lon="5.30817">
        <ele>217</ele>
        <time>2021-08-28T15:25:29.000Z</time>
      </trkpt>
      <trkpt lat="45.09881" lon="5.30837">
        <ele>217.3</ele>
        <time>2021-08-28T15:25:33.000Z</time>
      </trkpt>
      <trkpt lat="45.09869" lon="5.3086">
        <ele>217.7</ele>
        <time>2021-08-28T15:25:37.000Z</time>
      </trkpt>
      <trkpt lat="45.09856" lon="5.30887">
        <ele>218</ele>
        <time>2021-08-28T15:25:42.000Z</time>
      </trkpt>
      <trkpt lat="45.09842" lon="5.30906">
        <ele>217.4</ele>
        <time>2021-08-28T15:25:46.000Z</time>
      </trkpt>
      <trkpt lat="45.09825" lon="5.30928">
        <ele>217.2</ele>
        <time>2021-08-28T15:25:50.000Z</time>
      </trkpt>
      <trkpt lat="45.09811" lon="5.30948">
        <ele>217</ele>
        <time>2021-08-28T15:25:54.000Z</time>
      </trkpt>
      <trkpt lat="45.09795" lon="5.30981">
        <ele>217.6</ele>
        <time>2021-08-28T15:25:59.000Z</time>
      </trkpt>
      <trkpt lat="45.09781" lon="5.31012">
        <ele>218</ele>
        <time>2021-08-28T15:26:04.000Z</time>
      </trkpt>
      <trkpt lat="45.09769" lon="5.31039">
        <ele>218</ele>
        <time>2021-08-28T15:26:08.000Z</time>
      </trkpt>
      <trkpt lat="45.09758" lon="5.31064">
        <ele>218</ele>
        <time>2021-08-28T15:26:12.000Z</time>
      </trkpt>
      <trkpt lat="45.09749" lon="5.31089">
        <ele>218</ele>
        <time>2021-08-28T15:26:16.000Z</time>
      </trkpt>
      <trkpt lat="45.09732" lon="5.31118">
        <ele>218.3</ele>
        <time>2021-08-28T15:26:21.000Z</time>
      </trkpt>
      <trkpt lat="45.09717" lon="5.31138">
        <ele>219</ele>
        <time>2021-08-28T15:26:25.000Z</time>
      </trkpt>
      <trkpt lat="45.09699" lon="5.31162">
        <ele>219.8</ele>
        <time>2021-08-28T15:26:30.000Z</time>
      </trkpt>
      <trkpt lat="45.09687" lon="5.31181">
        <ele>220.5</ele>
        <time>2021-08-28T15:26:34.000Z</time>
      </trkpt>
      <trkpt lat="45.09674" lon="5.31205">
        <ele>221.7</ele>
        <time>2021-08-28T15:26:39.000Z</time>
      </trkpt>
      <trkpt lat="45.09663" lon="5.31223">
        <ele>223.2</ele>
        <time>2021-08-28T15:26:44.000Z</time>
      </trkpt>
      <trkpt lat="45.09663" lon="5.31223">
        <ele>223.2</ele>
        <time>2021-08-28T15:26:44.000Z</time>
      </trkpt>
      <trkpt lat="45.09652" lon="5.31222">
        <ele>223.5</ele>
        <time>2021-08-28T15:26:48.000Z</time>
      </trkpt>
      <trkpt lat="45.09631" lon="5.31209">
        <ele>223</ele>
        <time>2021-08-28T15:26:53.000Z</time>
      </trkpt>
      <trkpt lat="45.09611" lon="5.31196">
        <ele>222.1</ele>
        <time>2021-08-28T15:26:57.000Z</time>
      </trkpt>
      <trkpt lat="45.09586" lon="5.3118">
        <ele>221.9</ele>
        <time>2021-08-28T15:27:02.000Z</time>
      </trkpt>
      <trkpt lat="45.09565" lon="5.31168">
        <ele>221.1</ele>
        <time>2021-08-28T15:27:06.000Z</time>
      </trkpt>
      <trkpt lat="45.09544" lon="5.31154">
        <ele>220.3</ele>
        <time>2021-08-28T15:27:10.000Z</time>
      </trkpt>
      <trkpt lat="45.09522" lon="5.31141">
        <ele>220.1</ele>
        <time>2021-08-28T15:27:14.000Z</time>
      </trkpt>
      <trkpt lat="45.095" lon="5.31128">
        <ele>219.6</ele>
        <time>2021-08-28T15:27:18.000Z</time>
      </trkpt>
      <trkpt lat="45.09479" lon="5.31117">
        <ele>220</ele>
        <time>2021-08-28T15:27:22.000Z</time>
      </trkpt>
      <trkpt lat="45.09458" lon="5.31108">
        <ele>219.9</ele>
        <time>2021-08-28T15:27:26.000Z</time>
      </trkpt>
      <trkpt lat="45.09438" lon="5.31099">
        <ele>219.7</ele>
        <time>2021-08-28T15:27:30.000Z</time>
      </trkpt>
      <trkpt lat="45.09417" lon="5.31091">
        <ele>220</ele>
        <time>2021-08-28T15:27:34.000Z</time>
      </trkpt>
      <trkpt lat="45.09396" lon="5.31083">
        <ele>220.7</ele>
        <time>2021-08-28T15:27:38.000Z</time>
      </trkpt>
      <trkpt lat="45.09374" lon="5.31076">
        <ele>221.8</ele>
        <time>2021-08-28T15:27:42.000Z</time>
      </trkpt>
      <trkpt lat="45.09353" lon="5.31068">
        <ele>223.2</ele>
        <time>2021-08-28T15:27:46.000Z</time>
      </trkpt>
      <trkpt lat="45.09328" lon="5.31057">
        <ele>224.3</ele>
        <time>2021-08-28T15:27:51.000Z</time>
      </trkpt>
      <trkpt lat="45.0931" lon="5.31052">
        <ele>224.6</ele>
        <time>2021-08-28T15:27:55.000Z</time>
      </trkpt>
      <trkpt lat="45.09288" lon="5.31045">
        <ele>225</ele>
        <time>2021-08-28T15:28:00.000Z</time>
      </trkpt>
      <trkpt lat="45.09267" lon="5.31037">
        <ele>225.4</ele>
        <time>2021-08-28T15:28:05.000Z</time>
      </trkpt>
      <trkpt lat="45.09249" lon="5.3103">
        <ele>225.7</ele>
        <time>2021-08-28T15:28:09.000Z</time>
      </trkpt>
      <trkpt lat="45.0923" lon="5.31023">
        <ele>227</ele>
        <time>2021-08-28T15:28:13.000Z</time>
      </trkpt>
      <trkpt lat="45.09206" lon="5.31015">
        <ele>228.6</ele>
        <time>2021-08-28T15:28:18.000Z</time>
      </trkpt>
      <trkpt lat="45.09184" lon="5.31008">
        <ele>230.1</ele>
        <time>2021-08-28T15:28:23.000Z</time>
      </trkpt>
      <trkpt lat="45.09164" lon="5.31001">
        <ele>230.7</ele>
        <time>2021-08-28T15:28:27.000Z</time>
      </trkpt>
      <trkpt lat="45.0914" lon="5.30993">
        <ele>232.4</ele>
        <time>2021-08-28T15:28:32.000Z</time>
      </trkpt>
      <trkpt lat="45.09125" lon="5.30987">
        <ele>232</ele>
        <time>2021-08-28T15:28:36.000Z</time>
      </trkpt>
      <trkpt lat="45.09105" lon="5.30978">
        <ele>231.3</ele>
        <time>2021-08-28T15:28:41.000Z</time>
      </trkpt>
      <trkpt lat="45.09087" lon="5.30972">
        <ele>230.7</ele>
        <time>2021-08-28T15:28:45.000Z</time>
      </trkpt>
      <trkpt lat="45.09068" lon="5.30965">
        <ele>229.2</ele>
        <time>2021-08-28T15:28:50.000Z</time>
      </trkpt>
      <trkpt lat="45.09051" lon="5.30958">
        <ele>228</ele>
        <time>2021-08-28T15:28:54.000Z</time>
      </trkpt>
      <trkpt lat="45.09033" lon="5.30951">
        <ele>227</ele>
        <time>2021-08-28T15:28:58.000Z</time>
      </trkpt>
      <trkpt lat="45.09017" lon="5.30943">
        <ele>225.9</ele>
        <time>2021-08-28T15:29:02.000Z</time>
      </trkpt>
      <trkpt lat="45.09" lon="5.30934">
        <ele>225.3</ele>
        <time>2021-08-28T15:29:06.000Z</time>
      </trkpt>
      <trkpt lat="45.08982" lon="5.30926">
        <ele>225.3</ele>
        <time>2021-08-28T15:29:10.000Z</time>
      </trkpt>
      <trkpt lat="45.08961" lon="5.3092">
        <ele>225.7</ele>
        <time>2021-08-28T15:29:15.000Z</time>
      </trkpt>
      <trkpt lat="45.08942" lon="5.30914">
        <ele>225.8</ele>
        <time>2021-08-28T15:29:20.000Z</time>
      </trkpt>
      <trkpt lat="45.08924" lon="5.30909">
        <ele>225.5</ele>
        <time>2021-08-28T15:29:24.000Z</time>
      </trkpt>
      <trkpt lat="45.08902" lon="5.30903">
        <ele>225.2</ele>
        <time>2021-08-28T15:29:29.000Z</time>
      </trkpt>
      <trkpt lat="45.08885" lon="5.30897">
        <ele>225</ele>
        <time>2021-08-28T15:29:33.000Z</time>
      </trkpt>
      <trkpt lat="45.08863" lon="5.30889">
        <ele>225</ele>
        <time>2021-08-28T15:29:38.000Z</time>
      </trkpt>
      <trkpt lat="45.08847" lon="5.30885">
        <ele>224.7</ele>
        <time>2021-08-28T15:29:42.000Z</time>
      </trkpt>
      <trkpt lat="45.08832" lon="5.30881">
        <ele>224.4</ele>
        <time>2021-08-28T15:29:46.000Z</time>
      </trkpt>
      <trkpt lat="45.08812" lon="5.30874">
        <ele>224.3</ele>
        <time>2021-08-28T15:29:51.000Z</time>
      </trkpt>
      <trkpt lat="45.08795" lon="5.30871">
        <ele>224.5</ele>
        <time>2021-08-28T15:29:55.000Z</time>
      </trkpt>
      <trkpt lat="45.08775" lon="5.30866">
        <ele>224.9</ele>
        <time>2021-08-28T15:30:00.000Z</time>
      </trkpt>
      <trkpt lat="45.08756" lon="5.30861">
        <ele>225.5</ele>
        <time>2021-08-28T15:30:05.000Z</time>
      </trkpt>
      <trkpt lat="45.08743" lon="5.30857">
        <ele>226.2</ele>
        <time>2021-08-28T15:30:09.000Z</time>
      </trkpt>
      <trkpt lat="45.0873" lon="5.30857">
        <ele>227</ele>
        <time>2021-08-28T15:30:13.000Z</time>
      </trkpt>
      <trkpt lat="45.08712" lon="5.30853">
        <ele>228.1</ele>
        <time>2021-08-28T15:30:18.000Z</time>
      </trkpt>
      <trkpt lat="45.08695" lon="5.30847">
        <ele>229</ele>
        <time>2021-08-28T15:30:22.000Z</time>
      </trkpt>
      <trkpt lat="45.08673" lon="5.3084">
        <ele>229.1</ele>
        <time>2021-08-28T15:30:27.000Z</time>
      </trkpt>
      <trkpt lat="45.08655" lon="5.30833">
        <ele>228.8</ele>
        <time>2021-08-28T15:30:31.000Z</time>
      </trkpt>
      <trkpt lat="45.08634" lon="5.30822">
        <ele>229.2</ele>
        <time>2021-08-28T15:30:36.000Z</time>
      </trkpt>
      <trkpt lat="45.08618" lon="5.30815">
        <ele>229.2</ele>
        <time>2021-08-28T15:30:40.000Z</time>
      </trkpt>
      <trkpt lat="45.08602" lon="5.30806">
        <ele>228.7</ele>
        <time>2021-08-28T15:30:44.000Z</time>
      </trkpt>
      <trkpt lat="45.08587" lon="5.30796">
        <ele>229.1</ele>
        <time>2021-08-28T15:30:48.000Z</time>
      </trkpt>
      <trkpt lat="45.0857" lon="5.30788">
        <ele>228.8</ele>
        <time>2021-08-28T15:30:53.000Z</time>
      </trkpt>
      <trkpt lat="45.08557" lon="5.30782">
        <ele>228.3</ele>
        <time>2021-08-28T15:30:57.000Z</time>
      </trkpt>
      <trkpt lat="45.08544" lon="5.30774">
        <ele>228.3</ele>
        <time>2021-08-28T15:31:01.000Z</time>
      </trkpt>
      <trkpt lat="45.08534" lon="5.30768">
        <ele>228.4</ele>
        <time>2021-08-28T15:31:05.000Z</time>
      </trkpt>
      <trkpt lat="45.08521" lon="5.30773">
        <ele>229</ele>
        <time>2021-08-28T15:31:09.000Z</time>
      </trkpt>
      <trkpt lat="45.08506" lon="5.30784">
        <ele>230.6</ele>
        <time>2021-08-28T15:31:14.000Z</time>
      </trkpt>
      <trkpt lat="45.08494" lon="5.30786">
        <ele>231.6</ele>
        <time>2021-08-28T15:31:18.000Z</time>
      </trkpt>
      <trkpt lat="45.0848" lon="5.30785">
        <ele>232.2</ele>
        <time>2021-08-28T15:31:23.000Z</time>
      </trkpt>
      <trkpt lat="45.08471" lon="5.30782">
        <ele>232</ele>
        <time>2021-08-28T15:31:27.000Z</time>
      </trkpt>
      <trkpt lat="45.0846" lon="5.30776">
        <ele>232.5</ele>
        <time>2021-08-28T15:31:32.000Z</time>
      </trkpt>
      <trkpt lat="45.0845" lon="5.30771">
        <ele>233.3</ele>
        <time>2021-08-28T15:31:36.000Z</time>
      </trkpt>
      <trkpt lat="45.08439" lon="5.30766">
        <ele>234</ele>
        <time>2021-08-28T15:31:40.000Z</time>
      </trkpt>
      <trkpt lat="45.0843" lon="5.30761">
        <ele>234.8</ele>
        <time>2021-08-28T15:31:44.000Z</time>
      </trkpt>
      <trkpt lat="45.0842" lon="5.30755">
        <ele>235.3</ele>
        <time>2021-08-28T15:31:48.000Z</time>
      </trkpt>
      <trkpt lat="45.08408" lon="5.3075">
        <ele>236.2</ele>
        <time>2021-08-28T15:31:53.000Z</time>
      </trkpt>
      <trkpt lat="45.08398" lon="5.30745">
        <ele>236.9</ele>
        <time>2021-08-28T15:31:57.000Z</time>
      </trkpt>
      <trkpt lat="45.08388" lon="5.3074">
        <ele>237.6</ele>
        <time>2021-08-28T15:32:01.000Z</time>
      </trkpt>
      <trkpt lat="45.08378" lon="5.30736">
        <ele>238.6</ele>
        <time>2021-08-28T15:32:05.000Z</time>
      </trkpt>
      <trkpt lat="45.08365" lon="5.30732">
        <ele>239.9</ele>
        <time>2021-08-28T15:32:10.000Z</time>
      </trkpt>
      <trkpt lat="45.08353" lon="5.30728">
        <ele>240.9</ele>
        <time>2021-08-28T15:32:15.000Z</time>
      </trkpt>
      <trkpt lat="45.08343" lon="5.30725">
        <ele>241.6</ele>
        <time>2021-08-28T15:32:19.000Z</time>
      </trkpt>
      <trkpt lat="45.08329" lon="5.30721">
        <ele>242.6</ele>
        <time>2021-08-28T15:32:24.000Z</time>
      </trkpt>
      <trkpt lat="45.08319" lon="5.30717">
        <ele>243.6</ele>
        <time>2021-08-28T15:32:28.000Z</time>
      </trkpt>
      <trkpt lat="45.08306" lon="5.30712">
        <ele>244.7</ele>
        <time>2021-08-28T15:32:33.000Z</time>
      </trkpt>
      <trkpt lat="45.08297" lon="5.3071">
        <ele>245.9</ele>
        <time>2021-08-28T15:32:37.000Z</time>
      </trkpt>
      <trkpt lat="45.08283" lon="5.30706">
        <ele>247.4</ele>
        <time>2021-08-28T15:32:42.000Z</time>
      </trkpt>
      <trkpt lat="45.0827" lon="5.30701">
        <ele>248.7</ele>
        <time>2021-08-28T15:32:47.000Z</time>
      </trkpt>
      <trkpt lat="45.0826" lon="5.30696">
        <ele>249.6</ele>
        <time>2021-08-28T15:32:51.000Z</time>
      </trkpt>
      <trkpt lat="45.08247" lon="5.30693">
        <ele>251.3</ele>
        <time>2021-08-28T15:32:56.000Z</time>
      </trkpt>
      <trkpt lat="45.08236" lon="5.30691">
        <ele>253.2</ele>
        <time>2021-08-28T15:33:00.000Z</time>
      </trkpt>
      <trkpt lat="45.08225" lon="5.30687">
        <ele>254.5</ele>
        <time>2021-08-28T15:33:04.000Z</time>
      </trkpt>
      <trkpt lat="45.08214" lon="5.30683">
        <ele>255.8</ele>
        <time>2021-08-28T15:33:08.000Z</time>
      </trkpt>
      <trkpt lat="45.08204" lon="5.30677">
        <ele>256.5</ele>
        <time>2021-08-28T15:33:12.000Z</time>
      </trkpt>
      <trkpt lat="45.08191" lon="5.30668">
        <ele>257</ele>
        <time>2021-08-28T15:33:17.000Z</time>
      </trkpt>
      <trkpt lat="45.0818" lon="5.3066">
        <ele>257.2</ele>
        <time>2021-08-28T15:33:21.000Z</time>
      </trkpt>
      <trkpt lat="45.0817" lon="5.30651">
        <ele>257</ele>
        <time>2021-08-28T15:33:25.000Z</time>
      </trkpt>
      <trkpt lat="45.08157" lon="5.30641">
        <ele>256.7</ele>
        <time>2021-08-28T15:33:30.000Z</time>
      </trkpt>
      <trkpt lat="45.08147" lon="5.30633">
        <ele>256.7</ele>
        <time>2021-08-28T15:33:34.000Z</time>
      </trkpt>
      <trkpt lat="45.08135" lon="5.30623">
        <ele>256.5</ele>
        <time>2021-08-28T15:33:39.000Z</time>
      </trkpt>
      <trkpt lat="45.08122" lon="5.30611">
        <ele>256.1</ele>
        <time>2021-08-28T15:33:44.000Z</time>
      </trkpt>
      <trkpt lat="45.08113" lon="5.30602">
        <ele>255.7</ele>
        <time>2021-08-28T15:33:48.000Z</time>
      </trkpt>
      <trkpt lat="45.08103" lon="5.30593">
        <ele>255.2</ele>
        <time>2021-08-28T15:33:52.000Z</time>
      </trkpt>
      <trkpt lat="45.08091" lon="5.30581">
        <ele>254</ele>
        <time>2021-08-28T15:33:57.000Z</time>
      </trkpt>
      <trkpt lat="45.08082" lon="5.30573">
        <ele>253.6</ele>
        <time>2021-08-28T15:34:01.000Z</time>
      </trkpt>
      <trkpt lat="45.0807" lon="5.30561">
        <ele>253.3</ele>
        <time>2021-08-28T15:34:06.000Z</time>
      </trkpt>
      <trkpt lat="45.08059" lon="5.30547">
        <ele>251.9</ele>
        <time>2021-08-28T15:34:11.000Z</time>
      </trkpt>
      <trkpt lat="45.08046" lon="5.30536">
        <ele>251.8</ele>
        <time>2021-08-28T15:34:16.000Z</time>
      </trkpt>
      <trkpt lat="45.08036" lon="5.30529">
        <ele>252.3</ele>
        <time>2021-08-28T15:34:20.000Z</time>
      </trkpt>
      <trkpt lat="45.08026" lon="5.30525">
        <ele>253.6</ele>
        <time>2021-08-28T15:34:24.000Z</time>
      </trkpt>
      <trkpt lat="45.08015" lon="5.30527">
        <ele>258.4</ele>
        <time>2021-08-28T15:34:29.000Z</time>
      </trkpt>
      <trkpt lat="45.08009" lon="5.30539">
        <ele>264.4</ele>
        <time>2021-08-28T15:34:33.000Z</time>
      </trkpt>
      <trkpt lat="45.08009" lon="5.30539">
        <ele>264.4</ele>
        <time>2021-08-28T15:34:33.000Z</time>
      </trkpt>
      <trkpt lat="45.08002" lon="5.30551">
        <ele>270.8</ele>
        <time>2021-08-28T15:34:38.000Z</time>
      </trkpt>
      <trkpt lat="45.07999" lon="5.30567">
        <ele>276</ele>
        <time>2021-08-28T15:34:42.000Z</time>
      </trkpt>
      <trkpt lat="45.07996" lon="5.30581">
        <ele>280.8</ele>
        <time>2021-08-28T15:34:46.000Z</time>
      </trkpt>
      <trkpt lat="45.07935" lon="5.30818">
        <ele>278.5</ele>
        <time>2021-08-28T15:35:45.000Z</time>
      </trkpt>
      <trkpt lat="45.07935" lon="5.30825">
        <ele>277.7</ele>
        <time>2021-08-28T15:35:51.000Z</time>
      </trkpt>
      <trkpt lat="45.07928" lon="5.30842">
        <ele>275.6</ele>
        <time>2021-08-28T15:35:55.000Z</time>
      </trkpt>
      <trkpt lat="45.07919" lon="5.30872">
        <ele>271.6</ele>
        <time>2021-08-28T15:36:00.000Z</time>
      </trkpt>
      <trkpt lat="45.0791" lon="5.30905">
        <ele>268.6</ele>
        <time>2021-08-28T15:36:05.000Z</time>
      </trkpt>
      <trkpt lat="45.07897" lon="5.30932">
        <ele>266.4</ele>
        <time>2021-08-28T15:36:09.000Z</time>
      </trkpt>
      <trkpt lat="45.07872" lon="5.30961">
        <ele>263.6</ele>
        <time>2021-08-28T15:36:13.000Z</time>
      </trkpt>
      <trkpt lat="45.07839" lon="5.31">
        <ele>261.6</ele>
        <time>2021-08-28T15:36:18.000Z</time>
      </trkpt>
      <trkpt lat="45.07812" lon="5.31032">
        <ele>258.9</ele>
        <time>2021-08-28T15:36:22.000Z</time>
      </trkpt>
      <trkpt lat="45.07784" lon="5.31064">
        <ele>253.8</ele>
        <time>2021-08-28T15:36:26.000Z</time>
      </trkpt>
      <trkpt lat="45.07766" lon="5.3111">
        <ele>249.9</ele>
        <time>2021-08-28T15:36:30.000Z</time>
      </trkpt>
      <trkpt lat="45.07788" lon="5.3117">
        <ele>249.5</ele>
        <time>2021-08-28T15:36:35.000Z</time>
      </trkpt>
      <trkpt lat="45.07822" lon="5.31203">
        <ele>250.1</ele>
        <time>2021-08-28T15:36:39.000Z</time>
      </trkpt>
      <trkpt lat="45.07832" lon="5.31266">
        <ele>245.4</ele>
        <time>2021-08-28T15:36:44.000Z</time>
      </trkpt>
      <trkpt lat="45.07832" lon="5.31266">
        <ele>245.4</ele>
        <time>2021-08-28T15:36:44.000Z</time>
      </trkpt>
      <trkpt lat="45.07803" lon="5.31306">
        <ele>248.4</ele>
        <time>2021-08-28T15:36:48.000Z</time>
      </trkpt>
      <trkpt lat="45.07759" lon="5.31298">
        <ele>252.2</ele>
        <time>2021-08-28T15:36:52.000Z</time>
      </trkpt>
      <trkpt lat="45.07722" lon="5.3126">
        <ele>248.2</ele>
        <time>2021-08-28T15:36:57.000Z</time>
      </trkpt>
      <trkpt lat="45.07691" lon="5.31243">
        <ele>248</ele>
        <time>2021-08-28T15:37:01.000Z</time>
      </trkpt>
      <trkpt lat="45.07655" lon="5.31231">
        <ele>247.6</ele>
        <time>2021-08-28T15:37:06.000Z</time>
      </trkpt>
      <trkpt lat="45.07629" lon="5.31237">
        <ele>250</ele>
        <time>2021-08-28T15:37:10.000Z</time>
      </trkpt>
      <trkpt lat="45.07605" lon="5.3124">
        <ele>251.3</ele>
        <time>2021-08-28T15:37:14.000Z</time>
      </trkpt>
      <trkpt lat="45.07582" lon="5.31232">
        <ele>248.4</ele>
        <time>2021-08-28T15:37:18.000Z</time>
      </trkpt>
      <trkpt lat="45.07553" lon="5.31231">
        <ele>246.3</ele>
        <time>2021-08-28T15:37:23.000Z</time>
      </trkpt>
      <trkpt lat="45.07531" lon="5.3125">
        <ele>246.5</ele>
        <time>2021-08-28T15:37:27.000Z</time>
      </trkpt>
      <trkpt lat="45.07506" lon="5.3128">
        <ele>248.7</ele>
        <time>2021-08-28T15:37:32.000Z</time>
      </trkpt>
      <trkpt lat="45.07484" lon="5.31294">
        <ele>248.2</ele>
        <time>2021-08-28T15:37:36.000Z</time>
      </trkpt>
      <trkpt lat="45.07459" lon="5.313">
        <ele>245.6</ele>
        <time>2021-08-28T15:37:40.000Z</time>
      </trkpt>
      <trkpt lat="45.07435" lon="5.31307">
        <ele>242.6</ele>
        <time>2021-08-28T15:37:44.000Z</time>
      </trkpt>
      <trkpt lat="45.07413" lon="5.31324">
        <ele>242.3</ele>
        <time>2021-08-28T15:37:48.000Z</time>
      </trkpt>
      <trkpt lat="45.07388" lon="5.31352">
        <ele>243.2</ele>
        <time>2021-08-28T15:37:53.000Z</time>
      </trkpt>
      <trkpt lat="45.07367" lon="5.31373">
        <ele>243.2</ele>
        <time>2021-08-28T15:37:57.000Z</time>
      </trkpt>
      <trkpt lat="45.07347" lon="5.31394">
        <ele>243</ele>
        <time>2021-08-28T15:38:01.000Z</time>
      </trkpt>
      <trkpt lat="45.07332" lon="5.31419">
        <ele>244.3</ele>
        <time>2021-08-28T15:38:05.000Z</time>
      </trkpt>
      <trkpt lat="45.07313" lon="5.3144">
        <ele>244.8</ele>
        <time>2021-08-28T15:38:09.000Z</time>
      </trkpt>
      <trkpt lat="45.07291" lon="5.31458">
        <ele>244</ele>
        <time>2021-08-28T15:38:13.000Z</time>
      </trkpt>
      <trkpt lat="45.07264" lon="5.31478">
        <ele>243</ele>
        <time>2021-08-28T15:38:18.000Z</time>
      </trkpt>
      <trkpt lat="45.07242" lon="5.31497">
        <ele>242.6</ele>
        <time>2021-08-28T15:38:22.000Z</time>
      </trkpt>
      <trkpt lat="45.07216" lon="5.31516">
        <ele>242.6</ele>
        <time>2021-08-28T15:38:27.000Z</time>
      </trkpt>
      <trkpt lat="45.07195" lon="5.31518">
        <ele>242.6</ele>
        <time>2021-08-28T15:38:31.000Z</time>
      </trkpt>
      <trkpt lat="45.07177" lon="5.3151">
        <ele>241.4</ele>
        <time>2021-08-28T15:38:35.000Z</time>
      </trkpt>
      <trkpt lat="45.07158" lon="5.31501">
        <ele>240.8</ele>
        <time>2021-08-28T15:38:39.000Z</time>
      </trkpt>
      <trkpt lat="45.07132" lon="5.31508">
        <ele>243.3</ele>
        <time>2021-08-28T15:38:44.000Z</time>
      </trkpt>
      <trkpt lat="45.07132" lon="5.31508">
        <ele>243.3</ele>
        <time>2021-08-28T15:38:44.000Z</time>
      </trkpt>
      <trkpt lat="45.07117" lon="5.31527">
        <ele>245.7</ele>
        <time>2021-08-28T15:38:48.000Z</time>
      </trkpt>
      <trkpt lat="45.07107" lon="5.31562">
        <ele>246.2</ele>
        <time>2021-08-28T15:38:53.000Z</time>
      </trkpt>
      <trkpt lat="45.07101" lon="5.31595">
        <ele>242.7</ele>
        <time>2021-08-28T15:38:57.000Z</time>
      </trkpt>
      <trkpt lat="45.07094" lon="5.3163">
        <ele>240.9</ele>
        <time>2021-08-28T15:39:01.000Z</time>
      </trkpt>
      <trkpt lat="45.07088" lon="5.31665">
        <ele>243.5</ele>
        <time>2021-08-28T15:39:06.000Z</time>
      </trkpt>
      <trkpt lat="45.07083" lon="5.3169">
        <ele>246.5</ele>
        <time>2021-08-28T15:39:10.000Z</time>
      </trkpt>
      <trkpt lat="45.07076" lon="5.31723">
        <ele>248.5</ele>
        <time>2021-08-28T15:39:15.000Z</time>
      </trkpt>
      <trkpt lat="45.07072" lon="5.3176">
        <ele>248.6</ele>
        <time>2021-08-28T15:39:20.000Z</time>
      </trkpt>
      <trkpt lat="45.07068" lon="5.31792">
        <ele>248.2</ele>
        <time>2021-08-28T15:39:24.000Z</time>
      </trkpt>
      <trkpt lat="45.07063" lon="5.31834">
        <ele>248.3</ele>
        <time>2021-08-28T15:39:29.000Z</time>
      </trkpt>
      <trkpt lat="45.07059" lon="5.31864">
        <ele>247.2</ele>
        <time>2021-08-28T15:39:33.000Z</time>
      </trkpt>
      <trkpt lat="45.07054" lon="5.31901">
        <ele>247.2</ele>
        <time>2021-08-28T15:39:38.000Z</time>
      </trkpt>
      <trkpt lat="45.07048" lon="5.31932">
        <ele>246.8</ele>
        <time>2021-08-28T15:39:42.000Z</time>
      </trkpt>
      <trkpt lat="45.0704" lon="5.31969">
        <ele>244.8</ele>
        <time>2021-08-28T15:39:47.000Z</time>
      </trkpt>
      <trkpt lat="45.07032" lon="5.31997">
        <ele>241.6</ele>
        <time>2021-08-28T15:39:51.000Z</time>
      </trkpt>
      <trkpt lat="45.07021" lon="5.32028">
        <ele>238.8</ele>
        <time>2021-08-28T15:39:56.000Z</time>
      </trkpt>
      <trkpt lat="45.07012" lon="5.3205">
        <ele>237.8</ele>
        <time>2021-08-28T15:40:00.000Z</time>
      </trkpt>
      <trkpt lat="45.07002" lon="5.32069">
        <ele>237.9</ele>
        <time>2021-08-28T15:40:04.000Z</time>
      </trkpt>
      <trkpt lat="45.06991" lon="5.32091">
        <ele>239.9</ele>
        <time>2021-08-28T15:40:09.000Z</time>
      </trkpt>
      <trkpt lat="45.06979" lon="5.32109">
        <ele>242.7</ele>
        <time>2021-08-28T15:40:14.000Z</time>
      </trkpt>
      <trkpt lat="45.06968" lon="5.32122">
        <ele>244.8</ele>
        <time>2021-08-28T15:40:18.000Z</time>
      </trkpt>
      <trkpt lat="45.06957" lon="5.32139">
        <ele>246.1</ele>
        <time>2021-08-28T15:40:23.000Z</time>
      </trkpt>
      <trkpt lat="45.06945" lon="5.32152">
        <ele>247</ele>
        <time>2021-08-28T15:40:27.000Z</time>
      </trkpt>
      <trkpt lat="45.0693" lon="5.3217">
        <ele>247.7</ele>
        <time>2021-08-28T15:40:31.000Z</time>
      </trkpt>
      <trkpt lat="45.06918" lon="5.32192">
        <ele>248.9</ele>
        <time>2021-08-28T15:40:36.000Z</time>
      </trkpt>
      <trkpt lat="45.06918" lon="5.32192">
        <ele>248.9</ele>
        <time>2021-08-28T15:40:36.000Z</time>
      </trkpt>
      <trkpt lat="45.06907" lon="5.32208">
        <ele>250.2</ele>
        <time>2021-08-28T15:40:40.000Z</time>
      </trkpt>
      <trkpt lat="45.06887" lon="5.32228">
        <ele>251.4</ele>
        <time>2021-08-28T15:40:45.000Z</time>
      </trkpt>
      <trkpt lat="45.06867" lon="5.3225">
        <ele>251.4</ele>
        <time>2021-08-28T15:40:50.000Z</time>
      </trkpt>
      <trkpt lat="45.06849" lon="5.32268">
        <ele>250.8</ele>
        <time>2021-08-28T15:40:54.000Z</time>
      </trkpt>
      <trkpt lat="45.06827" lon="5.32291">
        <ele>249.9</ele>
        <time>2021-08-28T15:40:59.000Z</time>
      </trkpt>
      <trkpt lat="45.06805" lon="5.32313">
        <ele>248.2</ele>
        <time>2021-08-28T15:41:04.000Z</time>
      </trkpt>
      <trkpt lat="45.06788" lon="5.32333">
        <ele>248.3</ele>
        <time>2021-08-28T15:41:08.000Z</time>
      </trkpt>
      <trkpt lat="45.06771" lon="5.3235">
        <ele>248.3</ele>
        <time>2021-08-28T15:41:12.000Z</time>
      </trkpt>
      <trkpt lat="45.06752" lon="5.32366">
        <ele>248.3</ele>
        <time>2021-08-28T15:41:16.000Z</time>
      </trkpt>
      <trkpt lat="45.06733" lon="5.3238">
        <ele>248.7</ele>
        <time>2021-08-28T15:41:20.000Z</time>
      </trkpt>
      <trkpt lat="45.06714" lon="5.32392">
        <ele>249.1</ele>
        <time>2021-08-28T15:41:24.000Z</time>
      </trkpt>
      <trkpt lat="45.06689" lon="5.32409">
        <ele>249.6</ele>
        <time>2021-08-28T15:41:29.000Z</time>
      </trkpt>
      <trkpt lat="45.06668" lon="5.32424">
        <ele>249.3</ele>
        <time>2021-08-28T15:41:33.000Z</time>
      </trkpt>
      <trkpt lat="45.06645" lon="5.3244">
        <ele>249.2</ele>
        <time>2021-08-28T15:41:38.000Z</time>
      </trkpt>
      <trkpt lat="45.06627" lon="5.32451">
        <ele>249.2</ele>
        <time>2021-08-28T15:41:42.000Z</time>
      </trkpt>
      <trkpt lat="45.06609" lon="5.32464">
        <ele>249.7</ele>
        <time>2021-08-28T15:41:46.000Z</time>
      </trkpt>
      <trkpt lat="45.06584" lon="5.3248">
        <ele>250</ele>
        <time>2021-08-28T15:41:51.000Z</time>
      </trkpt>
      <trkpt lat="45.06565" lon="5.32494">
        <ele>249.5</ele>
        <time>2021-08-28T15:41:55.000Z</time>
      </trkpt>
      <trkpt lat="45.0654" lon="5.32511">
        <ele>249</ele>
        <time>2021-08-28T15:42:00.000Z</time>
      </trkpt>
      <trkpt lat="45.06516" lon="5.32528">
        <ele>249</ele>
        <time>2021-08-28T15:42:05.000Z</time>
      </trkpt>
      <trkpt lat="45.06498" lon="5.3254">
        <ele>249.4</ele>
        <time>2021-08-28T15:42:09.000Z</time>
      </trkpt>
      <trkpt lat="45.0648" lon="5.32553">
        <ele>249.9</ele>
        <time>2021-08-28T15:42:13.000Z</time>
      </trkpt>
      <trkpt lat="45.06455" lon="5.32571">
        <ele>250</ele>
        <time>2021-08-28T15:42:18.000Z</time>
      </trkpt>
      <trkpt lat="45.06433" lon="5.32585">
        <ele>250.4</ele>
        <time>2021-08-28T15:42:22.000Z</time>
      </trkpt>
      <trkpt lat="45.06407" lon="5.32603">
        <ele>251.3</ele>
        <time>2021-08-28T15:42:27.000Z</time>
      </trkpt>
      <trkpt lat="45.06386" lon="5.32617">
        <ele>252</ele>
        <time>2021-08-28T15:42:31.000Z</time>
      </trkpt>
      <trkpt lat="45.06364" lon="5.32632">
        <ele>252</ele>
        <time>2021-08-28T15:42:36.000Z</time>
      </trkpt>
      <trkpt lat="45.06341" lon="5.32647">
        <ele>252</ele>
        <time>2021-08-28T15:42:41.000Z</time>
      </trkpt>
      <trkpt lat="45.06322" lon="5.32661">
        <ele>252</ele>
        <time>2021-08-28T15:42:45.000Z</time>
      </trkpt>
      <trkpt lat="45.06302" lon="5.32674">
        <ele>252</ele>
        <time>2021-08-28T15:42:49.000Z</time>
      </trkpt>
      <trkpt lat="45.06278" lon="5.32691">
        <ele>251.1</ele>
        <time>2021-08-28T15:42:54.000Z</time>
      </trkpt>
      <trkpt lat="45.06249" lon="5.32711">
        <ele>250.4</ele>
        <time>2021-08-28T15:42:59.000Z</time>
      </trkpt>
      <trkpt lat="45.06214" lon="5.32736">
        <ele>249.4</ele>
        <time>2021-08-28T15:43:04.000Z</time>
      </trkpt>
      <trkpt lat="45.06182" lon="5.32758">
        <ele>246.5</ele>
        <time>2021-08-28T15:43:08.000Z</time>
      </trkpt>
      <trkpt lat="45.0616" lon="5.328">
        <ele>243.6</ele>
        <time>2021-08-28T15:43:12.000Z</time>
      </trkpt>
      <trkpt lat="45.0616" lon="5.328">
        <ele>243.6</ele>
        <time>2021-08-28T15:43:12.000Z</time>
      </trkpt>
      <trkpt lat="45.06144" lon="5.32876">
        <ele>239.5</ele>
        <time>2021-08-28T15:43:17.000Z</time>
      </trkpt>
      <trkpt lat="45.06132" lon="5.32946">
        <ele>234.6</ele>
        <time>2021-08-28T15:43:21.000Z</time>
      </trkpt>
      <trkpt lat="45.06137" lon="5.33037">
        <ele>232.2</ele>
        <time>2021-08-28T15:43:26.000Z</time>
      </trkpt>
      <trkpt lat="45.06149" lon="5.33109">
        <ele>228.7</ele>
        <time>2021-08-28T15:43:30.000Z</time>
      </trkpt>
      <trkpt lat="45.06161" lon="5.33181">
        <ele>223.1</ele>
        <time>2021-08-28T15:43:34.000Z</time>
      </trkpt>
      <trkpt lat="45.06184" lon="5.33268">
        <ele>217.1</ele>
        <time>2021-08-28T15:43:39.000Z</time>
      </trkpt>
      <trkpt lat="45.06215" lon="5.3335">
        <ele>213.7</ele>
        <time>2021-08-28T15:43:44.000Z</time>
      </trkpt>
      <trkpt lat="45.06247" lon="5.33409">
        <ele>207</ele>
        <time>2021-08-28T15:43:48.000Z</time>
      </trkpt>
      <trkpt lat="45.06302" lon="5.33448">
        <ele>203.4</ele>
        <time>2021-08-28T15:43:53.000Z</time>
      </trkpt>
      <trkpt lat="45.06347" lon="5.33457">
        <ele>209.2</ele>
        <time>2021-08-28T15:43:57.000Z</time>
      </trkpt>
      <trkpt lat="45.0639" lon="5.33488">
        <ele>207.4</ele>
        <time>2021-08-28T15:44:02.000Z</time>
      </trkpt>
      <trkpt lat="45.0642" lon="5.33516">
        <ele>205.3</ele>
        <time>2021-08-28T15:44:06.000Z</time>
      </trkpt>
      <trkpt lat="45.06445" lon="5.33548">
        <ele>204.8</ele>
        <time>2021-08-28T15:44:10.000Z</time>
      </trkpt>
      <trkpt lat="45.06445" lon="5.33548">
        <ele>204.8</ele>
        <time>2021-08-28T15:44:10.000Z</time>
      </trkpt>
      <trkpt lat="45.06453" lon="5.33589">
        <ele>201.8</ele>
        <time>2021-08-28T15:44:14.000Z</time>
      </trkpt>
      <trkpt lat="45.06437" lon="5.33632">
        <ele>201.1</ele>
        <time>2021-08-28T15:44:18.000Z</time>
      </trkpt>
      <trkpt lat="45.06422" lon="5.33669">
        <ele>201.4</ele>
        <time>2021-08-28T15:44:22.000Z</time>
      </trkpt>
      <trkpt lat="45.06408" lon="5.33699">
        <ele>201.1</ele>
        <time>2021-08-28T15:44:26.000Z</time>
      </trkpt>
      <trkpt lat="45.06395" lon="5.33721">
        <ele>201.1</ele>
        <time>2021-08-28T15:44:30.000Z</time>
      </trkpt>
      <trkpt lat="45.0638" lon="5.33749">
        <ele>201.3</ele>
        <time>2021-08-28T15:44:35.000Z</time>
      </trkpt>
      <trkpt lat="45.06366" lon="5.33767">
        <ele>200.8</ele>
        <time>2021-08-28T15:44:40.000Z</time>
      </trkpt>
      <trkpt lat="45.06356" lon="5.33784">
        <ele>200.7</ele>
        <time>2021-08-28T15:44:44.000Z</time>
      </trkpt>
      <trkpt lat="45.06346" lon="5.33802">
        <ele>200.7</ele>
        <time>2021-08-28T15:44:48.000Z</time>
      </trkpt>
      <trkpt lat="45.06333" lon="5.33829">
        <ele>201.6</ele>
        <time>2021-08-28T15:44:52.000Z</time>
      </trkpt>
      <trkpt lat="45.06318" lon="5.33858">
        <ele>201.7</ele>
        <time>2021-08-28T15:44:57.000Z</time>
      </trkpt>
      <trkpt lat="45.06304" lon="5.3389">
        <ele>201.8</ele>
        <time>2021-08-28T15:45:02.000Z</time>
      </trkpt>
      <trkpt lat="45.06295" lon="5.33918">
        <ele>202.5</ele>
        <time>2021-08-28T15:45:06.000Z</time>
      </trkpt>
      <trkpt lat="45.06284" lon="5.3395">
        <ele>202.3</ele>
        <time>2021-08-28T15:45:11.000Z</time>
      </trkpt>
      <trkpt lat="45.06275" lon="5.33977">
        <ele>202.7</ele>
        <time>2021-08-28T15:45:15.000Z</time>
      </trkpt>
      <trkpt lat="45.06265" lon="5.34012">
        <ele>203.2</ele>
        <time>2021-08-28T15:45:20.000Z</time>
      </trkpt>
      <trkpt lat="45.06255" lon="5.34041">
        <ele>204</ele>
        <time>2021-08-28T15:45:24.000Z</time>
      </trkpt>
      <trkpt lat="45.06245" lon="5.34066">
        <ele>203.1</ele>
        <time>2021-08-28T15:45:28.000Z</time>
      </trkpt>
      <trkpt lat="45.06235" lon="5.34092">
        <ele>202.2</ele>
        <time>2021-08-28T15:45:33.000Z</time>
      </trkpt>
      <trkpt lat="45.06229" lon="5.34116">
        <ele>202.5</ele>
        <time>2021-08-28T15:45:38.000Z</time>
      </trkpt>
      <trkpt lat="45.06227" lon="5.3414">
        <ele>203.6</ele>
        <time>2021-08-28T15:45:42.000Z</time>
      </trkpt>
      <trkpt lat="45.06223" lon="5.34164">
        <ele>205</ele>
        <time>2021-08-28T15:45:46.000Z</time>
      </trkpt>
      <trkpt lat="45.06217" lon="5.34191">
        <ele>206.3</ele>
        <time>2021-08-28T15:45:50.000Z</time>
      </trkpt>
      <trkpt lat="45.06209" lon="5.34216">
        <ele>207</ele>
        <time>2021-08-28T15:45:54.000Z</time>
      </trkpt>
      <trkpt lat="45.06199" lon="5.34244">
        <ele>207.4</ele>
        <time>2021-08-28T15:45:59.000Z</time>
      </trkpt>
      <trkpt lat="45.06191" lon="5.34272">
        <ele>208.6</ele>
        <time>2021-08-28T15:46:04.000Z</time>
      </trkpt>
      <trkpt lat="45.06184" lon="5.34298">
        <ele>210.6</ele>
        <time>2021-08-28T15:46:09.000Z</time>
      </trkpt>
      <trkpt lat="45.06173" lon="5.34319">
        <ele>212.5</ele>
        <time>2021-08-28T15:46:14.000Z</time>
      </trkpt>
      <trkpt lat="45.06164" lon="5.34336">
        <ele>214.7</ele>
        <time>2021-08-28T15:46:18.000Z</time>
      </trkpt>
      <trkpt lat="45.06154" lon="5.34351">
        <ele>215</ele>
        <time>2021-08-28T15:46:22.000Z</time>
      </trkpt>
      <trkpt lat="45.06137" lon="5.34377">
        <ele>213</ele>
        <time>2021-08-28T15:46:27.000Z</time>
      </trkpt>
      <trkpt lat="45.0612" lon="5.34419">
        <ele>210.8</ele>
        <time>2021-08-28T15:46:32.000Z</time>
      </trkpt>
      <trkpt lat="45.06108" lon="5.34458">
        <ele>211.7</ele>
        <time>2021-08-28T15:46:36.000Z</time>
      </trkpt>
      <trkpt lat="45.06099" lon="5.34493">
        <ele>211.4</ele>
        <time>2021-08-28T15:46:41.000Z</time>
      </trkpt>
      <trkpt lat="45.06099" lon="5.34513">
        <ele>212.7</ele>
        <time>2021-08-28T15:46:45.000Z</time>
      </trkpt>
      <trkpt lat="45.06098" lon="5.34538">
        <ele>213.1</ele>
        <time>2021-08-28T15:46:50.000Z</time>
      </trkpt>
      <trkpt lat="45.06094" lon="5.34562">
        <ele>212.4</ele>
        <time>2021-08-28T15:46:54.000Z</time>
      </trkpt>
      <trkpt lat="45.06083" lon="5.34593">
        <ele>212.4</ele>
        <time>2021-08-28T15:46:59.000Z</time>
      </trkpt>
      <trkpt lat="45.0607" lon="5.34614">
        <ele>209.7</ele>
        <time>2021-08-28T15:47:04.000Z</time>
      </trkpt>
      <trkpt lat="45.0607" lon="5.34614">
        <ele>209.7</ele>
        <time>2021-08-28T15:47:04.000Z</time>
      </trkpt>
      <trkpt lat="45.06068" lon="5.34621">
        <ele>210.4</ele>
        <time>2021-08-28T15:47:08.000Z</time>
      </trkpt>
      <trkpt lat="45.06069" lon="5.34631">
        <ele>214</ele>
        <time>2021-08-28T15:47:12.000Z</time>
      </trkpt>
      <trkpt lat="45.06059" lon="5.34644">
        <ele>210</ele>
        <time>2021-08-28T15:47:16.000Z</time>
      </trkpt>
      <trkpt lat="45.06047" lon="5.34671">
        <ele>212.5</ele>
        <time>2021-08-28T15:47:21.000Z</time>
      </trkpt>
      <trkpt lat="45.06046" lon="5.34703">
        <ele>215.3</ele>
        <time>2021-08-28T15:47:26.000Z</time>
      </trkpt>
      <trkpt lat="45.06051" lon="5.34727">
        <ele>216.3</ele>
        <time>2021-08-28T15:47:30.000Z</time>
      </trkpt>
      <trkpt lat="45.06067" lon="5.34742">
        <ele>214.8</ele>
        <time>2021-08-28T15:47:34.000Z</time>
      </trkpt>
      <trkpt lat="45.06082" lon="5.34762">
        <ele>214.1</ele>
        <time>2021-08-28T15:47:38.000Z</time>
      </trkpt>
      <trkpt lat="45.06094" lon="5.3478">
        <ele>216.5</ele>
        <time>2021-08-28T15:47:42.000Z</time>
      </trkpt>
      <trkpt lat="45.06106" lon="5.34797">
        <ele>216.9</ele>
        <time>2021-08-28T15:47:46.000Z</time>
      </trkpt>
      <trkpt lat="45.0612" lon="5.34817">
        <ele>218</ele>
        <time>2021-08-28T15:47:51.000Z</time>
      </trkpt>
      <trkpt lat="45.06133" lon="5.34833">
        <ele>216.8</ele>
        <time>2021-08-28T15:47:56.000Z</time>
      </trkpt>
      <trkpt lat="45.06144" lon="5.34847">
        <ele>218</ele>
        <time>2021-08-28T15:48:00.000Z</time>
      </trkpt>
      <trkpt lat="45.06158" lon="5.34858">
        <ele>218.3</ele>
        <time>2021-08-28T15:48:04.000Z</time>
      </trkpt>
      <trkpt lat="45.06169" lon="5.34874">
        <ele>219.1</ele>
        <time>2021-08-28T15:48:08.000Z</time>
      </trkpt>
      <trkpt lat="45.06174" lon="5.34896">
        <ele>222.3</ele>
        <time>2021-08-28T15:48:12.000Z</time>
      </trkpt>
      <trkpt lat="45.06189" lon="5.3491">
        <ele>223.2</ele>
        <time>2021-08-28T15:48:17.000Z</time>
      </trkpt>
      <trkpt lat="45.06204" lon="5.34918">
        <ele>222.6</ele>
        <time>2021-08-28T15:48:21.000Z</time>
      </trkpt>
      <trkpt lat="45.06224" lon="5.3492">
        <ele>221.2</ele>
        <time>2021-08-28T15:48:25.000Z</time>
      </trkpt>
      <trkpt lat="45.06241" lon="5.34928">
        <ele>222.6</ele>
        <time>2021-08-28T15:48:30.000Z</time>
      </trkpt>
      <trkpt lat="45.06252" lon="5.34934">
        <ele>223.2</ele>
        <time>2021-08-28T15:48:34.000Z</time>
      </trkpt>
      <trkpt lat="45.06262" lon="5.34941">
        <ele>224.4</ele>
        <time>2021-08-28T15:48:38.000Z</time>
      </trkpt>
      <trkpt lat="45.06281" lon="5.34943">
        <ele>223.6</ele>
        <time>2021-08-28T15:48:42.000Z</time>
      </trkpt>
      <trkpt lat="45.06297" lon="5.34952">
        <ele>224.8</ele>
        <time>2021-08-28T15:48:46.000Z</time>
      </trkpt>
      <trkpt lat="45.06316" lon="5.34963">
        <ele>225.6</ele>
        <time>2021-08-28T15:48:51.000Z</time>
      </trkpt>
      <trkpt lat="45.06324" lon="5.34975">
        <ele>227.9</ele>
        <time>2021-08-28T15:48:55.000Z</time>
      </trkpt>
      <trkpt lat="45.06342" lon="5.34991">
        <ele>229.2</ele>
        <time>2021-08-28T15:49:00.000Z</time>
      </trkpt>
      <trkpt lat="45.06361" lon="5.35009">
        <ele>229.6</ele>
        <time>2021-08-28T15:49:05.000Z</time>
      </trkpt>
      <trkpt lat="45.06375" lon="5.35026">
        <ele>230.2</ele>
        <time>2021-08-28T15:49:09.000Z</time>
      </trkpt>
      <trkpt lat="45.06387" lon="5.35048">
        <ele>231.2</ele>
        <time>2021-08-28T15:49:14.000Z</time>
      </trkpt>
      <trkpt lat="45.06397" lon="5.35066">
        <ele>230.8</ele>
        <time>2021-08-28T15:49:18.000Z</time>
      </trkpt>
      <trkpt lat="45.06409" lon="5.35091">
        <ele>229.2</ele>
        <time>2021-08-28T15:49:23.000Z</time>
      </trkpt>
      <trkpt lat="45.06419" lon="5.35112">
        <ele>227.6</ele>
        <time>2021-08-28T15:49:27.000Z</time>
      </trkpt>
      <trkpt lat="45.06431" lon="5.35139">
        <ele>228</ele>
        <time>2021-08-28T15:49:32.000Z</time>
      </trkpt>
      <trkpt lat="45.06438" lon="5.35161">
        <ele>227.6</ele>
        <time>2021-08-28T15:49:36.000Z</time>
      </trkpt>
      <trkpt lat="45.06449" lon="5.35188">
        <ele>226.1</ele>
        <time>2021-08-28T15:49:41.000Z</time>
      </trkpt>
      <trkpt lat="45.06456" lon="5.3521">
        <ele>226.1</ele>
        <time>2021-08-28T15:49:45.000Z</time>
      </trkpt>
      <trkpt lat="45.0646" lon="5.35239">
        <ele>226.9</ele>
        <time>2021-08-28T15:49:50.000Z</time>
      </trkpt>
      <trkpt lat="45.06463" lon="5.35261">
        <ele>227.2</ele>
        <time>2021-08-28T15:49:54.000Z</time>
      </trkpt>
      <trkpt lat="45.06467" lon="5.35284">
        <ele>227.1</ele>
        <time>2021-08-28T15:49:58.000Z</time>
      </trkpt>
      <trkpt lat="45.06477" lon="5.35312">
        <ele>225.8</ele>
        <time>2021-08-28T15:50:03.000Z</time>
      </trkpt>
      <trkpt lat="45.06482" lon="5.35331">
        <ele>225.6</ele>
        <time>2021-08-28T15:50:07.000Z</time>
      </trkpt>
      <trkpt lat="45.06484" lon="5.35353">
        <ele>225.8</ele>
        <time>2021-08-28T15:50:12.000Z</time>
      </trkpt>
      <trkpt lat="45.06483" lon="5.35372">
        <ele>226.2</ele>
        <time>2021-08-28T15:50:17.000Z</time>
      </trkpt>
      <trkpt lat="45.06488" lon="5.35389">
        <ele>225.5</ele>
        <time>2021-08-28T15:50:21.000Z</time>
      </trkpt>
      <trkpt lat="45.06504" lon="5.35409">
        <ele>222.3</ele>
        <time>2021-08-28T15:50:26.000Z</time>
      </trkpt>
      <trkpt lat="45.06522" lon="5.35417">
        <ele>222.8</ele>
        <time>2021-08-28T15:50:30.000Z</time>
      </trkpt>
      <trkpt lat="45.06538" lon="5.35431">
        <ele>227</ele>
        <time>2021-08-28T15:50:34.000Z</time>
      </trkpt>
      <trkpt lat="45.06542" lon="5.35465">
        <ele>229</ele>
        <time>2021-08-28T15:50:39.000Z</time>
      </trkpt>
      <trkpt lat="45.06538" lon="5.3549">
        <ele>228.4</ele>
        <time>2021-08-28T15:50:43.000Z</time>
      </trkpt>
      <trkpt lat="45.06531" lon="5.3552">
        <ele>228.1</ele>
        <time>2021-08-28T15:50:48.000Z</time>
      </trkpt>
      <trkpt lat="45.06523" lon="5.35542">
        <ele>227.9</ele>
        <time>2021-08-28T15:50:52.000Z</time>
      </trkpt>
      <trkpt lat="45.06517" lon="5.35572">
        <ele>228.9</ele>
        <time>2021-08-28T15:50:56.000Z</time>
      </trkpt>
      <trkpt lat="45.06519" lon="5.35598">
        <ele>231.2</ele>
        <time>2021-08-28T15:51:00.000Z</time>
      </trkpt>
      <trkpt lat="45.06511" lon="5.3562">
        <ele>230.4</ele>
        <time>2021-08-28T15:51:04.000Z</time>
      </trkpt>
      <trkpt lat="45.06507" lon="5.35647">
        <ele>230.9</ele>
        <time>2021-08-28T15:51:08.000Z</time>
      </trkpt>
      <trkpt lat="45.06507" lon="5.35674">
        <ele>231.5</ele>
        <time>2021-08-28T15:51:12.000Z</time>
      </trkpt>
      <trkpt lat="45.06512" lon="5.35701">
        <ele>231.5</ele>
        <time>2021-08-28T15:51:16.000Z</time>
      </trkpt>
      <trkpt lat="45.06523" lon="5.35734">
        <ele>229.5</ele>
        <time>2021-08-28T15:51:21.000Z</time>
      </trkpt>
      <trkpt lat="45.06542" lon="5.35756">
        <ele>229.3</ele>
        <time>2021-08-28T15:51:26.000Z</time>
      </trkpt>
      <trkpt lat="45.06559" lon="5.35764">
        <ele>230.8</ele>
        <time>2021-08-28T15:51:30.000Z</time>
      </trkpt>
      <trkpt lat="45.06576" lon="5.3577">
        <ele>232.9</ele>
        <time>2021-08-28T15:51:34.000Z</time>
      </trkpt>
      <trkpt lat="45.06594" lon="5.35777">
        <ele>234.7</ele>
        <time>2021-08-28T15:51:38.000Z</time>
      </trkpt>
      <trkpt lat="45.06613" lon="5.35787">
        <ele>236.4</ele>
        <time>2021-08-28T15:51:42.000Z</time>
      </trkpt>
      <trkpt lat="45.06629" lon="5.35806">
        <ele>238.2</ele>
        <time>2021-08-28T15:51:46.000Z</time>
      </trkpt>
      <trkpt lat="45.06638" lon="5.35839">
        <ele>237.1</ele>
        <time>2021-08-28T15:51:51.000Z</time>
      </trkpt>
      <trkpt lat="45.06646" lon="5.35874">
        <ele>238.2</ele>
        <time>2021-08-28T15:51:56.000Z</time>
      </trkpt>
      <trkpt lat="45.0665" lon="5.35903">
        <ele>238.3</ele>
        <time>2021-08-28T15:52:00.000Z</time>
      </trkpt>
      <trkpt lat="45.0665" lon="5.35903">
        <ele>238.3</ele>
        <time>2021-08-28T15:52:00.000Z</time>
      </trkpt>
      <trkpt lat="45.06653" lon="5.3594">
        <ele>236.4</ele>
        <time>2021-08-28T15:52:05.000Z</time>
      </trkpt>
      <trkpt lat="45.06655" lon="5.35967">
        <ele>235.5</ele>
        <time>2021-08-28T15:52:09.000Z</time>
      </trkpt>
      <trkpt lat="45.06658" lon="5.36">
        <ele>233.7</ele>
        <time>2021-08-28T15:52:14.000Z</time>
      </trkpt>
      <trkpt lat="45.06658" lon="5.36028">
        <ele>232.1</ele>
        <time>2021-08-28T15:52:18.000Z</time>
      </trkpt>
      <trkpt lat="45.06655" lon="5.36059">
        <ele>231.6</ele>
        <time>2021-08-28T15:52:22.000Z</time>
      </trkpt>
      <trkpt lat="45.06652" lon="5.36093">
        <ele>233.8</ele>
        <time>2021-08-28T15:52:27.000Z</time>
      </trkpt>
      <trkpt lat="45.06646" lon="5.36121">
        <ele>235.2</ele>
        <time>2021-08-28T15:52:32.000Z</time>
      </trkpt>
      <trkpt lat="45.06643" lon="5.36146">
        <ele>235.9</ele>
        <time>2021-08-28T15:52:36.000Z</time>
      </trkpt>
      <trkpt lat="45.06636" lon="5.36182">
        <ele>235.4</ele>
        <time>2021-08-28T15:52:41.000Z</time>
      </trkpt>
      <trkpt lat="45.06631" lon="5.36209">
        <ele>235</ele>
        <time>2021-08-28T15:52:45.000Z</time>
      </trkpt>
      <trkpt lat="45.06625" lon="5.36244">
        <ele>235.6</ele>
        <time>2021-08-28T15:52:50.000Z</time>
      </trkpt>
      <trkpt lat="45.0662" lon="5.36273">
        <ele>237.3</ele>
        <time>2021-08-28T15:52:54.000Z</time>
      </trkpt>
      <trkpt lat="45.06615" lon="5.36302">
        <ele>238.1</ele>
        <time>2021-08-28T15:52:58.000Z</time>
      </trkpt>
      <trkpt lat="45.0661" lon="5.36332">
        <ele>236</ele>
        <time>2021-08-28T15:53:03.000Z</time>
      </trkpt>
      <trkpt lat="45.06609" lon="5.36359">
        <ele>234.9</ele>
        <time>2021-08-28T15:53:07.000Z</time>
      </trkpt>
      <trkpt lat="45.06611" lon="5.36396">
        <ele>233.6</ele>
        <time>2021-08-28T15:53:12.000Z</time>
      </trkpt>
      <trkpt lat="45.06618" lon="5.36432">
        <ele>233.6</ele>
        <time>2021-08-28T15:53:17.000Z</time>
      </trkpt>
      <trkpt lat="45.06624" lon="5.36458">
        <ele>234.5</ele>
        <time>2021-08-28T15:53:21.000Z</time>
      </trkpt>
      <trkpt lat="45.06629" lon="5.3649">
        <ele>235.9</ele>
        <time>2021-08-28T15:53:26.000Z</time>
      </trkpt>
      <trkpt lat="45.06632" lon="5.36517">
        <ele>236.3</ele>
        <time>2021-08-28T15:53:30.000Z</time>
      </trkpt>
      <trkpt lat="45.06645" lon="5.36545">
        <ele>236.7</ele>
        <time>2021-08-28T15:53:35.000Z</time>
      </trkpt>
      <trkpt lat="45.06662" lon="5.36556">
        <ele>238.3</ele>
        <time>2021-08-28T15:53:39.000Z</time>
      </trkpt>
      <trkpt lat="45.06679" lon="5.3657">
        <ele>239.3</ele>
        <time>2021-08-28T15:53:43.000Z</time>
      </trkpt>
      <trkpt lat="45.06693" lon="5.36594">
        <ele>240</ele>
        <time>2021-08-28T15:53:48.000Z</time>
      </trkpt>
      <trkpt lat="45.06707" lon="5.36622">
        <ele>242.6</ele>
        <time>2021-08-28T15:53:53.000Z</time>
      </trkpt>
      <trkpt lat="45.06717" lon="5.36648">
        <ele>243.5</ele>
        <time>2021-08-28T15:53:57.000Z</time>
      </trkpt>
      <trkpt lat="45.06724" lon="5.3668">
        <ele>243.8</ele>
        <time>2021-08-28T15:54:02.000Z</time>
      </trkpt>
      <trkpt lat="45.06724" lon="5.36704">
        <ele>243</ele>
        <time>2021-08-28T15:54:06.000Z</time>
      </trkpt>
      <trkpt lat="45.06724" lon="5.36731">
        <ele>242.7</ele>
        <time>2021-08-28T15:54:10.000Z</time>
      </trkpt>
      <trkpt lat="45.0672" lon="5.36765">
        <ele>243.1</ele>
        <time>2021-08-28T15:54:15.000Z</time>
      </trkpt>
      <trkpt lat="45.0672" lon="5.36765">
        <ele>243.1</ele>
        <time>2021-08-28T15:54:15.000Z</time>
      </trkpt>
      <trkpt lat="45.06714" lon="5.36792">
        <ele>244.1</ele>
        <time>2021-08-28T15:54:19.000Z</time>
      </trkpt>
      <trkpt lat="45.06699" lon="5.36822">
        <ele>243.1</ele>
        <time>2021-08-28T15:54:24.000Z</time>
      </trkpt>
      <trkpt lat="45.06685" lon="5.36843">
        <ele>242.1</ele>
        <time>2021-08-28T15:54:28.000Z</time>
      </trkpt>
      <trkpt lat="45.06667" lon="5.3687">
        <ele>240.1</ele>
        <time>2021-08-28T15:54:33.000Z</time>
      </trkpt>
      <trkpt lat="45.06652" lon="5.36893">
        <ele>239.7</ele>
        <time>2021-08-28T15:54:37.000Z</time>
      </trkpt>
      <trkpt lat="45.06635" lon="5.36921">
        <ele>239.7</ele>
        <time>2021-08-28T15:54:42.000Z</time>
      </trkpt>
      <trkpt lat="45.06622" lon="5.36944">
        <ele>239.5</ele>
        <time>2021-08-28T15:54:46.000Z</time>
      </trkpt>
      <trkpt lat="45.06608" lon="5.36969">
        <ele>239.3</ele>
        <time>2021-08-28T15:54:51.000Z</time>
      </trkpt>
      <trkpt lat="45.06593" lon="5.36996">
        <ele>238.4</ele>
        <time>2021-08-28T15:54:56.000Z</time>
      </trkpt>
      <trkpt lat="45.06578" lon="5.37017">
        <ele>238.1</ele>
        <time>2021-08-28T15:55:00.000Z</time>
      </trkpt>
      <trkpt lat="45.06562" lon="5.37043">
        <ele>238.4</ele>
        <time>2021-08-28T15:55:05.000Z</time>
      </trkpt>
      <trkpt lat="45.06547" lon="5.37064">
        <ele>238.7</ele>
        <time>2021-08-28T15:55:09.000Z</time>
      </trkpt>
      <trkpt lat="45.06532" lon="5.37083">
        <ele>238.6</ele>
        <time>2021-08-28T15:55:13.000Z</time>
      </trkpt>
      <trkpt lat="45.06513" lon="5.37106">
        <ele>239</ele>
        <time>2021-08-28T15:55:18.000Z</time>
      </trkpt>
      <trkpt lat="45.06497" lon="5.37122">
        <ele>238.5</ele>
        <time>2021-08-28T15:55:22.000Z</time>
      </trkpt>
      <trkpt lat="45.0648" lon="5.37144">
        <ele>238.1</ele>
        <time>2021-08-28T15:55:27.000Z</time>
      </trkpt>
      <trkpt lat="45.0648" lon="5.37144">
        <ele>238.1</ele>
        <time>2021-08-28T15:55:27.000Z</time>
      </trkpt>
      <trkpt lat="45.06472" lon="5.37174">
        <ele>239.3</ele>
        <time>2021-08-28T15:55:32.000Z</time>
      </trkpt>
      <trkpt lat="45.06476" lon="5.37201">
        <ele>240.4</ele>
        <time>2021-08-28T15:55:36.000Z</time>
      </trkpt>
      <trkpt lat="45.06485" lon="5.37227">
        <ele>241</ele>
        <time>2021-08-28T15:55:40.000Z</time>
      </trkpt>
      <trkpt lat="45.06497" lon="5.37252">
        <ele>239.5</ele>
        <time>2021-08-28T15:55:44.000Z</time>
      </trkpt>
      <trkpt lat="45.06513" lon="5.37273">
        <ele>238.9</ele>
        <time>2021-08-28T15:55:48.000Z</time>
      </trkpt>
      <trkpt lat="45.06533" lon="5.37286">
        <ele>239.4</ele>
        <time>2021-08-28T15:55:52.000Z</time>
      </trkpt>
      <trkpt lat="45.06553" lon="5.37294">
        <ele>240.4</ele>
        <time>2021-08-28T15:55:56.000Z</time>
      </trkpt>
      <trkpt lat="45.06573" lon="5.37301">
        <ele>241.8</ele>
        <time>2021-08-28T15:56:00.000Z</time>
      </trkpt>
      <trkpt lat="45.06591" lon="5.37309">
        <ele>242.5</ele>
        <time>2021-08-28T15:56:04.000Z</time>
      </trkpt>
      <trkpt lat="45.06616" lon="5.37318">
        <ele>244</ele>
        <time>2021-08-28T15:56:09.000Z</time>
      </trkpt>
      <trkpt lat="45.06635" lon="5.37324">
        <ele>245.2</ele>
        <time>2021-08-28T15:56:13.000Z</time>
      </trkpt>
      <trkpt lat="45.06659" lon="5.37332">
        <ele>247.6</ele>
        <time>2021-08-28T15:56:18.000Z</time>
      </trkpt>
      <trkpt lat="45.06677" lon="5.37346">
        <ele>248.9</ele>
        <time>2021-08-28T15:56:22.000Z</time>
      </trkpt>
      <trkpt lat="45.06691" lon="5.37368">
        <ele>247.4</ele>
        <time>2021-08-28T15:56:27.000Z</time>
      </trkpt>
      <trkpt lat="45.067" lon="5.37388">
        <ele>246</ele>
        <time>2021-08-28T15:56:31.000Z</time>
      </trkpt>
      <trkpt lat="45.06708" lon="5.37419">
        <ele>244.4</ele>
        <time>2021-08-28T15:56:36.000Z</time>
      </trkpt>
      <trkpt lat="45.06712" lon="5.37454">
        <ele>244.8</ele>
        <time>2021-08-28T15:56:41.000Z</time>
      </trkpt>
      <trkpt lat="45.06712" lon="5.37454">
        <ele>244.8</ele>
        <time>2021-08-28T15:56:41.000Z</time>
      </trkpt>
      <trkpt lat="45.06713" lon="5.37483">
        <ele>244.9</ele>
        <time>2021-08-28T15:56:45.000Z</time>
      </trkpt>
      <trkpt lat="45.06712" lon="5.37514">
        <ele>244.6</ele>
        <time>2021-08-28T15:56:49.000Z</time>
      </trkpt>
      <trkpt lat="45.06709" lon="5.37551">
        <ele>243.7</ele>
        <time>2021-08-28T15:56:54.000Z</time>
      </trkpt>
      <trkpt lat="45.06709" lon="5.37582">
        <ele>243.7</ele>
        <time>2021-08-28T15:56:58.000Z</time>
      </trkpt>
      <trkpt lat="45.06709" lon="5.37611">
        <ele>244.3</ele>
        <time>2021-08-28T15:57:02.000Z</time>
      </trkpt>
      <trkpt lat="45.06711" lon="5.37641">
        <ele>245.6</ele>
        <time>2021-08-28T15:57:06.000Z</time>
      </trkpt>
      <trkpt lat="45.06716" lon="5.37668">
        <ele>247.3</ele>
        <time>2021-08-28T15:57:10.000Z</time>
      </trkpt>
      <trkpt lat="45.0672" lon="5.37695">
        <ele>247.3</ele>
        <time>2021-08-28T15:57:14.000Z</time>
      </trkpt>
      <trkpt lat="45.06723" lon="5.3772">
        <ele>248.3</ele>
        <time>2021-08-28T15:57:18.000Z</time>
      </trkpt>
      <trkpt lat="45.06724" lon="5.37745">
        <ele>248.6</ele>
        <time>2021-08-28T15:57:22.000Z</time>
      </trkpt>
      <trkpt lat="45.06722" lon="5.37768">
        <ele>248.6</ele>
        <time>2021-08-28T15:57:26.000Z</time>
      </trkpt>
      <trkpt lat="45.06719" lon="5.37791">
        <ele>248.1</ele>
        <time>2021-08-28T15:57:30.000Z</time>
      </trkpt>
      <trkpt lat="45.06717" lon="5.37823">
        <ele>247.8</ele>
        <time>2021-08-28T15:57:35.000Z</time>
      </trkpt>
      <trkpt lat="45.06719" lon="5.37846">
        <ele>248.6</ele>
        <time>2021-08-28T15:57:39.000Z</time>
      </trkpt>
      <trkpt lat="45.06723" lon="5.37874">
        <ele>250.1</ele>
        <time>2021-08-28T15:57:44.000Z</time>
      </trkpt>
      <trkpt lat="45.06725" lon="5.37896">
        <ele>251.4</ele>
        <time>2021-08-28T15:57:48.000Z</time>
      </trkpt>
      <trkpt lat="45.06725" lon="5.37923">
        <ele>252.3</ele>
        <time>2021-08-28T15:57:53.000Z</time>
      </trkpt>
      <trkpt lat="45.06727" lon="5.37948">
        <ele>252.6</ele>
        <time>2021-08-28T15:57:58.000Z</time>
      </trkpt>
      <trkpt lat="45.06728" lon="5.37967">
        <ele>253.1</ele>
        <time>2021-08-28T15:58:02.000Z</time>
      </trkpt>
      <trkpt lat="45.0673" lon="5.37987">
        <ele>253.1</ele>
        <time>2021-08-28T15:58:06.000Z</time>
      </trkpt>
      <trkpt lat="45.06735" lon="5.38015">
        <ele>253.8</ele>
        <time>2021-08-28T15:58:11.000Z</time>
      </trkpt>
      <trkpt lat="45.06737" lon="5.38036">
        <ele>253.1</ele>
        <time>2021-08-28T15:58:15.000Z</time>
      </trkpt>
      <trkpt lat="45.06742" lon="5.38064">
        <ele>252.8</ele>
        <time>2021-08-28T15:58:20.000Z</time>
      </trkpt>
      <trkpt lat="45.06748" lon="5.38086">
        <ele>253.8</ele>
        <time>2021-08-28T15:58:24.000Z</time>
      </trkpt>
      <trkpt lat="45.06756" lon="5.38108">
        <ele>255.6</ele>
        <time>2021-08-28T15:58:28.000Z</time>
      </trkpt>
      <trkpt lat="45.06764" lon="5.3813">
        <ele>257.5</ele>
        <time>2021-08-28T15:58:32.000Z</time>
      </trkpt>
      <trkpt lat="45.0677" lon="5.38153">
        <ele>259.2</ele>
        <time>2021-08-28T15:58:36.000Z</time>
      </trkpt>
      <trkpt lat="45.06775" lon="5.38176">
        <ele>260.7</ele>
        <time>2021-08-28T15:58:40.000Z</time>
      </trkpt>
      <trkpt lat="45.06776" lon="5.38201">
        <ele>261.1</ele>
        <time>2021-08-28T15:58:44.000Z</time>
      </trkpt>
      <trkpt lat="45.06776" lon="5.38224">
        <ele>260.1</ele>
        <time>2021-08-28T15:58:48.000Z</time>
      </trkpt>
      <trkpt lat="45.06775" lon="5.38251">
        <ele>259.8</ele>
        <time>2021-08-28T15:58:53.000Z</time>
      </trkpt>
      <trkpt lat="45.06776" lon="5.38279">
        <ele>259.1</ele>
        <time>2021-08-28T15:58:58.000Z</time>
      </trkpt>
      <trkpt lat="45.06779" lon="5.38308">
        <ele>258.7</ele>
        <time>2021-08-28T15:59:03.000Z</time>
      </trkpt>
      <trkpt lat="45.06783" lon="5.38333">
        <ele>258.9</ele>
        <time>2021-08-28T15:59:07.000Z</time>
      </trkpt>
      <trkpt lat="45.06786" lon="5.38364">
        <ele>257.7</ele>
        <time>2021-08-28T15:59:12.000Z</time>
      </trkpt>
      <trkpt lat="45.06791" lon="5.38393">
        <ele>259.3</ele>
        <time>2021-08-28T15:59:17.000Z</time>
      </trkpt>
      <trkpt lat="45.06799" lon="5.38417">
        <ele>262.7</ele>
        <time>2021-08-28T15:59:21.000Z</time>
      </trkpt>
      <trkpt lat="45.06805" lon="5.38447">
        <ele>264.3</ele>
        <time>2021-08-28T15:59:26.000Z</time>
      </trkpt>
      <trkpt lat="45.06807" lon="5.38471">
        <ele>265.4</ele>
        <time>2021-08-28T15:59:30.000Z</time>
      </trkpt>
      <trkpt lat="45.06806" lon="5.38497">
        <ele>266.4</ele>
        <time>2021-08-28T15:59:34.000Z</time>
      </trkpt>
      <trkpt lat="45.06802" lon="5.3853">
        <ele>265.9</ele>
        <time>2021-08-28T15:59:39.000Z</time>
      </trkpt>
      <trkpt lat="45.06797" lon="5.38552">
        <ele>266</ele>
        <time>2021-08-28T15:59:43.000Z</time>
      </trkpt>
      <trkpt lat="45.06787" lon="5.38577">
        <ele>264.6</ele>
        <time>2021-08-28T15:59:48.000Z</time>
      </trkpt>
      <trkpt lat="45.06779" lon="5.386">
        <ele>262.6</ele>
        <time>2021-08-28T15:59:53.000Z</time>
      </trkpt>
      <trkpt lat="45.0677" lon="5.38626">
        <ele>262.7</ele>
        <time>2021-08-28T15:59:58.000Z</time>
      </trkpt>
      <trkpt lat="45.06766" lon="5.38647">
        <ele>264.2</ele>
        <time>2021-08-28T16:00:02.000Z</time>
      </trkpt>
      <trkpt lat="45.06762" lon="5.38668">
        <ele>265.7</ele>
        <time>2021-08-28T16:00:06.000Z</time>
      </trkpt>
      <trkpt lat="45.06759" lon="5.3869">
        <ele>268.2</ele>
        <time>2021-08-28T16:00:10.000Z</time>
      </trkpt>
      <trkpt lat="45.06751" lon="5.38715">
        <ele>267.6</ele>
        <time>2021-08-28T16:00:15.000Z</time>
      </trkpt>
      <trkpt lat="45.06745" lon="5.38733">
        <ele>267.4</ele>
        <time>2021-08-28T16:00:19.000Z</time>
      </trkpt>
      <trkpt lat="45.06744" lon="5.38761">
        <ele>271.6</ele>
        <time>2021-08-28T16:00:24.000Z</time>
      </trkpt>
      <trkpt lat="45.06745" lon="5.38785">
        <ele>275.2</ele>
        <time>2021-08-28T16:00:28.000Z</time>
      </trkpt>
      <trkpt lat="45.06742" lon="5.38811">
        <ele>276.5</ele>
        <time>2021-08-28T16:00:32.000Z</time>
      </trkpt>
      <trkpt lat="45.06735" lon="5.38833">
        <ele>275.5</ele>
        <time>2021-08-28T16:00:36.000Z</time>
      </trkpt>
      <trkpt lat="45.06731" lon="5.38851">
        <ele>275.7</ele>
        <time>2021-08-28T16:00:40.000Z</time>
      </trkpt>
      <trkpt lat="45.06725" lon="5.3887">
        <ele>275.4</ele>
        <time>2021-08-28T16:00:44.000Z</time>
      </trkpt>
      <trkpt lat="45.0671" lon="5.38882">
        <ele>274.3</ele>
        <time>2021-08-28T16:00:48.000Z</time>
      </trkpt>
      <trkpt lat="45.06693" lon="5.38884">
        <ele>271.7</ele>
        <time>2021-08-28T16:00:52.000Z</time>
      </trkpt>
      <trkpt lat="45.06675" lon="5.38889">
        <ele>269.5</ele>
        <time>2021-08-28T16:00:57.000Z</time>
      </trkpt>
      <trkpt lat="45.06663" lon="5.38897">
        <ele>268.8</ele>
        <time>2021-08-28T16:01:01.000Z</time>
      </trkpt>
      <trkpt lat="45.0665" lon="5.38916">
        <ele>268.8</ele>
        <time>2021-08-28T16:01:06.000Z</time>
      </trkpt>
      <trkpt lat="45.06641" lon="5.38942">
        <ele>270.9</ele>
        <time>2021-08-28T16:01:11.000Z</time>
      </trkpt>
      <trkpt lat="45.06641" lon="5.38966">
        <ele>272.9</ele>
        <time>2021-08-28T16:01:15.000Z</time>
      </trkpt>
      <trkpt lat="45.06645" lon="5.38995">
        <ele>274.3</ele>
        <time>2021-08-28T16:01:20.000Z</time>
      </trkpt>
      <trkpt lat="45.0665" lon="5.39017">
        <ele>274.4</ele>
        <time>2021-08-28T16:01:24.000Z</time>
      </trkpt>
      <trkpt lat="45.06655" lon="5.39039">
        <ele>274.5</ele>
        <time>2021-08-28T16:01:28.000Z</time>
      </trkpt>
      <trkpt lat="45.06663" lon="5.3906">
        <ele>275.9</ele>
        <time>2021-08-28T16:01:32.000Z</time>
      </trkpt>
      <trkpt lat="45.06677" lon="5.3906">
        <ele>278.4</ele>
        <time>2021-08-28T16:01:36.000Z</time>
      </trkpt>
      <trkpt lat="45.06668" lon="5.39029">
        <ele>278.1</ele>
        <time>2021-08-28T16:01:41.000Z</time>
      </trkpt>
      <trkpt lat="45.06664" lon="5.3901">
        <ele>278</ele>
        <time>2021-08-28T16:01:46.000Z</time>
      </trkpt>
      <trkpt lat="45.06667" lon="5.38994">
        <ele>279</ele>
        <time>2021-08-28T16:01:50.000Z</time>
      </trkpt>
      <trkpt lat="45.06673" lon="5.38983">
        <ele>279.7</ele>
        <time>2021-08-28T16:01:54.000Z</time>
      </trkpt>
      <trkpt lat="45.06681" lon="5.38973">
        <ele>280.5</ele>
        <time>2021-08-28T16:01:58.000Z</time>
      </trkpt>
      <trkpt lat="45.0669" lon="5.38958">
        <ele>280.9</ele>
        <time>2021-08-28T16:02:03.000Z</time>
      </trkpt>
      <trkpt lat="45.06699" lon="5.3895">
        <ele>281.7</ele>
        <time>2021-08-28T16:02:07.000Z</time>
      </trkpt>
      <trkpt lat="45.06712" lon="5.3894">
        <ele>282.5</ele>
        <time>2021-08-28T16:02:12.000Z</time>
      </trkpt>
      <trkpt lat="45.06724" lon="5.38936">
        <ele>283.6</ele>
        <time>2021-08-28T16:02:16.000Z</time>
      </trkpt>
      <trkpt lat="45.06741" lon="5.38933">
        <ele>285.6</ele>
        <time>2021-08-28T16:02:21.000Z</time>
      </trkpt>
      <trkpt lat="45.06751" lon="5.38921">
        <ele>285.7</ele>
        <time>2021-08-28T16:02:26.000Z</time>
      </trkpt>
      <trkpt lat="45.06752" lon="5.38898">
        <ele>284.7</ele>
        <time>2021-08-28T16:02:30.000Z</time>
      </trkpt>
      <trkpt lat="45.06744" lon="5.38884">
        <ele>282.6</ele>
        <time>2021-08-28T16:02:35.000Z</time>
      </trkpt>
      <trkpt lat="45.06744" lon="5.38879">
        <ele>282.7</ele>
        <time>2021-08-28T16:02:49.000Z</time>
      </trkpt>
      <trkpt lat="45.0675" lon="5.38872">
        <ele>284.7</ele>
        <time>2021-08-28T16:02:54.000Z</time>
      </trkpt>
      <trkpt lat="45.06747" lon="5.38895">
        <ele>283.5</ele>
        <time>2021-08-28T16:02:58.000Z</time>
      </trkpt>
      <trkpt lat="45.06741" lon="5.38884">
        <ele>281.9</ele>
        <time>2021-08-28T16:03:02.000Z</time>
      </trkpt>
      <trkpt lat="45.06741" lon="5.38884">
        <ele>281.9</ele>
        <time>2021-08-28T16:03:02.000Z</time>
      </trkpt>
      <trkpt lat="45.06743" lon="5.38879">
        <ele>282.2</ele>
        <time>2021-08-28T16:03:47.000Z</time>
      </trkpt>
      <trkpt lat="45.06747" lon="5.38881">
        <ele>283.5</ele>
        <time>2021-08-28T16:03:52.000Z</time>
      </trkpt>
      <trkpt lat="45.0674" lon="5.38872">
        <ele>281.3</ele>
        <time>2021-08-28T16:07:42.000Z</time>
      </trkpt>
      <trkpt lat="45.06738" lon="5.38876">
        <ele>280.6</ele>
        <time>2021-08-28T16:14:27.000Z</time>
      </trkpt>
      <trkpt lat="45.06749" lon="5.38874">
        <ele>284.3</ele>
        <time>2021-08-28T16:14:32.000Z</time>
      </trkpt>
      <trkpt lat="45.06756" lon="5.38853">
        <ele>287.3</ele>
        <time>2021-08-28T16:14:46.000Z</time>
      </trkpt>
      <trkpt lat="45.06756" lon="5.38842">
        <ele>287</ele>
        <time>2021-08-28T16:14:50.000Z</time>
      </trkpt>
      <trkpt lat="45.06758" lon="5.38833">
        <ele>288.1</ele>
        <time>2021-08-28T16:14:54.000Z</time>
      </trkpt>
      <trkpt lat="45.06762" lon="5.38824">
        <ele>289.5</ele>
        <time>2021-08-28T16:14:58.000Z</time>
      </trkpt>
      <trkpt lat="45.06765" lon="5.38807">
        <ele>290.6</ele>
        <time>2021-08-28T16:15:03.000Z</time>
      </trkpt>
      <trkpt lat="45.06767" lon="5.38796">
        <ele>290.1</ele>
        <time>2021-08-28T16:15:07.000Z</time>
      </trkpt>
      <trkpt lat="45.06771" lon="5.38781">
        <ele>289.8</ele>
        <time>2021-08-28T16:15:12.000Z</time>
      </trkpt>
      <trkpt lat="45.06776" lon="5.38773">
        <ele>291.2</ele>
        <time>2021-08-28T16:15:16.000Z</time>
      </trkpt>
      <trkpt lat="45.06781" lon="5.3876">
        <ele>291.4</ele>
        <time>2021-08-28T16:15:21.000Z</time>
      </trkpt>
      <trkpt lat="45.06787" lon="5.38753">
        <ele>293.3</ele>
        <time>2021-08-28T16:15:25.000Z</time>
      </trkpt>
      <trkpt lat="45.06793" lon="5.3874">
        <ele>293.9</ele>
        <time>2021-08-28T16:15:30.000Z</time>
      </trkpt>
      <trkpt lat="45.06796" lon="5.38726">
        <ele>293.6</ele>
        <time>2021-08-28T16:15:34.000Z</time>
      </trkpt>
      <trkpt lat="45.06799" lon="5.38713">
        <ele>293.5</ele>
        <time>2021-08-28T16:15:39.000Z</time>
      </trkpt>
      <trkpt lat="45.06803" lon="5.38699">
        <ele>294.1</ele>
        <time>2021-08-28T16:15:44.000Z</time>
      </trkpt>
      <trkpt lat="45.06806" lon="5.38688">
        <ele>294.4</ele>
        <time>2021-08-28T16:15:48.000Z</time>
      </trkpt>
      <trkpt lat="45.06809" lon="5.38678">
        <ele>295.2</ele>
        <time>2021-08-28T16:15:52.000Z</time>
      </trkpt>
      <trkpt lat="45.06814" lon="5.38667">
        <ele>297.5</ele>
        <time>2021-08-28T16:15:57.000Z</time>
      </trkpt>
      <trkpt lat="45.06818" lon="5.38652">
        <ele>299.5</ele>
        <time>2021-08-28T16:16:02.000Z</time>
      </trkpt>
      <trkpt lat="45.0682" lon="5.38639">
        <ele>299.5</ele>
        <time>2021-08-28T16:16:06.000Z</time>
      </trkpt>
      <trkpt lat="45.06821" lon="5.38628">
        <ele>299.2</ele>
        <time>2021-08-28T16:16:10.000Z</time>
      </trkpt>
      <trkpt lat="45.06825" lon="5.38615">
        <ele>301</ele>
        <time>2021-08-28T16:16:15.000Z</time>
      </trkpt>
      <trkpt lat="45.0683" lon="5.38605">
        <ele>303.5</ele>
        <time>2021-08-28T16:16:20.000Z</time>
      </trkpt>
      <trkpt lat="45.06833" lon="5.38596">
        <ele>304.4</ele>
        <time>2021-08-28T16:16:24.000Z</time>
      </trkpt>
      <trkpt lat="45.06837" lon="5.38586">
        <ele>305.1</ele>
        <time>2021-08-28T16:16:28.000Z</time>
      </trkpt>
      <trkpt lat="45.0684" lon="5.38576">
        <ele>305.9</ele>
        <time>2021-08-28T16:16:32.000Z</time>
      </trkpt>
      <trkpt lat="45.06844" lon="5.38564">
        <ele>307.3</ele>
        <time>2021-08-28T16:16:36.000Z</time>
      </trkpt>
      <trkpt lat="45.06846" lon="5.3855">
        <ele>306.5</ele>
        <time>2021-08-28T16:16:40.000Z</time>
      </trkpt>
      <trkpt lat="45.06848" lon="5.38532">
        <ele>305</ele>
        <time>2021-08-28T16:16:45.000Z</time>
      </trkpt>
      <trkpt lat="45.06849" lon="5.38519">
        <ele>303.5</ele>
        <time>2021-08-28T16:16:49.000Z</time>
      </trkpt>
      <trkpt lat="45.06855" lon="5.38508">
        <ele>307</ele>
        <time>2021-08-28T16:16:54.000Z</time>
      </trkpt>
      <trkpt lat="45.06861" lon="5.38501">
        <ele>310.6</ele>
        <time>2021-08-28T16:16:58.000Z</time>
      </trkpt>
      <trkpt lat="45.06867" lon="5.38496">
        <ele>314.6</ele>
        <time>2021-08-28T16:17:02.000Z</time>
      </trkpt>
      <trkpt lat="45.06869" lon="5.38488">
        <ele>316.1</ele>
        <time>2021-08-28T16:17:06.000Z</time>
      </trkpt>
      <trkpt lat="45.06871" lon="5.38476">
        <ele>316.8</ele>
        <time>2021-08-28T16:17:10.000Z</time>
      </trkpt>
      <trkpt lat="45.0687" lon="5.38462">
        <ele>316.9</ele>
        <time>2021-08-28T16:17:14.000Z</time>
      </trkpt>
      <trkpt lat="45.06868" lon="5.3845">
        <ele>317.2</ele>
        <time>2021-08-28T16:17:18.000Z</time>
      </trkpt>
      <trkpt lat="45.06866" lon="5.38439">
        <ele>317.5</ele>
        <time>2021-08-28T16:17:22.000Z</time>
      </trkpt>
      <trkpt lat="45.06862" lon="5.38424">
        <ele>316.9</ele>
        <time>2021-08-28T16:17:27.000Z</time>
      </trkpt>
      <trkpt lat="45.06859" lon="5.38414">
        <ele>315.8</ele>
        <time>2021-08-28T16:17:31.000Z</time>
      </trkpt>
      <trkpt lat="45.06854" lon="5.38402">
        <ele>312.5</ele>
        <time>2021-08-28T16:17:36.000Z</time>
      </trkpt>
      <trkpt lat="45.06852" lon="5.38388">
        <ele>311.6</ele>
        <time>2021-08-28T16:17:41.000Z</time>
      </trkpt>
      <trkpt lat="45.06854" lon="5.38375">
        <ele>311.9</ele>
        <time>2021-08-28T16:17:46.000Z</time>
      </trkpt>
      <trkpt lat="45.06859" lon="5.38367">
        <ele>315.1</ele>
        <time>2021-08-28T16:17:50.000Z</time>
      </trkpt>
      <trkpt lat="45.06864" lon="5.38359">
        <ele>317.8</ele>
        <time>2021-08-28T16:17:54.000Z</time>
      </trkpt>
      <trkpt lat="45.06864" lon="5.38344">
        <ele>317</ele>
        <time>2021-08-28T16:17:59.000Z</time>
      </trkpt>
      <trkpt lat="45.0686" lon="5.38333">
        <ele>314.1</ele>
        <time>2021-08-28T16:18:03.000Z</time>
      </trkpt>
      <trkpt lat="45.06857" lon="5.38317">
        <ele>312.6</ele>
        <time>2021-08-28T16:18:07.000Z</time>
      </trkpt>
      <trkpt lat="45.06853" lon="5.38302">
        <ele>310.8</ele>
        <time>2021-08-28T16:18:12.000Z</time>
      </trkpt>
      <trkpt lat="45.06852" lon="5.38288">
        <ele>311.7</ele>
        <time>2021-08-28T16:18:17.000Z</time>
      </trkpt>
      <trkpt lat="45.06849" lon="5.38273">
        <ele>310.5</ele>
        <time>2021-08-28T16:18:22.000Z</time>
      </trkpt>
      <trkpt lat="45.06848" lon="5.38262">
        <ele>310</ele>
        <time>2021-08-28T16:18:26.000Z</time>
      </trkpt>
      <trkpt lat="45.06846" lon="5.38253">
        <ele>309</ele>
        <time>2021-08-28T16:18:30.000Z</time>
      </trkpt>
      <trkpt lat="45.06846" lon="5.38241">
        <ele>308.6</ele>
        <time>2021-08-28T16:18:34.000Z</time>
      </trkpt>
      <trkpt lat="45.06848" lon="5.38228">
        <ele>310.8</ele>
        <time>2021-08-28T16:18:38.000Z</time>
      </trkpt>
      <trkpt lat="45.06854" lon="5.38219">
        <ele>315</ele>
        <time>2021-08-28T16:18:42.000Z</time>
      </trkpt>
      <trkpt lat="45.06861" lon="5.38211">
        <ele>319.7</ele>
        <time>2021-08-28T16:18:46.000Z</time>
      </trkpt>
      <trkpt lat="45.06865" lon="5.38203">
        <ele>322</ele>
        <time>2021-08-28T16:18:50.000Z</time>
      </trkpt>
      <trkpt lat="45.06866" lon="5.3819">
        <ele>322.5</ele>
        <time>2021-08-28T16:18:54.000Z</time>
      </trkpt>
      <trkpt lat="45.06866" lon="5.38175">
        <ele>322.5</ele>
        <time>2021-08-28T16:18:59.000Z</time>
      </trkpt>
      <trkpt lat="45.06866" lon="5.38163">
        <ele>322.2</ele>
        <time>2021-08-28T16:19:04.000Z</time>
      </trkpt>
      <trkpt lat="45.06865" lon="5.3815">
        <ele>321.6</ele>
        <time>2021-08-28T16:19:08.000Z</time>
      </trkpt>
      <trkpt lat="45.06868" lon="5.38138">
        <ele>324.2</ele>
        <time>2021-08-28T16:19:12.000Z</time>
      </trkpt>
      <trkpt lat="45.06871" lon="5.38128">
        <ele>325.9</ele>
        <time>2021-08-28T16:19:16.000Z</time>
      </trkpt>
      <trkpt lat="45.06872" lon="5.38113">
        <ele>326.6</ele>
        <time>2021-08-28T16:19:21.000Z</time>
      </trkpt>
      <trkpt lat="45.06875" lon="5.38099">
        <ele>327.8</ele>
        <time>2021-08-28T16:19:26.000Z</time>
      </trkpt>
      <trkpt lat="45.06878" lon="5.38088">
        <ele>329.2</ele>
        <time>2021-08-28T16:19:30.000Z</time>
      </trkpt>
      <trkpt lat="45.0688" lon="5.38074">
        <ele>330.4</ele>
        <time>2021-08-28T16:19:35.000Z</time>
      </trkpt>
      <trkpt lat="45.06881" lon="5.3806">
        <ele>331.4</ele>
        <time>2021-08-28T16:19:39.000Z</time>
      </trkpt>
      <trkpt lat="45.06881" lon="5.38048">
        <ele>331.9</ele>
        <time>2021-08-28T16:19:43.000Z</time>
      </trkpt>
      <trkpt lat="45.06878" lon="5.38033">
        <ele>330.9</ele>
        <time>2021-08-28T16:19:48.000Z</time>
      </trkpt>
      <trkpt lat="45.06876" lon="5.38022">
        <ele>330.7</ele>
        <time>2021-08-28T16:19:52.000Z</time>
      </trkpt>
      <trkpt lat="45.06874" lon="5.38009">
        <ele>330.5</ele>
        <time>2021-08-28T16:19:57.000Z</time>
      </trkpt>
      <trkpt lat="45.0687" lon="5.37998">
        <ele>329.8</ele>
        <time>2021-08-28T16:20:01.000Z</time>
      </trkpt>
      <trkpt lat="45.06869" lon="5.37984">
        <ele>330.4</ele>
        <time>2021-08-28T16:20:06.000Z</time>
      </trkpt>
      <trkpt lat="45.06868" lon="5.37974">
        <ele>331</ele>
        <time>2021-08-28T16:20:10.000Z</time>
      </trkpt>
      <trkpt lat="45.06868" lon="5.37963">
        <ele>331.5</ele>
        <time>2021-08-28T16:20:14.000Z</time>
      </trkpt>
      <trkpt lat="45.06871" lon="5.37953">
        <ele>333</ele>
        <time>2021-08-28T16:20:18.000Z</time>
      </trkpt>
      <trkpt lat="45.06874" lon="5.37944">
        <ele>334.1</ele>
        <time>2021-08-28T16:20:22.000Z</time>
      </trkpt>
      <trkpt lat="45.06877" lon="5.37933">
        <ele>333.7</ele>
        <time>2021-08-28T16:20:26.000Z</time>
      </trkpt>
      <trkpt lat="45.0688" lon="5.37923">
        <ele>333.5</ele>
        <time>2021-08-28T16:20:30.000Z</time>
      </trkpt>
      <trkpt lat="45.06885" lon="5.37914">
        <ele>333.8</ele>
        <time>2021-08-28T16:20:34.000Z</time>
      </trkpt>
      <trkpt lat="45.06891" lon="5.37905">
        <ele>334.6</ele>
        <time>2021-08-28T16:20:39.000Z</time>
      </trkpt>
      <trkpt lat="45.06895" lon="5.37897">
        <ele>334.9</ele>
        <time>2021-08-28T16:20:44.000Z</time>
      </trkpt>
      <trkpt lat="45.06899" lon="5.37889">
        <ele>335.5</ele>
        <time>2021-08-28T16:20:48.000Z</time>
      </trkpt>
      <trkpt lat="45.06905" lon="5.37882">
        <ele>336.5</ele>
        <time>2021-08-28T16:20:52.000Z</time>
      </trkpt>
      <trkpt lat="45.0691" lon="5.37873">
        <ele>337.2</ele>
        <time>2021-08-28T16:20:56.000Z</time>
      </trkpt>
      <trkpt lat="45.06916" lon="5.37864">
        <ele>338</ele>
        <time>2021-08-28T16:21:00.000Z</time>
      </trkpt>
      <trkpt lat="45.06922" lon="5.37853">
        <ele>339.2</ele>
        <time>2021-08-28T16:21:04.000Z</time>
      </trkpt>
      <trkpt lat="45.06929" lon="5.37839">
        <ele>340.6</ele>
        <time>2021-08-28T16:21:09.000Z</time>
      </trkpt>
      <trkpt lat="45.06934" lon="5.3783">
        <ele>342</ele>
        <time>2021-08-28T16:21:13.000Z</time>
      </trkpt>
      <trkpt lat="45.06941" lon="5.3782">
        <ele>344</ele>
        <time>2021-08-28T16:21:18.000Z</time>
      </trkpt>
      <trkpt lat="45.06947" lon="5.37812">
        <ele>346.1</ele>
        <time>2021-08-28T16:21:22.000Z</time>
      </trkpt>
      <trkpt lat="45.06951" lon="5.37798">
        <ele>348</ele>
        <time>2021-08-28T16:21:26.000Z</time>
      </trkpt>
      <trkpt lat="45.06952" lon="5.37784">
        <ele>348.9</ele>
        <time>2021-08-28T16:21:30.000Z</time>
      </trkpt>
      <trkpt lat="45.06949" lon="5.37771">
        <ele>349</ele>
        <time>2021-08-28T16:21:34.000Z</time>
      </trkpt>
      <trkpt lat="45.06945" lon="5.37756">
        <ele>349.4</ele>
        <time>2021-08-28T16:21:39.000Z</time>
      </trkpt>
      <trkpt lat="45.06943" lon="5.37749">
        <ele>349.5</ele>
        <time>2021-08-28T16:21:43.000Z</time>
      </trkpt>
      <trkpt lat="45.06939" lon="5.37734">
        <ele>349.6</ele>
        <time>2021-08-28T16:21:48.000Z</time>
      </trkpt>
      <trkpt lat="45.06938" lon="5.37723">
        <ele>350.4</ele>
        <time>2021-08-28T16:21:52.000Z</time>
      </trkpt>
      <trkpt lat="45.06944" lon="5.37712">
        <ele>351</ele>
        <time>2021-08-28T16:21:57.000Z</time>
      </trkpt>
      <trkpt lat="45.0695" lon="5.37702">
        <ele>352.7</ele>
        <time>2021-08-28T16:22:02.000Z</time>
      </trkpt>
      <trkpt lat="45.06955" lon="5.37694">
        <ele>353.9</ele>
        <time>2021-08-28T16:22:06.000Z</time>
      </trkpt>
      <trkpt lat="45.06961" lon="5.37685">
        <ele>355.2</ele>
        <time>2021-08-28T16:22:10.000Z</time>
      </trkpt>
      <trkpt lat="45.06967" lon="5.37674">
        <ele>356.7</ele>
        <time>2021-08-28T16:22:15.000Z</time>
      </trkpt>
      <trkpt lat="45.06972" lon="5.37663">
        <ele>357.3</ele>
        <time>2021-08-28T16:22:19.000Z</time>
      </trkpt>
      <trkpt lat="45.06977" lon="5.37651">
        <ele>357</ele>
        <time>2021-08-28T16:22:24.000Z</time>
      </trkpt>
      <trkpt lat="45.0698" lon="5.37644">
        <ele>357.4</ele>
        <time>2021-08-28T16:22:28.000Z</time>
      </trkpt>
      <trkpt lat="45.06985" lon="5.37632">
        <ele>357.5</ele>
        <time>2021-08-28T16:22:32.000Z</time>
      </trkpt>
      <trkpt lat="45.06989" lon="5.37622">
        <ele>357.6</ele>
        <time>2021-08-28T16:22:36.000Z</time>
      </trkpt>
      <trkpt lat="45.06994" lon="5.37607">
        <ele>357.5</ele>
        <time>2021-08-28T16:22:41.000Z</time>
      </trkpt>
      <trkpt lat="45.06999" lon="5.37594">
        <ele>357.9</ele>
        <time>2021-08-28T16:22:46.000Z</time>
      </trkpt>
      <trkpt lat="45.07001" lon="5.37584">
        <ele>357.4</ele>
        <time>2021-08-28T16:22:50.000Z</time>
      </trkpt>
      <trkpt lat="45.07002" lon="5.3757">
        <ele>356.9</ele>
        <time>2021-08-28T16:22:54.000Z</time>
      </trkpt>
      <trkpt lat="45.07004" lon="5.37562">
        <ele>357.1</ele>
        <time>2021-08-28T16:22:58.000Z</time>
      </trkpt>
      <trkpt lat="45.07003" lon="5.37554">
        <ele>356.1</ele>
        <time>2021-08-28T16:23:02.000Z</time>
      </trkpt>
      <trkpt lat="45.07003" lon="5.37539">
        <ele>356.7</ele>
        <time>2021-08-28T16:23:06.000Z</time>
      </trkpt>
      <trkpt lat="45.07008" lon="5.37528">
        <ele>358.5</ele>
        <time>2021-08-28T16:23:11.000Z</time>
      </trkpt>
      <trkpt lat="45.07008" lon="5.37514">
        <ele>358.6</ele>
        <time>2021-08-28T16:23:16.000Z</time>
      </trkpt>
      <trkpt lat="45.07008" lon="5.37499">
        <ele>358.7</ele>
        <time>2021-08-28T16:23:21.000Z</time>
      </trkpt>
      <trkpt lat="45.07005" lon="5.37487">
        <ele>358.9</ele>
        <time>2021-08-28T16:23:25.000Z</time>
      </trkpt>
      <trkpt lat="45.07003" lon="5.37473">
        <ele>359.4</ele>
        <time>2021-08-28T16:23:30.000Z</time>
      </trkpt>
      <trkpt lat="45.07003" lon="5.37463">
        <ele>360</ele>
        <time>2021-08-28T16:23:34.000Z</time>
      </trkpt>
      <trkpt lat="45.07" lon="5.37446">
        <ele>360.9</ele>
        <time>2021-08-28T16:23:39.000Z</time>
      </trkpt>
      <trkpt lat="45.06998" lon="5.37433">
        <ele>360.7</ele>
        <time>2021-08-28T16:23:43.000Z</time>
      </trkpt>
      <trkpt lat="45.06997" lon="5.37418">
        <ele>360.7</ele>
        <time>2021-08-28T16:23:48.000Z</time>
      </trkpt>
      <trkpt lat="45.06997" lon="5.37405">
        <ele>359.8</ele>
        <time>2021-08-28T16:23:52.000Z</time>
      </trkpt>
      <trkpt lat="45.07" lon="5.37389">
        <ele>359</ele>
        <time>2021-08-28T16:23:57.000Z</time>
      </trkpt>
      <trkpt lat="45.07006" lon="5.37379">
        <ele>357</ele>
        <time>2021-08-28T16:24:01.000Z</time>
      </trkpt>
      <trkpt lat="45.07013" lon="5.37371">
        <ele>356.2</ele>
        <time>2021-08-28T16:24:06.000Z</time>
      </trkpt>
      <trkpt lat="45.07021" lon="5.37364">
        <ele>356.1</ele>
        <time>2021-08-28T16:24:11.000Z</time>
      </trkpt>
      <trkpt lat="45.07029" lon="5.37358">
        <ele>356.3</ele>
        <time>2021-08-28T16:24:16.000Z</time>
      </trkpt>
      <trkpt lat="45.07037" lon="5.37353">
        <ele>356.5</ele>
        <time>2021-08-28T16:24:20.000Z</time>
      </trkpt>
      <trkpt lat="45.07044" lon="5.37346">
        <ele>356.3</ele>
        <time>2021-08-28T16:24:24.000Z</time>
      </trkpt>
      <trkpt lat="45.07051" lon="5.37339">
        <ele>356.1</ele>
        <time>2021-08-28T16:24:28.000Z</time>
      </trkpt>
      <trkpt lat="45.07059" lon="5.37331">
        <ele>356</ele>
        <time>2021-08-28T16:24:33.000Z</time>
      </trkpt>
      <trkpt lat="45.07067" lon="5.37324">
        <ele>356.4</ele>
        <time>2021-08-28T16:24:38.000Z</time>
      </trkpt>
      <trkpt lat="45.07074" lon="5.37322">
        <ele>357.4</ele>
        <time>2021-08-28T16:24:42.000Z</time>
      </trkpt>
      <trkpt lat="45.07082" lon="5.37321">
        <ele>358.9</ele>
        <time>2021-08-28T16:24:46.000Z</time>
      </trkpt>
      <trkpt lat="45.07089" lon="5.37318">
        <ele>360.4</ele>
        <time>2021-08-28T16:24:51.000Z</time>
      </trkpt>
      <trkpt lat="45.07096" lon="5.37314">
        <ele>361.8</ele>
        <time>2021-08-28T16:24:55.000Z</time>
      </trkpt>
      <trkpt lat="45.07107" lon="5.37305">
        <ele>363.7</ele>
        <time>2021-08-28T16:25:00.000Z</time>
      </trkpt>
      <trkpt lat="45.07114" lon="5.3729">
        <ele>366.6</ele>
        <time>2021-08-28T16:25:04.000Z</time>
      </trkpt>
      <trkpt lat="45.07114" lon="5.3729">
        <ele>366.6</ele>
        <time>2021-08-28T16:25:04.000Z</time>
      </trkpt>
      <trkpt lat="45.07108" lon="5.37272">
        <ele>366.4</ele>
        <time>2021-08-28T16:25:09.000Z</time>
      </trkpt>
      <trkpt lat="45.07094" lon="5.3726">
        <ele>365</ele>
        <time>2021-08-28T16:25:13.000Z</time>
      </trkpt>
      <trkpt lat="45.07075" lon="5.37237">
        <ele>366.3</ele>
        <time>2021-08-28T16:25:18.000Z</time>
      </trkpt>
      <trkpt lat="45.07061" lon="5.37222">
        <ele>367.8</ele>
        <time>2021-08-28T16:25:23.000Z</time>
      </trkpt>
      <trkpt lat="45.07056" lon="5.37216">
        <ele>367.7</ele>
        <time>2021-08-28T16:25:27.000Z</time>
      </trkpt>
      <trkpt lat="45.07048" lon="5.37209">
        <ele>367.7</ele>
        <time>2021-08-28T16:25:32.000Z</time>
      </trkpt>
      <trkpt lat="45.07041" lon="5.37206">
        <ele>367.1</ele>
        <time>2021-08-28T16:25:36.000Z</time>
      </trkpt>
      <trkpt lat="45.07033" lon="5.37201">
        <ele>366.6</ele>
        <time>2021-08-28T16:25:41.000Z</time>
      </trkpt>
      <trkpt lat="45.07028" lon="5.37196">
        <ele>366.7</ele>
        <time>2021-08-28T16:25:45.000Z</time>
      </trkpt>
      <trkpt lat="45.07023" lon="5.3719">
        <ele>367.3</ele>
        <time>2021-08-28T16:25:49.000Z</time>
      </trkpt>
      <trkpt lat="45.07015" lon="5.37183">
        <ele>367.8</ele>
        <time>2021-08-28T16:25:54.000Z</time>
      </trkpt>
      <trkpt lat="45.07008" lon="5.37176">
        <ele>368.3</ele>
        <time>2021-08-28T16:25:58.000Z</time>
      </trkpt>
      <trkpt lat="45.07001" lon="5.37167">
        <ele>369.1</ele>
        <time>2021-08-28T16:26:03.000Z</time>
      </trkpt>
      <trkpt lat="45.06996" lon="5.37161">
        <ele>369.5</ele>
        <time>2021-08-28T16:26:07.000Z</time>
      </trkpt>
      <trkpt lat="45.06994" lon="5.37152">
        <ele>370.7</ele>
        <time>2021-08-28T16:26:12.000Z</time>
      </trkpt>
      <trkpt lat="45.06991" lon="5.37143">
        <ele>372.1</ele>
        <time>2021-08-28T16:26:16.000Z</time>
      </trkpt>
      <trkpt lat="45.06987" lon="5.37131">
        <ele>373.5</ele>
        <time>2021-08-28T16:26:21.000Z</time>
      </trkpt>
      <trkpt lat="45.06985" lon="5.37122">
        <ele>374.5</ele>
        <time>2021-08-28T16:26:25.000Z</time>
      </trkpt>
      <trkpt lat="45.06983" lon="5.37113">
        <ele>375.5</ele>
        <time>2021-08-28T16:26:30.000Z</time>
      </trkpt>
      <trkpt lat="45.06983" lon="5.37102">
        <ele>376.8</ele>
        <time>2021-08-28T16:26:35.000Z</time>
      </trkpt>
      <trkpt lat="45.06983" lon="5.37102">
        <ele>376.8</ele>
        <time>2021-08-28T16:26:35.000Z</time>
      </trkpt>
      <trkpt lat="45.06982" lon="5.37094">
        <ele>377.6</ele>
        <time>2021-08-28T16:26:39.000Z</time>
      </trkpt>
      <trkpt lat="45.06981" lon="5.37085">
        <ele>378.4</ele>
        <time>2021-08-28T16:26:44.000Z</time>
      </trkpt>
      <trkpt lat="45.0698" lon="5.37079">
        <ele>378.7</ele>
        <time>2021-08-28T16:26:48.000Z</time>
      </trkpt>
      <trkpt lat="45.06982" lon="5.3707">
        <ele>380</ele>
        <time>2021-08-28T16:26:53.000Z</time>
      </trkpt>
      <trkpt lat="45.06983" lon="5.37059">
        <ele>380.7</ele>
        <time>2021-08-28T16:26:58.000Z</time>
      </trkpt>
      <trkpt lat="45.06982" lon="5.37045">
        <ele>381</ele>
        <time>2021-08-28T16:27:02.000Z</time>
      </trkpt>
      <trkpt lat="45.06984" lon="5.37034">
        <ele>381.7</ele>
        <time>2021-08-28T16:27:06.000Z</time>
      </trkpt>
      <trkpt lat="45.06985" lon="5.3702">
        <ele>382.5</ele>
        <time>2021-08-28T16:27:10.000Z</time>
      </trkpt>
      <trkpt lat="45.06988" lon="5.37008">
        <ele>383.5</ele>
        <time>2021-08-28T16:27:14.000Z</time>
      </trkpt>
      <trkpt lat="45.06992" lon="5.36998">
        <ele>384.7</ele>
        <time>2021-08-28T16:27:18.000Z</time>
      </trkpt>
      <trkpt lat="45.06995" lon="5.36988">
        <ele>384.9</ele>
        <time>2021-08-28T16:27:22.000Z</time>
      </trkpt>
      <trkpt lat="45.07" lon="5.36979">
        <ele>385.6</ele>
        <time>2021-08-28T16:27:26.000Z</time>
      </trkpt>
      <trkpt lat="45.07004" lon="5.36971">
        <ele>386.2</ele>
        <time>2021-08-28T16:27:30.000Z</time>
      </trkpt>
      <trkpt lat="45.0701" lon="5.36959">
        <ele>386.2</ele>
        <time>2021-08-28T16:27:35.000Z</time>
      </trkpt>
      <trkpt lat="45.07015" lon="5.3695">
        <ele>386.7</ele>
        <time>2021-08-28T16:27:40.000Z</time>
      </trkpt>
      <trkpt lat="45.07021" lon="5.36945">
        <ele>387.7</ele>
        <time>2021-08-28T16:27:44.000Z</time>
      </trkpt>
      <trkpt lat="45.07027" lon="5.3694">
        <ele>388.8</ele>
        <time>2021-08-28T16:27:48.000Z</time>
      </trkpt>
      <trkpt lat="45.07032" lon="5.36935">
        <ele>389.2</ele>
        <time>2021-08-28T16:27:52.000Z</time>
      </trkpt>
      <trkpt lat="45.07041" lon="5.3693">
        <ele>390.6</ele>
        <time>2021-08-28T16:27:57.000Z</time>
      </trkpt>
      <trkpt lat="45.07048" lon="5.36925">
        <ele>391.4</ele>
        <time>2021-08-28T16:28:01.000Z</time>
      </trkpt>
      <trkpt lat="45.07055" lon="5.36918">
        <ele>392.1</ele>
        <time>2021-08-28T16:28:06.000Z</time>
      </trkpt>
      <trkpt lat="45.07059" lon="5.36914">
        <ele>392.6</ele>
        <time>2021-08-28T16:28:10.000Z</time>
      </trkpt>
      <trkpt lat="45.07065" lon="5.36907">
        <ele>393</ele>
        <time>2021-08-28T16:28:14.000Z</time>
      </trkpt>
      <trkpt lat="45.0707" lon="5.369">
        <ele>393.1</ele>
        <time>2021-08-28T16:28:18.000Z</time>
      </trkpt>
      <trkpt lat="45.07074" lon="5.36891">
        <ele>392.9</ele>
        <time>2021-08-28T16:28:23.000Z</time>
      </trkpt>
      <trkpt lat="45.07077" lon="5.36884">
        <ele>393.4</ele>
        <time>2021-08-28T16:28:27.000Z</time>
      </trkpt>
      <trkpt lat="45.0708" lon="5.36874">
        <ele>393.8</ele>
        <time>2021-08-28T16:28:32.000Z</time>
      </trkpt>
      <trkpt lat="45.07084" lon="5.36866">
        <ele>394.6</ele>
        <time>2021-08-28T16:28:36.000Z</time>
      </trkpt>
      <trkpt lat="45.07087" lon="5.36858">
        <ele>396.2</ele>
        <time>2021-08-28T16:28:40.000Z</time>
      </trkpt>
      <trkpt lat="45.07091" lon="5.36846">
        <ele>397.7</ele>
        <time>2021-08-28T16:28:44.000Z</time>
      </trkpt>
      <trkpt lat="45.07093" lon="5.36838">
        <ele>399.2</ele>
        <time>2021-08-28T16:28:48.000Z</time>
      </trkpt>
      <trkpt lat="45.07094" lon="5.36831">
        <ele>399.6</ele>
        <time>2021-08-28T16:28:52.000Z</time>
      </trkpt>
      <trkpt lat="45.07096" lon="5.36824">
        <ele>401.5</ele>
        <time>2021-08-28T16:28:56.000Z</time>
      </trkpt>
      <trkpt lat="45.07096" lon="5.36817">
        <ele>401.9</ele>
        <time>2021-08-28T16:29:00.000Z</time>
      </trkpt>
      <trkpt lat="45.07095" lon="5.36805">
        <ele>401.9</ele>
        <time>2021-08-28T16:29:05.000Z</time>
      </trkpt>
      <trkpt lat="45.07094" lon="5.36796">
        <ele>401.3</ele>
        <time>2021-08-28T16:29:09.000Z</time>
      </trkpt>
      <trkpt lat="45.07093" lon="5.36786">
        <ele>401.1</ele>
        <time>2021-08-28T16:29:14.000Z</time>
      </trkpt>
      <trkpt lat="45.07094" lon="5.36774">
        <ele>402.1</ele>
        <time>2021-08-28T16:29:18.000Z</time>
      </trkpt>
      <trkpt lat="45.07095" lon="5.36766">
        <ele>403.4</ele>
        <time>2021-08-28T16:29:22.000Z</time>
      </trkpt>
      <trkpt lat="45.07096" lon="5.36756">
        <ele>404.5</ele>
        <time>2021-08-28T16:29:26.000Z</time>
      </trkpt>
      <trkpt lat="45.07097" lon="5.36748">
        <ele>405.5</ele>
        <time>2021-08-28T16:29:30.000Z</time>
      </trkpt>
      <trkpt lat="45.07097" lon="5.36736">
        <ele>406.6</ele>
        <time>2021-08-28T16:29:35.000Z</time>
      </trkpt>
      <trkpt lat="45.07097" lon="5.36723">
        <ele>406.5</ele>
        <time>2021-08-28T16:29:40.000Z</time>
      </trkpt>
      <trkpt lat="45.07094" lon="5.36712">
        <ele>404.6</ele>
        <time>2021-08-28T16:29:44.000Z</time>
      </trkpt>
      <trkpt lat="45.07095" lon="5.36701">
        <ele>405.4</ele>
        <time>2021-08-28T16:29:48.000Z</time>
      </trkpt>
      <trkpt lat="45.07096" lon="5.36693">
        <ele>406.9</ele>
        <time>2021-08-28T16:29:53.000Z</time>
      </trkpt>
      <trkpt lat="45.07096" lon="5.36685">
        <ele>406.9</ele>
        <time>2021-08-28T16:29:57.000Z</time>
      </trkpt>
      <trkpt lat="45.07098" lon="5.36675">
        <ele>408.2</ele>
        <time>2021-08-28T16:30:01.000Z</time>
      </trkpt>
      <trkpt lat="45.07099" lon="5.36664">
        <ele>408.4</ele>
        <time>2021-08-28T16:30:06.000Z</time>
      </trkpt>
      <trkpt lat="45.071" lon="5.36655">
        <ele>408.4</ele>
        <time>2021-08-28T16:30:11.000Z</time>
      </trkpt>
      <trkpt lat="45.07101" lon="5.36647">
        <ele>408.5</ele>
        <time>2021-08-28T16:30:15.000Z</time>
      </trkpt>
      <trkpt lat="45.07103" lon="5.3664">
        <ele>409.8</ele>
        <time>2021-08-28T16:30:19.000Z</time>
      </trkpt>
      <trkpt lat="45.07104" lon="5.36629">
        <ele>409.6</ele>
        <time>2021-08-28T16:30:24.000Z</time>
      </trkpt>
      <trkpt lat="45.07105" lon="5.36616">
        <ele>408.4</ele>
        <time>2021-08-28T16:30:28.000Z</time>
      </trkpt>
      <trkpt lat="45.07107" lon="5.36603">
        <ele>407.6</ele>
        <time>2021-08-28T16:30:33.000Z</time>
      </trkpt>
      <trkpt lat="45.07109" lon="5.36592">
        <ele>406.7</ele>
        <time>2021-08-28T16:30:37.000Z</time>
      </trkpt>
      <trkpt lat="45.07116" lon="5.3658">
        <ele>406.3</ele>
        <time>2021-08-28T16:30:42.000Z</time>
      </trkpt>
      <trkpt lat="45.07125" lon="5.36574">
        <ele>406.8</ele>
        <time>2021-08-28T16:30:47.000Z</time>
      </trkpt>
      <trkpt lat="45.07133" lon="5.36568">
        <ele>407.5</ele>
        <time>2021-08-28T16:30:52.000Z</time>
      </trkpt>
      <trkpt lat="45.0714" lon="5.36565">
        <ele>408</ele>
        <time>2021-08-28T16:30:56.000Z</time>
      </trkpt>
      <trkpt lat="45.07146" lon="5.36562">
        <ele>408.5</ele>
        <time>2021-08-28T16:31:00.000Z</time>
      </trkpt>
      <trkpt lat="45.07155" lon="5.3656">
        <ele>409.4</ele>
        <time>2021-08-28T16:31:05.000Z</time>
      </trkpt>
      <trkpt lat="45.07162" lon="5.36558">
        <ele>409.9</ele>
        <time>2021-08-28T16:31:09.000Z</time>
      </trkpt>
      <trkpt lat="45.07162" lon="5.36558">
        <ele>409.9</ele>
        <time>2021-08-28T16:31:09.000Z</time>
      </trkpt>
      <trkpt lat="45.07169" lon="5.36554">
        <ele>409.7</ele>
        <time>2021-08-28T16:31:13.000Z</time>
      </trkpt>
      <trkpt lat="45.07177" lon="5.36554">
        <ele>410.8</ele>
        <time>2021-08-28T16:31:18.000Z</time>
      </trkpt>
      <trkpt lat="45.07186" lon="5.36554">
        <ele>412</ele>
        <time>2021-08-28T16:31:23.000Z</time>
      </trkpt>
      <trkpt lat="45.07195" lon="5.36553">
        <ele>412.8</ele>
        <time>2021-08-28T16:31:28.000Z</time>
      </trkpt>
      <trkpt lat="45.072" lon="5.36554">
        <ele>413.3</ele>
        <time>2021-08-28T16:31:32.000Z</time>
      </trkpt>
      <trkpt lat="45.07207" lon="5.36552">
        <ele>412.6</ele>
        <time>2021-08-28T16:31:36.000Z</time>
      </trkpt>
      <trkpt lat="45.07215" lon="5.36553">
        <ele>413.4</ele>
        <time>2021-08-28T16:31:41.000Z</time>
      </trkpt>
      <trkpt lat="45.07221" lon="5.36555">
        <ele>414.7</ele>
        <time>2021-08-28T16:31:45.000Z</time>
      </trkpt>
      <trkpt lat="45.07226" lon="5.36556">
        <ele>415.1</ele>
        <time>2021-08-28T16:31:49.000Z</time>
      </trkpt>
      <trkpt lat="45.07234" lon="5.36558">
        <ele>416.7</ele>
        <time>2021-08-28T16:31:54.000Z</time>
      </trkpt>
      <trkpt lat="45.07241" lon="5.36559">
        <ele>417.6</ele>
        <time>2021-08-28T16:31:58.000Z</time>
      </trkpt>
      <trkpt lat="45.07247" lon="5.3656">
        <ele>418.3</ele>
        <time>2021-08-28T16:32:02.000Z</time>
      </trkpt>
      <trkpt lat="45.07254" lon="5.36562">
        <ele>419.3</ele>
        <time>2021-08-28T16:32:06.000Z</time>
      </trkpt>
      <trkpt lat="45.07261" lon="5.36563">
        <ele>420.6</ele>
        <time>2021-08-28T16:32:10.000Z</time>
      </trkpt>
      <trkpt lat="45.0727" lon="5.36563">
        <ele>420.9</ele>
        <time>2021-08-28T16:32:15.000Z</time>
      </trkpt>
      <trkpt lat="45.07276" lon="5.36564">
        <ele>421.9</ele>
        <time>2021-08-28T16:32:19.000Z</time>
      </trkpt>
      <trkpt lat="45.07285" lon="5.36566">
        <ele>423.2</ele>
        <time>2021-08-28T16:32:24.000Z</time>
      </trkpt>
      <trkpt lat="45.07292" lon="5.36566">
        <ele>423.6</ele>
        <time>2021-08-28T16:32:28.000Z</time>
      </trkpt>
      <trkpt lat="45.07301" lon="5.36568">
        <ele>424.9</ele>
        <time>2021-08-28T16:32:33.000Z</time>
      </trkpt>
      <trkpt lat="45.07308" lon="5.36568">
        <ele>425.5</ele>
        <time>2021-08-28T16:32:37.000Z</time>
      </trkpt>
      <trkpt lat="45.07316" lon="5.36569">
        <ele>426.2</ele>
        <time>2021-08-28T16:32:42.000Z</time>
      </trkpt>
      <trkpt lat="45.07325" lon="5.36569">
        <ele>426.9</ele>
        <time>2021-08-28T16:32:47.000Z</time>
      </trkpt>
      <trkpt lat="45.07331" lon="5.3657">
        <ele>427.4</ele>
        <time>2021-08-28T16:32:51.000Z</time>
      </trkpt>
      <trkpt lat="45.07339" lon="5.36568">
        <ele>427.4</ele>
        <time>2021-08-28T16:32:56.000Z</time>
      </trkpt>
      <trkpt lat="45.07345" lon="5.36563">
        <ele>426.4</ele>
        <time>2021-08-28T16:33:00.000Z</time>
      </trkpt>
      <trkpt lat="45.07351" lon="5.3656">
        <ele>425.9</ele>
        <time>2021-08-28T16:33:04.000Z</time>
      </trkpt>
      <trkpt lat="45.07359" lon="5.36559">
        <ele>426.1</ele>
        <time>2021-08-28T16:33:09.000Z</time>
      </trkpt>
      <trkpt lat="45.07367" lon="5.36559">
        <ele>427.2</ele>
        <time>2021-08-28T16:33:14.000Z</time>
      </trkpt>
      <trkpt lat="45.07374" lon="5.36557">
        <ele>427.4</ele>
        <time>2021-08-28T16:33:18.000Z</time>
      </trkpt>
      <trkpt lat="45.07382" lon="5.36557">
        <ele>428.6</ele>
        <time>2021-08-28T16:33:22.000Z</time>
      </trkpt>
      <trkpt lat="45.07388" lon="5.36559">
        <ele>430.1</ele>
        <time>2021-08-28T16:33:26.000Z</time>
      </trkpt>
      <trkpt lat="45.07394" lon="5.36558">
        <ele>430.6</ele>
        <time>2021-08-28T16:33:30.000Z</time>
      </trkpt>
      <trkpt lat="45.07402" lon="5.36556">
        <ele>430.6</ele>
        <time>2021-08-28T16:33:35.000Z</time>
      </trkpt>
      <trkpt lat="45.07409" lon="5.36555">
        <ele>430.9</ele>
        <time>2021-08-28T16:33:39.000Z</time>
      </trkpt>
      <trkpt lat="45.07416" lon="5.36556">
        <ele>432.2</ele>
        <time>2021-08-28T16:33:44.000Z</time>
      </trkpt>
      <trkpt lat="45.07423" lon="5.36558">
        <ele>433.2</ele>
        <time>2021-08-28T16:33:48.000Z</time>
      </trkpt>
      <trkpt lat="45.07431" lon="5.36559">
        <ele>433.8</ele>
        <time>2021-08-28T16:33:53.000Z</time>
      </trkpt>
      <trkpt lat="45.07437" lon="5.36561">
        <ele>434.5</ele>
        <time>2021-08-28T16:33:57.000Z</time>
      </trkpt>
      <trkpt lat="45.07442" lon="5.36561">
        <ele>434.6</ele>
        <time>2021-08-28T16:34:01.000Z</time>
      </trkpt>
      <trkpt lat="45.0745" lon="5.36564">
        <ele>435.9</ele>
        <time>2021-08-28T16:34:06.000Z</time>
      </trkpt>
      <trkpt lat="45.07458" lon="5.3657">
        <ele>438.2</ele>
        <time>2021-08-28T16:34:11.000Z</time>
      </trkpt>
      <trkpt lat="45.07464" lon="5.36574">
        <ele>439.5</ele>
        <time>2021-08-28T16:34:15.000Z</time>
      </trkpt>
      <trkpt lat="45.07471" lon="5.36579">
        <ele>440.9</ele>
        <time>2021-08-28T16:34:19.000Z</time>
      </trkpt>
      <trkpt lat="45.0748" lon="5.36584">
        <ele>443.6</ele>
        <time>2021-08-28T16:34:24.000Z</time>
      </trkpt>
      <trkpt lat="45.07488" lon="5.36588">
        <ele>446.1</ele>
        <time>2021-08-28T16:34:29.000Z</time>
      </trkpt>
      <trkpt lat="45.07492" lon="5.36591">
        <ele>447.5</ele>
        <time>2021-08-28T16:34:33.000Z</time>
      </trkpt>
      <trkpt lat="45.07498" lon="5.36594">
        <ele>448.9</ele>
        <time>2021-08-28T16:34:38.000Z</time>
      </trkpt>
      <trkpt lat="45.07503" lon="5.36595">
        <ele>450.3</ele>
        <time>2021-08-28T16:34:42.000Z</time>
      </trkpt>
      <trkpt lat="45.0751" lon="5.36593">
        <ele>452.3</ele>
        <time>2021-08-28T16:34:46.000Z</time>
      </trkpt>
      <trkpt lat="45.07517" lon="5.36589">
        <ele>454.1</ele>
        <time>2021-08-28T16:34:51.000Z</time>
      </trkpt>
      <trkpt lat="45.07517" lon="5.36589">
        <ele>454.1</ele>
        <time>2021-08-28T16:34:51.000Z</time>
      </trkpt>
      <trkpt lat="45.07521" lon="5.36581">
        <ele>454.3</ele>
        <time>2021-08-28T16:34:55.000Z</time>
      </trkpt>
      <trkpt lat="45.07523" lon="5.36572">
        <ele>454.1</ele>
        <time>2021-08-28T16:35:00.000Z</time>
      </trkpt>
      <trkpt lat="45.07522" lon="5.36565">
        <ele>453.3</ele>
        <time>2021-08-28T16:35:04.000Z</time>
      </trkpt>
      <trkpt lat="45.0752" lon="5.36557">
        <ele>451.3</ele>
        <time>2021-08-28T16:35:09.000Z</time>
      </trkpt>
      <trkpt lat="45.07518" lon="5.3655">
        <ele>449.9</ele>
        <time>2021-08-28T16:35:13.000Z</time>
      </trkpt>
      <trkpt lat="45.07517" lon="5.3654">
        <ele>448.7</ele>
        <time>2021-08-28T16:35:18.000Z</time>
      </trkpt>
      <trkpt lat="45.07516" lon="5.36529">
        <ele>447.5</ele>
        <time>2021-08-28T16:35:22.000Z</time>
      </trkpt>
      <trkpt lat="45.07517" lon="5.36516">
        <ele>447</ele>
        <time>2021-08-28T16:35:27.000Z</time>
      </trkpt>
      <trkpt lat="45.07521" lon="5.36506">
        <ele>448.4</ele>
        <time>2021-08-28T16:35:32.000Z</time>
      </trkpt>
      <trkpt lat="45.07526" lon="5.36501">
        <ele>450.1</ele>
        <time>2021-08-28T16:35:36.000Z</time>
      </trkpt>
      <trkpt lat="45.07531" lon="5.36494">
        <ele>451.5</ele>
        <time>2021-08-28T16:35:40.000Z</time>
      </trkpt>
      <trkpt lat="45.07536" lon="5.36488">
        <ele>453.2</ele>
        <time>2021-08-28T16:35:44.000Z</time>
      </trkpt>
      <trkpt lat="45.07543" lon="5.36481">
        <ele>455</ele>
        <time>2021-08-28T16:35:48.000Z</time>
      </trkpt>
      <trkpt lat="45.0755" lon="5.36473">
        <ele>456.9</ele>
        <time>2021-08-28T16:35:53.000Z</time>
      </trkpt>
      <trkpt lat="45.07554" lon="5.36464">
        <ele>457.2</ele>
        <time>2021-08-28T16:35:57.000Z</time>
      </trkpt>
      <trkpt lat="45.07558" lon="5.36455">
        <ele>457.4</ele>
        <time>2021-08-28T16:36:02.000Z</time>
      </trkpt>
      <trkpt lat="45.07563" lon="5.36442">
        <ele>457.7</ele>
        <time>2021-08-28T16:36:06.000Z</time>
      </trkpt>
      <trkpt lat="45.07569" lon="5.36432">
        <ele>458.1</ele>
        <time>2021-08-28T16:36:10.000Z</time>
      </trkpt>
      <trkpt lat="45.07574" lon="5.3642">
        <ele>458.1</ele>
        <time>2021-08-28T16:36:15.000Z</time>
      </trkpt>
      <trkpt lat="45.07577" lon="5.36411">
        <ele>457.8</ele>
        <time>2021-08-28T16:36:19.000Z</time>
      </trkpt>
      <trkpt lat="45.07583" lon="5.36401">
        <ele>458.5</ele>
        <time>2021-08-28T16:36:24.000Z</time>
      </trkpt>
      <trkpt lat="45.0759" lon="5.3639">
        <ele>459.2</ele>
        <time>2021-08-28T16:36:29.000Z</time>
      </trkpt>
      <trkpt lat="45.07595" lon="5.36382">
        <ele>459.9</ele>
        <time>2021-08-28T16:36:33.000Z</time>
      </trkpt>
      <trkpt lat="45.07602" lon="5.36375">
        <ele>460.8</ele>
        <time>2021-08-28T16:36:38.000Z</time>
      </trkpt>
      <trkpt lat="45.07605" lon="5.36369">
        <ele>460.8</ele>
        <time>2021-08-28T16:36:42.000Z</time>
      </trkpt>
      <trkpt lat="45.0761" lon="5.36366">
        <ele>461.5</ele>
        <time>2021-08-28T16:36:46.000Z</time>
      </trkpt>
      <trkpt lat="45.07616" lon="5.3636">
        <ele>462.6</ele>
        <time>2021-08-28T16:36:51.000Z</time>
      </trkpt>
      <trkpt lat="45.07623" lon="5.36355">
        <ele>464.9</ele>
        <time>2021-08-28T16:36:56.000Z</time>
      </trkpt>
      <trkpt lat="45.07626" lon="5.36351">
        <ele>466</ele>
        <time>2021-08-28T16:37:00.000Z</time>
      </trkpt>
      <trkpt lat="45.0763" lon="5.36345">
        <ele>467.2</ele>
        <time>2021-08-28T16:37:04.000Z</time>
      </trkpt>
      <trkpt lat="45.0763" lon="5.36345">
        <ele>467.2</ele>
        <time>2021-08-28T16:37:04.000Z</time>
      </trkpt>
      <trkpt lat="45.07634" lon="5.36342">
        <ele>468</ele>
        <time>2021-08-28T16:37:08.000Z</time>
      </trkpt>
      <trkpt lat="45.0764" lon="5.36336">
        <ele>469.5</ele>
        <time>2021-08-28T16:37:12.000Z</time>
      </trkpt>
      <trkpt lat="45.07645" lon="5.36331">
        <ele>470.7</ele>
        <time>2021-08-28T16:37:16.000Z</time>
      </trkpt>
      <trkpt lat="45.0765" lon="5.36314">
        <ele>473.3</ele>
        <time>2021-08-28T16:37:21.000Z</time>
      </trkpt>
      <trkpt lat="45.07651" lon="5.36298">
        <ele>475.9</ele>
        <time>2021-08-28T16:37:26.000Z</time>
      </trkpt>
      <trkpt lat="45.07642" lon="5.36292">
        <ele>475.8</ele>
        <time>2021-08-28T16:37:30.000Z</time>
      </trkpt>
      <trkpt lat="45.07636" lon="5.36292">
        <ele>474.9</ele>
        <time>2021-08-28T16:37:34.000Z</time>
      </trkpt>
      <trkpt lat="45.07628" lon="5.36291">
        <ele>473.8</ele>
        <time>2021-08-28T16:37:39.000Z</time>
      </trkpt>
      <trkpt lat="45.0762" lon="5.36293">
        <ele>472.2</ele>
        <time>2021-08-28T16:37:43.000Z</time>
      </trkpt>
      <trkpt lat="45.07611" lon="5.36294">
        <ele>470.4</ele>
        <time>2021-08-28T16:37:48.000Z</time>
      </trkpt>
      <trkpt lat="45.076" lon="5.36291">
        <ele>469.1</ele>
        <time>2021-08-28T16:37:52.000Z</time>
      </trkpt>
      <trkpt lat="45.07593" lon="5.36282">
        <ele>469.3</ele>
        <time>2021-08-28T16:37:57.000Z</time>
      </trkpt>
      <trkpt lat="45.07588" lon="5.36274">
        <ele>470.1</ele>
        <time>2021-08-28T16:38:01.000Z</time>
      </trkpt>
      <trkpt lat="45.07581" lon="5.36262">
        <ele>471.3</ele>
        <time>2021-08-28T16:38:06.000Z</time>
      </trkpt>
      <trkpt lat="45.07574" lon="5.36252">
        <ele>472.7</ele>
        <time>2021-08-28T16:38:11.000Z</time>
      </trkpt>
      <trkpt lat="45.07571" lon="5.36241">
        <ele>475</ele>
        <time>2021-08-28T16:38:16.000Z</time>
      </trkpt>
      <trkpt lat="45.07565" lon="5.36232">
        <ele>476.5</ele>
        <time>2021-08-28T16:38:20.000Z</time>
      </trkpt>
      <trkpt lat="45.07558" lon="5.36229">
        <ele>476.6</ele>
        <time>2021-08-28T16:38:24.000Z</time>
      </trkpt>
      <trkpt lat="45.07552" lon="5.36229">
        <ele>477.1</ele>
        <time>2021-08-28T16:38:28.000Z</time>
      </trkpt>
      <trkpt lat="45.07545" lon="5.36232">
        <ele>477.9</ele>
        <time>2021-08-28T16:38:32.000Z</time>
      </trkpt>
      <trkpt lat="45.07539" lon="5.36236">
        <ele>478</ele>
        <time>2021-08-28T16:38:36.000Z</time>
      </trkpt>
      <trkpt lat="45.07532" lon="5.36242">
        <ele>478.1</ele>
        <time>2021-08-28T16:38:41.000Z</time>
      </trkpt>
      <trkpt lat="45.07525" lon="5.36249">
        <ele>478.4</ele>
        <time>2021-08-28T16:38:45.000Z</time>
      </trkpt>
      <trkpt lat="45.07522" lon="5.36252">
        <ele>478.7</ele>
        <time>2021-08-28T16:38:49.000Z</time>
      </trkpt>
      <trkpt lat="45.07518" lon="5.36259">
        <ele>478.7</ele>
        <time>2021-08-28T16:38:54.000Z</time>
      </trkpt>
      <trkpt lat="45.07512" lon="5.36264">
        <ele>479.4</ele>
        <time>2021-08-28T16:38:58.000Z</time>
      </trkpt>
      <trkpt lat="45.07509" lon="5.3627">
        <ele>479</ele>
        <time>2021-08-28T16:39:02.000Z</time>
      </trkpt>
      <trkpt lat="45.07507" lon="5.36275">
        <ele>478.3</ele>
        <time>2021-08-28T16:39:06.000Z</time>
      </trkpt>
      <trkpt lat="45.07503" lon="5.36278">
        <ele>479</ele>
        <time>2021-08-28T16:39:10.000Z</time>
      </trkpt>
      <trkpt lat="45.07495" lon="5.3628">
        <ele>481</ele>
        <time>2021-08-28T16:39:15.000Z</time>
      </trkpt>
      <trkpt lat="45.07488" lon="5.36283">
        <ele>481.7</ele>
        <time>2021-08-28T16:39:19.000Z</time>
      </trkpt>
      <trkpt lat="45.07481" lon="5.36284">
        <ele>483.4</ele>
        <time>2021-08-28T16:39:24.000Z</time>
      </trkpt>
      <trkpt lat="45.07473" lon="5.36287">
        <ele>484.6</ele>
        <time>2021-08-28T16:39:28.000Z</time>
      </trkpt>
      <trkpt lat="45.07467" lon="5.36288">
        <ele>484.3</ele>
        <time>2021-08-28T16:39:32.000Z</time>
      </trkpt>
      <trkpt lat="45.07461" lon="5.36289">
        <ele>484</ele>
        <time>2021-08-28T16:39:36.000Z</time>
      </trkpt>
      <trkpt lat="45.07455" lon="5.36287">
        <ele>484.6</ele>
        <time>2021-08-28T16:39:40.000Z</time>
      </trkpt>
      <trkpt lat="45.07446" lon="5.36287">
        <ele>484.9</ele>
        <time>2021-08-28T16:39:45.000Z</time>
      </trkpt>
      <trkpt lat="45.07437" lon="5.36284">
        <ele>484.1</ele>
        <time>2021-08-28T16:39:50.000Z</time>
      </trkpt>
      <trkpt lat="45.07432" lon="5.36279">
        <ele>484.6</ele>
        <time>2021-08-28T16:39:54.000Z</time>
      </trkpt>
      <trkpt lat="45.07428" lon="5.36272">
        <ele>485.5</ele>
        <time>2021-08-28T16:39:58.000Z</time>
      </trkpt>
      <trkpt lat="45.07424" lon="5.36265">
        <ele>486.6</ele>
        <time>2021-08-28T16:40:02.000Z</time>
      </trkpt>
      <trkpt lat="45.07421" lon="5.36256">
        <ele>487.9</ele>
        <time>2021-08-28T16:40:06.000Z</time>
      </trkpt>
      <trkpt lat="45.07417" lon="5.36246">
        <ele>489.2</ele>
        <time>2021-08-28T16:40:10.000Z</time>
      </trkpt>
      <trkpt lat="45.07413" lon="5.36235">
        <ele>490.2</ele>
        <time>2021-08-28T16:40:15.000Z</time>
      </trkpt>
      <trkpt lat="45.07409" lon="5.36222">
        <ele>492</ele>
        <time>2021-08-28T16:40:20.000Z</time>
      </trkpt>
      <trkpt lat="45.07406" lon="5.36212">
        <ele>493</ele>
        <time>2021-08-28T16:40:24.000Z</time>
      </trkpt>
      <trkpt lat="45.07403" lon="5.36205">
        <ele>492.8</ele>
        <time>2021-08-28T16:40:28.000Z</time>
      </trkpt>
      <trkpt lat="45.07401" lon="5.36195">
        <ele>494.1</ele>
        <time>2021-08-28T16:40:32.000Z</time>
      </trkpt>
      <trkpt lat="45.07406" lon="5.36187">
        <ele>499.5</ele>
        <time>2021-08-28T16:40:36.000Z</time>
      </trkpt>
      <trkpt lat="45.07402" lon="5.36172">
        <ele>501.4</ele>
        <time>2021-08-28T16:40:40.000Z</time>
      </trkpt>
      <trkpt lat="45.07397" lon="5.3616">
        <ele>502.7</ele>
        <time>2021-08-28T16:40:45.000Z</time>
      </trkpt>
      <trkpt lat="45.07391" lon="5.36151">
        <ele>503.8</ele>
        <time>2021-08-28T16:40:50.000Z</time>
      </trkpt>
      <trkpt lat="45.07386" lon="5.36144">
        <ele>504</ele>
        <time>2021-08-28T16:40:54.000Z</time>
      </trkpt>
      <trkpt lat="45.07379" lon="5.36138">
        <ele>504.1</ele>
        <time>2021-08-28T16:40:58.000Z</time>
      </trkpt>
      <trkpt lat="45.0737" lon="5.36133">
        <ele>503.2</ele>
        <time>2021-08-28T16:41:03.000Z</time>
      </trkpt>
      <trkpt lat="45.07365" lon="5.3613">
        <ele>502.4</ele>
        <time>2021-08-28T16:41:07.000Z</time>
      </trkpt>
      <trkpt lat="45.07358" lon="5.36125">
        <ele>501.9</ele>
        <time>2021-08-28T16:41:12.000Z</time>
      </trkpt>
      <trkpt lat="45.07351" lon="5.36118">
        <ele>502.2</ele>
        <time>2021-08-28T16:41:17.000Z</time>
      </trkpt>
      <trkpt lat="45.07346" lon="5.36114">
        <ele>502.1</ele>
        <time>2021-08-28T16:41:21.000Z</time>
      </trkpt>
      <trkpt lat="45.07342" lon="5.36107">
        <ele>502.5</ele>
        <time>2021-08-28T16:41:26.000Z</time>
      </trkpt>
      <trkpt lat="45.07342" lon="5.36107">
        <ele>502.5</ele>
        <time>2021-08-28T16:41:26.000Z</time>
      </trkpt>
      <trkpt lat="45.07337" lon="5.36101">
        <ele>502.1</ele>
        <time>2021-08-28T16:41:30.000Z</time>
      </trkpt>
      <trkpt lat="45.07333" lon="5.36092">
        <ele>502.3</ele>
        <time>2021-08-28T16:41:35.000Z</time>
      </trkpt>
      <trkpt lat="45.07333" lon="5.36082">
        <ele>503.6</ele>
        <time>2021-08-28T16:41:39.000Z</time>
      </trkpt>
      <trkpt lat="45.07334" lon="5.36072">
        <ele>503.4</ele>
        <time>2021-08-28T16:41:43.000Z</time>
      </trkpt>
      <trkpt lat="45.07339" lon="5.36063">
        <ele>504.7</ele>
        <time>2021-08-28T16:41:48.000Z</time>
      </trkpt>
      <trkpt lat="45.07345" lon="5.36053">
        <ele>506.2</ele>
        <time>2021-08-28T16:41:53.000Z</time>
      </trkpt>
      <trkpt lat="45.0735" lon="5.36044">
        <ele>506.2</ele>
        <time>2021-08-28T16:41:57.000Z</time>
      </trkpt>
      <trkpt lat="45.07359" lon="5.36035">
        <ele>507.8</ele>
        <time>2021-08-28T16:42:02.000Z</time>
      </trkpt>
      <trkpt lat="45.07365" lon="5.36027">
        <ele>508.3</ele>
        <time>2021-08-28T16:42:06.000Z</time>
      </trkpt>
      <trkpt lat="45.07372" lon="5.36017">
        <ele>507.8</ele>
        <time>2021-08-28T16:42:11.000Z</time>
      </trkpt>
      <trkpt lat="45.07377" lon="5.36007">
        <ele>506.7</ele>
        <time>2021-08-28T16:42:15.000Z</time>
      </trkpt>
      <trkpt lat="45.07383" lon="5.35995">
        <ele>504.9</ele>
        <time>2021-08-28T16:42:20.000Z</time>
      </trkpt>
      <trkpt lat="45.07389" lon="5.35986">
        <ele>503.7</ele>
        <time>2021-08-28T16:42:24.000Z</time>
      </trkpt>
      <trkpt lat="45.07397" lon="5.35977">
        <ele>502.9</ele>
        <time>2021-08-28T16:42:29.000Z</time>
      </trkpt>
      <trkpt lat="45.07403" lon="5.35971">
        <ele>503</ele>
        <time>2021-08-28T16:42:33.000Z</time>
      </trkpt>
      <trkpt lat="45.0741" lon="5.35965">
        <ele>502.7</ele>
        <time>2021-08-28T16:42:38.000Z</time>
      </trkpt>
      <trkpt lat="45.07417" lon="5.35962">
        <ele>503.8</ele>
        <time>2021-08-28T16:42:42.000Z</time>
      </trkpt>
      <trkpt lat="45.07423" lon="5.35959">
        <ele>504.4</ele>
        <time>2021-08-28T16:42:46.000Z</time>
      </trkpt>
      <trkpt lat="45.0743" lon="5.35957">
        <ele>505.9</ele>
        <time>2021-08-28T16:42:50.000Z</time>
      </trkpt>
      <trkpt lat="45.07438" lon="5.35956">
        <ele>507.9</ele>
        <time>2021-08-28T16:42:54.000Z</time>
      </trkpt>
      <trkpt lat="45.07445" lon="5.35955">
        <ele>509.9</ele>
        <time>2021-08-28T16:42:58.000Z</time>
      </trkpt>
      <trkpt lat="45.07452" lon="5.35953">
        <ele>511.5</ele>
        <time>2021-08-28T16:43:02.000Z</time>
      </trkpt>
      <trkpt lat="45.0746" lon="5.35951">
        <ele>513.1</ele>
        <time>2021-08-28T16:43:06.000Z</time>
      </trkpt>
      <trkpt lat="45.07467" lon="5.35948">
        <ele>514.1</ele>
        <time>2021-08-28T16:43:10.000Z</time>
      </trkpt>
      <trkpt lat="45.07476" lon="5.35945">
        <ele>515.9</ele>
        <time>2021-08-28T16:43:14.000Z</time>
      </trkpt>
      <trkpt lat="45.07484" lon="5.35941">
        <ele>517.9</ele>
        <time>2021-08-28T16:43:18.000Z</time>
      </trkpt>
      <trkpt lat="45.0749" lon="5.35937">
        <ele>519.4</ele>
        <time>2021-08-28T16:43:22.000Z</time>
      </trkpt>
      <trkpt lat="45.07498" lon="5.35932">
        <ele>521.3</ele>
        <time>2021-08-28T16:43:26.000Z</time>
      </trkpt>
      <trkpt lat="45.07507" lon="5.35926">
        <ele>523.8</ele>
        <time>2021-08-28T16:43:30.000Z</time>
      </trkpt>
      <trkpt lat="45.07514" lon="5.35919">
        <ele>525.4</ele>
        <time>2021-08-28T16:43:34.000Z</time>
      </trkpt>
      <trkpt lat="45.07519" lon="5.35912">
        <ele>526.7</ele>
        <time>2021-08-28T16:43:38.000Z</time>
      </trkpt>
      <trkpt lat="45.07523" lon="5.35905">
        <ele>527</ele>
        <time>2021-08-28T16:43:42.000Z</time>
      </trkpt>
      <trkpt lat="45.07529" lon="5.35894">
        <ele>527.2</ele>
        <time>2021-08-28T16:43:47.000Z</time>
      </trkpt>
      <trkpt lat="45.07534" lon="5.35884">
        <ele>528.4</ele>
        <time>2021-08-28T16:43:51.000Z</time>
      </trkpt>
      <trkpt lat="45.07539" lon="5.3587">
        <ele>529.1</ele>
        <time>2021-08-28T16:43:56.000Z</time>
      </trkpt>
      <trkpt lat="45.07543" lon="5.35861">
        <ele>530.5</ele>
        <time>2021-08-28T16:44:00.000Z</time>
      </trkpt>
      <trkpt lat="45.07547" lon="5.35849">
        <ele>533.3</ele>
        <time>2021-08-28T16:44:05.000Z</time>
      </trkpt>
      <trkpt lat="45.07549" lon="5.3584">
        <ele>534.1</ele>
        <time>2021-08-28T16:44:09.000Z</time>
      </trkpt>
      <trkpt lat="45.07547" lon="5.35828">
        <ele>532.5</ele>
        <time>2021-08-28T16:44:14.000Z</time>
      </trkpt>
      <trkpt lat="45.07547" lon="5.35828">
        <ele>532.5</ele>
        <time>2021-08-28T16:44:14.000Z</time>
      </trkpt>
      <trkpt lat="45.07544" lon="5.3582">
        <ele>530.9</ele>
        <time>2021-08-28T16:44:18.000Z</time>
      </trkpt>
      <trkpt lat="45.07543" lon="5.3581">
        <ele>530.3</ele>
        <time>2021-08-28T16:44:22.000Z</time>
      </trkpt>
      <trkpt lat="45.07541" lon="5.35801">
        <ele>529.6</ele>
        <time>2021-08-28T16:44:26.000Z</time>
      </trkpt>
      <trkpt lat="45.07542" lon="5.35791">
        <ele>531.2</ele>
        <time>2021-08-28T16:44:30.000Z</time>
      </trkpt>
      <trkpt lat="45.07544" lon="5.35777">
        <ele>534</ele>
        <time>2021-08-28T16:44:35.000Z</time>
      </trkpt>
      <trkpt lat="45.07545" lon="5.35767">
        <ele>535.6</ele>
        <time>2021-08-28T16:44:39.000Z</time>
      </trkpt>
      <trkpt lat="45.07547" lon="5.35756">
        <ele>538.3</ele>
        <time>2021-08-28T16:44:44.000Z</time>
      </trkpt>
      <trkpt lat="45.07547" lon="5.35744">
        <ele>540.5</ele>
        <time>2021-08-28T16:44:48.000Z</time>
      </trkpt>
      <trkpt lat="45.07548" lon="5.35729">
        <ele>543.6</ele>
        <time>2021-08-28T16:44:53.000Z</time>
      </trkpt>
      <trkpt lat="45.07548" lon="5.35718">
        <ele>545.9</ele>
        <time>2021-08-28T16:44:57.000Z</time>
      </trkpt>
      <trkpt lat="45.07546" lon="5.35705">
        <ele>546.9</ele>
        <time>2021-08-28T16:45:02.000Z</time>
      </trkpt>
      <trkpt lat="45.07542" lon="5.35696">
        <ele>546</ele>
        <time>2021-08-28T16:45:06.000Z</time>
      </trkpt>
      <trkpt lat="45.07536" lon="5.35689">
        <ele>544.3</ele>
        <time>2021-08-28T16:45:10.000Z</time>
      </trkpt>
      <trkpt lat="45.07529" lon="5.35681">
        <ele>542.2</ele>
        <time>2021-08-28T16:45:15.000Z</time>
      </trkpt>
      <trkpt lat="45.07523" lon="5.35672">
        <ele>540.5</ele>
        <time>2021-08-28T16:45:20.000Z</time>
      </trkpt>
      <trkpt lat="45.0752" lon="5.35662">
        <ele>541.3</ele>
        <time>2021-08-28T16:45:24.000Z</time>
      </trkpt>
      <trkpt lat="45.07516" lon="5.35651">
        <ele>541.2</ele>
        <time>2021-08-28T16:45:29.000Z</time>
      </trkpt>
      <trkpt lat="45.07513" lon="5.3564">
        <ele>542.4</ele>
        <time>2021-08-28T16:45:33.000Z</time>
      </trkpt>
      <trkpt lat="45.07511" lon="5.35628">
        <ele>542.7</ele>
        <time>2021-08-28T16:45:38.000Z</time>
      </trkpt>
      <trkpt lat="45.07512" lon="5.35618">
        <ele>544</ele>
        <time>2021-08-28T16:45:42.000Z</time>
      </trkpt>
      <trkpt lat="45.07516" lon="5.35603">
        <ele>547.2</ele>
        <time>2021-08-28T16:45:47.000Z</time>
      </trkpt>
      <trkpt lat="45.0752" lon="5.35594">
        <ele>548.9</ele>
        <time>2021-08-28T16:45:51.000Z</time>
      </trkpt>
      <trkpt lat="45.07524" lon="5.35581">
        <ele>551</ele>
        <time>2021-08-28T16:45:56.000Z</time>
      </trkpt>
      <trkpt lat="45.07528" lon="5.35572">
        <ele>552.6</ele>
        <time>2021-08-28T16:46:00.000Z</time>
      </trkpt>
      <trkpt lat="45.07532" lon="5.3556">
        <ele>554.6</ele>
        <time>2021-08-28T16:46:05.000Z</time>
      </trkpt>
      <trkpt lat="45.07533" lon="5.35548">
        <ele>555.5</ele>
        <time>2021-08-28T16:46:09.000Z</time>
      </trkpt>
      <trkpt lat="45.07535" lon="5.3554">
        <ele>557.3</ele>
        <time>2021-08-28T16:46:13.000Z</time>
      </trkpt>
      <trkpt lat="45.07536" lon="5.35527">
        <ele>558.8</ele>
        <time>2021-08-28T16:46:18.000Z</time>
      </trkpt>
      <trkpt lat="45.07536" lon="5.35515">
        <ele>560.4</ele>
        <time>2021-08-28T16:46:22.000Z</time>
      </trkpt>
      <trkpt lat="45.07535" lon="5.35504">
        <ele>560.7</ele>
        <time>2021-08-28T16:46:26.000Z</time>
      </trkpt>
      <trkpt lat="45.07532" lon="5.35493">
        <ele>560.1</ele>
        <time>2021-08-28T16:46:30.000Z</time>
      </trkpt>
      <trkpt lat="45.07529" lon="5.3548">
        <ele>559.8</ele>
        <time>2021-08-28T16:46:35.000Z</time>
      </trkpt>
      <trkpt lat="45.07527" lon="5.35467">
        <ele>559.6</ele>
        <time>2021-08-28T16:46:40.000Z</time>
      </trkpt>
      <trkpt lat="45.07524" lon="5.35458">
        <ele>559</ele>
        <time>2021-08-28T16:46:44.000Z</time>
      </trkpt>
      <trkpt lat="45.07521" lon="5.35448">
        <ele>558.7</ele>
        <time>2021-08-28T16:46:48.000Z</time>
      </trkpt>
      <trkpt lat="45.07516" lon="5.35436">
        <ele>557.1</ele>
        <time>2021-08-28T16:46:53.000Z</time>
      </trkpt>
      <trkpt lat="45.07511" lon="5.35424">
        <ele>556.5</ele>
        <time>2021-08-28T16:46:58.000Z</time>
      </trkpt>
      <trkpt lat="45.0751" lon="5.3541">
        <ele>556.3</ele>
        <time>2021-08-28T16:47:03.000Z</time>
      </trkpt>
      <trkpt lat="45.0751" lon="5.3541">
        <ele>556.3</ele>
        <time>2021-08-28T16:47:03.000Z</time>
      </trkpt>
      <trkpt lat="45.07517" lon="5.35407">
        <ele>555.8</ele>
        <time>2021-08-28T16:47:07.000Z</time>
      </trkpt>
      <trkpt lat="45.07519" lon="5.35414">
        <ele>556.9</ele>
        <time>2021-08-28T16:47:12.000Z</time>
      </trkpt>
      <trkpt lat="45.07525" lon="5.35417">
        <ele>557.9</ele>
        <time>2021-08-28T16:47:17.000Z</time>
      </trkpt>
      <trkpt lat="45.07526" lon="5.35418">
        <ele>558</ele>
        <time>2021-08-28T16:48:11.000Z</time>
      </trkpt>
      <trkpt lat="45.07559" lon="5.35422">
        <ele>555</ele>
        <time>2021-08-28T16:48:16.000Z</time>
      </trkpt>
      <trkpt lat="45.07595" lon="5.35427">
        <ele>553.7</ele>
        <time>2021-08-28T16:48:20.000Z</time>
      </trkpt>
      <trkpt lat="45.07627" lon="5.35429">
        <ele>551.4</ele>
        <time>2021-08-28T16:48:24.000Z</time>
      </trkpt>
      <trkpt lat="45.07655" lon="5.35436">
        <ele>548.3</ele>
        <time>2021-08-28T16:48:28.000Z</time>
      </trkpt>
      <trkpt lat="45.07677" lon="5.35442">
        <ele>543.5</ele>
        <time>2021-08-28T16:48:33.000Z</time>
      </trkpt>
      <trkpt lat="45.07698" lon="5.35475">
        <ele>546.1</ele>
        <time>2021-08-28T16:48:38.000Z</time>
      </trkpt>
      <trkpt lat="45.07707" lon="5.35496">
        <ele>547.9</ele>
        <time>2021-08-28T16:48:42.000Z</time>
      </trkpt>
      <trkpt lat="45.07708" lon="5.35527">
        <ele>557.9</ele>
        <time>2021-08-28T16:48:46.000Z</time>
      </trkpt>
      <trkpt lat="45.07734" lon="5.35577">
        <ele>555.7</ele>
        <time>2021-08-28T16:48:51.000Z</time>
      </trkpt>
      <trkpt lat="45.07774" lon="5.35614">
        <ele>541.6</ele>
        <time>2021-08-28T16:48:56.000Z</time>
      </trkpt>
      <trkpt lat="45.07824" lon="5.35607">
        <ele>534.4</ele>
        <time>2021-08-28T16:49:00.000Z</time>
      </trkpt>
      <trkpt lat="45.07824" lon="5.35607">
        <ele>534.4</ele>
        <time>2021-08-28T16:49:00.000Z</time>
      </trkpt>
      <trkpt lat="45.07852" lon="5.35587">
        <ele>533.4</ele>
        <time>2021-08-28T16:49:05.000Z</time>
      </trkpt>
      <trkpt lat="45.07869" lon="5.35553">
        <ele>530.9</ele>
        <time>2021-08-28T16:49:09.000Z</time>
      </trkpt>
      <trkpt lat="45.07889" lon="5.35509">
        <ele>526.4</ele>
        <time>2021-08-28T16:49:14.000Z</time>
      </trkpt>
      <trkpt lat="45.07906" lon="5.35488">
        <ele>526.4</ele>
        <time>2021-08-28T16:49:18.000Z</time>
      </trkpt>
      <trkpt lat="45.07892" lon="5.35485">
        <ele>518.9</ele>
        <time>2021-08-28T16:49:23.000Z</time>
      </trkpt>
      <trkpt lat="45.07862" lon="5.35517">
        <ele>517</ele>
        <time>2021-08-28T16:49:28.000Z</time>
      </trkpt>
      <trkpt lat="45.07845" lon="5.35517">
        <ele>511.1</ele>
        <time>2021-08-28T16:49:32.000Z</time>
      </trkpt>
      <trkpt lat="45.07809" lon="5.35529">
        <ele>507.7</ele>
        <time>2021-08-28T16:49:36.000Z</time>
      </trkpt>
      <trkpt lat="45.07793" lon="5.35503">
        <ele>505.2</ele>
        <time>2021-08-28T16:49:41.000Z</time>
      </trkpt>
      <trkpt lat="45.07786" lon="5.35461">
        <ele>500.7</ele>
        <time>2021-08-28T16:49:45.000Z</time>
      </trkpt>
      <trkpt lat="45.07773" lon="5.35406">
        <ele>494</ele>
        <time>2021-08-28T16:49:50.000Z</time>
      </trkpt>
      <trkpt lat="45.07757" lon="5.35361">
        <ele>488.7</ele>
        <time>2021-08-28T16:49:54.000Z</time>
      </trkpt>
      <trkpt lat="45.07729" lon="5.35328">
        <ele>487.5</ele>
        <time>2021-08-28T16:49:58.000Z</time>
      </trkpt>
      <trkpt lat="45.07693" lon="5.35299">
        <ele>482.3</ele>
        <time>2021-08-28T16:50:03.000Z</time>
      </trkpt>
      <trkpt lat="45.07671" lon="5.35282">
        <ele>475</ele>
        <time>2021-08-28T16:50:08.000Z</time>
      </trkpt>
      <trkpt lat="45.07685" lon="5.35264">
        <ele>467.4</ele>
        <time>2021-08-28T16:50:12.000Z</time>
      </trkpt>
      <trkpt lat="45.07685" lon="5.35264">
        <ele>467.4</ele>
        <time>2021-08-28T16:50:12.000Z</time>
      </trkpt>
      <trkpt lat="45.07732" lon="5.35267">
        <ele>465.3</ele>
        <time>2021-08-28T16:50:17.000Z</time>
      </trkpt>
      <trkpt lat="45.07773" lon="5.35294">
        <ele>465</ele>
        <time>2021-08-28T16:50:22.000Z</time>
      </trkpt>
      <trkpt lat="45.07794" lon="5.3531">
        <ele>462.9</ele>
        <time>2021-08-28T16:50:26.000Z</time>
      </trkpt>
      <trkpt lat="45.07801" lon="5.35323">
        <ele>463.9</ele>
        <time>2021-08-28T16:50:30.000Z</time>
      </trkpt>
      <trkpt lat="45.07828" lon="5.35353">
        <ele>461.7</ele>
        <time>2021-08-28T16:50:35.000Z</time>
      </trkpt>
      <trkpt lat="45.07847" lon="5.35369">
        <ele>463.9</ele>
        <time>2021-08-28T16:50:39.000Z</time>
      </trkpt>
      <trkpt lat="45.07878" lon="5.35345">
        <ele>458.5</ele>
        <time>2021-08-28T16:50:44.000Z</time>
      </trkpt>
      <trkpt lat="45.07906" lon="5.35335">
        <ele>459.8</ele>
        <time>2021-08-28T16:50:48.000Z</time>
      </trkpt>
      <trkpt lat="45.07947" lon="5.35321">
        <ele>457.9</ele>
        <time>2021-08-28T16:50:53.000Z</time>
      </trkpt>
      <trkpt lat="45.07976" lon="5.35293">
        <ele>443.4</ele>
        <time>2021-08-28T16:50:57.000Z</time>
      </trkpt>
      <trkpt lat="45.08001" lon="5.35282">
        <ele>438.6</ele>
        <time>2021-08-28T16:51:01.000Z</time>
      </trkpt>
      <trkpt lat="45.08025" lon="5.35264">
        <ele>435.2</ele>
        <time>2021-08-28T16:51:06.000Z</time>
      </trkpt>
      <trkpt lat="45.0804" lon="5.35264">
        <ele>438</ele>
        <time>2021-08-28T16:51:11.000Z</time>
      </trkpt>
      <trkpt lat="45.08045" lon="5.35289">
        <ele>440.2</ele>
        <time>2021-08-28T16:51:15.000Z</time>
      </trkpt>
      <trkpt lat="45.08048" lon="5.35285">
        <ele>439.8</ele>
        <time>2021-08-28T16:51:21.000Z</time>
      </trkpt>
      <trkpt lat="45.08046" lon="5.35263">
        <ele>439.5</ele>
        <time>2021-08-28T16:51:26.000Z</time>
      </trkpt>
      <trkpt lat="45.08049" lon="5.35261">
        <ele>440.2</ele>
        <time>2021-08-28T16:51:33.000Z</time>
      </trkpt>
      <trkpt lat="45.08051" lon="5.35254">
        <ele>441.4</ele>
        <time>2021-08-28T16:51:38.000Z</time>
      </trkpt>
      <trkpt lat="45.08052" lon="5.35253">
        <ele>441.6</ele>
        <time>2021-08-28T16:51:46.000Z</time>
      </trkpt>
      <trkpt lat="45.08055" lon="5.35242">
        <ele>444.7</ele>
        <time>2021-08-28T16:51:50.000Z</time>
      </trkpt>
      <trkpt lat="45.08053" lon="5.35234">
        <ele>445.4</ele>
        <time>2021-08-28T16:51:54.000Z</time>
      </trkpt>
      <trkpt lat="45.08053" lon="5.35234">
        <ele>445.4</ele>
        <time>2021-08-28T16:51:54.000Z</time>
      </trkpt>
      <trkpt lat="45.08048" lon="5.35225">
        <ele>445.2</ele>
        <time>2021-08-28T16:51:58.000Z</time>
      </trkpt>
      <trkpt lat="45.08043" lon="5.3522">
        <ele>444</ele>
        <time>2021-08-28T16:52:02.000Z</time>
      </trkpt>
      <trkpt lat="45.08039" lon="5.35217">
        <ele>443.3</ele>
        <time>2021-08-28T16:52:06.000Z</time>
      </trkpt>
      <trkpt lat="45.08039" lon="5.35204">
        <ele>447.1</ele>
        <time>2021-08-28T16:52:10.000Z</time>
      </trkpt>
      <trkpt lat="45.08032" lon="5.35192">
        <ele>447.8</ele>
        <time>2021-08-28T16:52:15.000Z</time>
      </trkpt>
      <trkpt lat="45.0803" lon="5.35185">
        <ele>449.3</ele>
        <time>2021-08-28T16:52:19.000Z</time>
      </trkpt>
      <trkpt lat="45.08026" lon="5.35178">
        <ele>450.2</ele>
        <time>2021-08-28T16:52:24.000Z</time>
      </trkpt>
      <trkpt lat="45.08013" lon="5.35176">
        <ele>446.5</ele>
        <time>2021-08-28T16:52:28.000Z</time>
      </trkpt>
      <trkpt lat="45.08005" lon="5.35173">
        <ele>444.2</ele>
        <time>2021-08-28T16:52:32.000Z</time>
      </trkpt>
      <trkpt lat="45.07998" lon="5.35166">
        <ele>444.4</ele>
        <time>2021-08-28T16:52:36.000Z</time>
      </trkpt>
      <trkpt lat="45.07991" lon="5.35164">
        <ele>442.7</ele>
        <time>2021-08-28T16:52:41.000Z</time>
      </trkpt>
      <trkpt lat="45.07985" lon="5.35158">
        <ele>442.6</ele>
        <time>2021-08-28T16:52:45.000Z</time>
      </trkpt>
      <trkpt lat="45.07974" lon="5.35151">
        <ele>441.5</ele>
        <time>2021-08-28T16:52:50.000Z</time>
      </trkpt>
      <trkpt lat="45.0797" lon="5.35143">
        <ele>443.4</ele>
        <time>2021-08-28T16:52:54.000Z</time>
      </trkpt>
      <trkpt lat="45.07969" lon="5.35132">
        <ele>446.8</ele>
        <time>2021-08-28T16:52:59.000Z</time>
      </trkpt>
      <trkpt lat="45.07967" lon="5.35126">
        <ele>447.9</ele>
        <time>2021-08-28T16:53:03.000Z</time>
      </trkpt>
      <trkpt lat="45.07959" lon="5.35114">
        <ele>448</ele>
        <time>2021-08-28T16:53:08.000Z</time>
      </trkpt>
      <trkpt lat="45.07959" lon="5.35103">
        <ele>451.2</ele>
        <time>2021-08-28T16:53:12.000Z</time>
      </trkpt>
      <trkpt lat="45.07959" lon="5.35097">
        <ele>453.3</ele>
        <time>2021-08-28T16:53:16.000Z</time>
      </trkpt>
      <trkpt lat="45.07959" lon="5.35088">
        <ele>455.8</ele>
        <time>2021-08-28T16:53:21.000Z</time>
      </trkpt>
      <trkpt lat="45.07959" lon="5.35082">
        <ele>457.6</ele>
        <time>2021-08-28T16:53:27.000Z</time>
      </trkpt>
      <trkpt lat="45.07957" lon="5.35076">
        <ele>459</ele>
        <time>2021-08-28T16:53:32.000Z</time>
      </trkpt>
      <trkpt lat="45.07958" lon="5.35062">
        <ele>463.7</ele>
        <time>2021-08-28T16:53:41.000Z</time>
      </trkpt>
      <trkpt lat="45.07952" lon="5.35048">
        <ele>465.5</ele>
        <time>2021-08-28T16:53:45.000Z</time>
      </trkpt>
      <trkpt lat="45.07948" lon="5.35039">
        <ele>465.8</ele>
        <time>2021-08-28T16:53:50.000Z</time>
      </trkpt>
      <trkpt lat="45.07945" lon="5.35031">
        <ele>467</ele>
        <time>2021-08-28T16:53:54.000Z</time>
      </trkpt>
      <trkpt lat="45.0794" lon="5.35028">
        <ele>466</ele>
        <time>2021-08-28T16:53:59.000Z</time>
      </trkpt>
      <trkpt lat="45.07939" lon="5.35022">
        <ele>467.9</ele>
        <time>2021-08-28T16:54:04.000Z</time>
      </trkpt>
      <trkpt lat="45.07935" lon="5.35015">
        <ele>468.7</ele>
        <time>2021-08-28T16:54:08.000Z</time>
      </trkpt>
      <trkpt lat="45.07931" lon="5.35009">
        <ele>469.1</ele>
        <time>2021-08-28T16:54:12.000Z</time>
      </trkpt>
      <trkpt lat="45.07927" lon="5.35006">
        <ele>468.6</ele>
        <time>2021-08-28T16:54:17.000Z</time>
      </trkpt>
      <trkpt lat="45.07924" lon="5.35">
        <ele>469.3</ele>
        <time>2021-08-28T16:54:21.000Z</time>
      </trkpt>
      <trkpt lat="45.07921" lon="5.34994">
        <ele>469.8</ele>
        <time>2021-08-28T16:54:25.000Z</time>
      </trkpt>
      <trkpt lat="45.0791" lon="5.34992">
        <ele>465.3</ele>
        <time>2021-08-28T16:54:30.000Z</time>
      </trkpt>
      <trkpt lat="45.07898" lon="5.34985">
        <ele>461.9</ele>
        <time>2021-08-28T16:54:35.000Z</time>
      </trkpt>
      <trkpt lat="45.07894" lon="5.34975">
        <ele>462.7</ele>
        <time>2021-08-28T16:54:40.000Z</time>
      </trkpt>
      <trkpt lat="45.07891" lon="5.34965">
        <ele>463.6</ele>
        <time>2021-08-28T16:54:44.000Z</time>
      </trkpt>
      <trkpt lat="45.07892" lon="5.34955">
        <ele>466.4</ele>
        <time>2021-08-28T16:54:48.000Z</time>
      </trkpt>
      <trkpt lat="45.07892" lon="5.34932">
        <ele>471.5</ele>
        <time>2021-08-28T16:54:53.000Z</time>
      </trkpt>
      <trkpt lat="45.07892" lon="5.34921">
        <ele>474</ele>
        <time>2021-08-28T16:54:57.000Z</time>
      </trkpt>
      <trkpt lat="45.07891" lon="5.34908">
        <ele>476.2</ele>
        <time>2021-08-28T16:55:01.000Z</time>
      </trkpt>
      <trkpt lat="45.07886" lon="5.34889">
        <ele>475.6</ele>
        <time>2021-08-28T16:55:06.000Z</time>
      </trkpt>
      <trkpt lat="45.07886" lon="5.34889">
        <ele>475.6</ele>
        <time>2021-08-28T16:55:06.000Z</time>
      </trkpt>
      <trkpt lat="45.07884" lon="5.34877">
        <ele>475.9</ele>
        <time>2021-08-28T16:55:10.000Z</time>
      </trkpt>
      <trkpt lat="45.07883" lon="5.34861">
        <ele>477.9</ele>
        <time>2021-08-28T16:55:15.000Z</time>
      </trkpt>
      <trkpt lat="45.07881" lon="5.3485">
        <ele>477.7</ele>
        <time>2021-08-28T16:55:20.000Z</time>
      </trkpt>
      <trkpt lat="45.07876" lon="5.34838">
        <ele>475.5</ele>
        <time>2021-08-28T16:55:24.000Z</time>
      </trkpt>
      <trkpt lat="45.07864" lon="5.34815">
        <ele>466.9</ele>
        <time>2021-08-28T16:55:28.000Z</time>
      </trkpt>
      <trkpt lat="45.07856" lon="5.34791">
        <ele>461.3</ele>
        <time>2021-08-28T16:55:32.000Z</time>
      </trkpt>
      <trkpt lat="45.07855" lon="5.34765">
        <ele>457.5</ele>
        <time>2021-08-28T16:55:36.000Z</time>
      </trkpt>
      <trkpt lat="45.07865" lon="5.34739">
        <ele>454.3</ele>
        <time>2021-08-28T16:55:40.000Z</time>
      </trkpt>
      <trkpt lat="45.07884" lon="5.34723">
        <ele>455.3</ele>
        <time>2021-08-28T16:55:44.000Z</time>
      </trkpt>
      <trkpt lat="45.07905" lon="5.34713">
        <ele>457.5</ele>
        <time>2021-08-28T16:55:48.000Z</time>
      </trkpt>
      <trkpt lat="45.07934" lon="5.3467">
        <ele>447.3</ele>
        <time>2021-08-28T16:55:53.000Z</time>
      </trkpt>
      <trkpt lat="45.07959" lon="5.34636">
        <ele>447.4</ele>
        <time>2021-08-28T16:55:58.000Z</time>
      </trkpt>
      <trkpt lat="45.07951" lon="5.34614">
        <ele>442.2</ele>
        <time>2021-08-28T16:56:02.000Z</time>
      </trkpt>
      <trkpt lat="45.07933" lon="5.34608">
        <ele>436.5</ele>
        <time>2021-08-28T16:56:06.000Z</time>
      </trkpt>
      <trkpt lat="45.07926" lon="5.34582">
        <ele>432.7</ele>
        <time>2021-08-28T16:56:11.000Z</time>
      </trkpt>
      <trkpt lat="45.07924" lon="5.34537">
        <ele>430.6</ele>
        <time>2021-08-28T16:56:15.000Z</time>
      </trkpt>
      <trkpt lat="45.07928" lon="5.34475">
        <ele>430</ele>
        <time>2021-08-28T16:56:20.000Z</time>
      </trkpt>
      <trkpt lat="45.07936" lon="5.34438">
        <ele>428.7</ele>
        <time>2021-08-28T16:56:24.000Z</time>
      </trkpt>
      <trkpt lat="45.07938" lon="5.34409">
        <ele>424.9</ele>
        <time>2021-08-28T16:56:28.000Z</time>
      </trkpt>
      <trkpt lat="45.07938" lon="5.34409">
        <ele>424.9</ele>
        <time>2021-08-28T16:56:28.000Z</time>
      </trkpt>
      <trkpt lat="45.07931" lon="5.34391">
        <ele>421.3</ele>
        <time>2021-08-28T16:56:31.000Z</time>
      </trkpt>
      <trkpt lat="45.07774" lon="5.34371">
        <ele>403.1</ele>
        <time>2021-08-28T16:56:46.000Z</time>
      </trkpt>
      <trkpt lat="45.07774" lon="5.34371">
        <ele>403.1</ele>
        <time>2021-08-28T16:56:46.000Z</time>
      </trkpt>
      <trkpt lat="45.07793" lon="5.3438">
        <ele>404.6</ele>
        <time>2021-08-28T16:56:51.000Z</time>
      </trkpt>
      <trkpt lat="45.0781" lon="5.34378">
        <ele>405.5</ele>
        <time>2021-08-28T16:56:56.000Z</time>
      </trkpt>
      <trkpt lat="45.07828" lon="5.34367">
        <ele>405.4</ele>
        <time>2021-08-28T16:57:00.000Z</time>
      </trkpt>
      <trkpt lat="45.07845" lon="5.34355">
        <ele>405.1</ele>
        <time>2021-08-28T16:57:04.000Z</time>
      </trkpt>
      <trkpt lat="45.07862" lon="5.34345">
        <ele>405.3</ele>
        <time>2021-08-28T16:57:08.000Z</time>
      </trkpt>
      <trkpt lat="45.07873" lon="5.34337">
        <ele>405.7</ele>
        <time>2021-08-28T16:57:12.000Z</time>
      </trkpt>
      <trkpt lat="45.07891" lon="5.34326">
        <ele>406.1</ele>
        <time>2021-08-28T16:57:17.000Z</time>
      </trkpt>
      <trkpt lat="45.0791" lon="5.34316">
        <ele>406.8</ele>
        <time>2021-08-28T16:57:21.000Z</time>
      </trkpt>
      <trkpt lat="45.07936" lon="5.34299">
        <ele>407.7</ele>
        <time>2021-08-28T16:57:26.000Z</time>
      </trkpt>
      <trkpt lat="45.07955" lon="5.3428">
        <ele>408.2</ele>
        <time>2021-08-28T16:57:30.000Z</time>
      </trkpt>
      <trkpt lat="45.0797" lon="5.34245">
        <ele>407</ele>
        <time>2021-08-28T16:57:35.000Z</time>
      </trkpt>
      <trkpt lat="45.07974" lon="5.34217">
        <ele>405.9</ele>
        <time>2021-08-28T16:57:39.000Z</time>
      </trkpt>
      <trkpt lat="45.07983" lon="5.34187">
        <ele>404.2</ele>
        <time>2021-08-28T16:57:44.000Z</time>
      </trkpt>
      <trkpt lat="45.07998" lon="5.34167">
        <ele>403.7</ele>
        <time>2021-08-28T16:57:48.000Z</time>
      </trkpt>
      <trkpt lat="45.08024" lon="5.34164">
        <ele>403.6</ele>
        <time>2021-08-28T16:57:53.000Z</time>
      </trkpt>
      <trkpt lat="45.08024" lon="5.34164">
        <ele>403.6</ele>
        <time>2021-08-28T16:57:53.000Z</time>
      </trkpt>
      <trkpt lat="45.08041" lon="5.34173">
        <ele>403.5</ele>
        <time>2021-08-28T16:57:57.000Z</time>
      </trkpt>
      <trkpt lat="45.08067" lon="5.34185">
        <ele>401.9</ele>
        <time>2021-08-28T16:58:02.000Z</time>
      </trkpt>
      <trkpt lat="45.08095" lon="5.34199">
        <ele>399.8</ele>
        <time>2021-08-28T16:58:06.000Z</time>
      </trkpt>
      <trkpt lat="45.08126" lon="5.34212">
        <ele>397.2</ele>
        <time>2021-08-28T16:58:10.000Z</time>
      </trkpt>
      <trkpt lat="45.08155" lon="5.34227">
        <ele>396.3</ele>
        <time>2021-08-28T16:58:14.000Z</time>
      </trkpt>
      <trkpt lat="45.08185" lon="5.34236">
        <ele>396.7</ele>
        <time>2021-08-28T16:58:18.000Z</time>
      </trkpt>
      <trkpt lat="45.08207" lon="5.34236">
        <ele>397</ele>
        <time>2021-08-28T16:58:22.000Z</time>
      </trkpt>
      <trkpt lat="45.08226" lon="5.34231">
        <ele>396.4</ele>
        <time>2021-08-28T16:58:26.000Z</time>
      </trkpt>
      <trkpt lat="45.08246" lon="5.3423">
        <ele>397</ele>
        <time>2021-08-28T16:58:30.000Z</time>
      </trkpt>
      <trkpt lat="45.08276" lon="5.34233">
        <ele>397.6</ele>
        <time>2021-08-28T16:58:35.000Z</time>
      </trkpt>
      <trkpt lat="45.08301" lon="5.34216">
        <ele>396.7</ele>
        <time>2021-08-28T16:58:39.000Z</time>
      </trkpt>
      <trkpt lat="45.08334" lon="5.34169">
        <ele>392.5</ele>
        <time>2021-08-28T16:58:44.000Z</time>
      </trkpt>
      <trkpt lat="45.08362" lon="5.34136">
        <ele>388.4</ele>
        <time>2021-08-28T16:58:48.000Z</time>
      </trkpt>
      <trkpt lat="45.08405" lon="5.34108">
        <ele>382.2</ele>
        <time>2021-08-28T16:58:53.000Z</time>
      </trkpt>
      <trkpt lat="45.08447" lon="5.34101">
        <ele>378.8</ele>
        <time>2021-08-28T16:58:57.000Z</time>
      </trkpt>
      <trkpt lat="45.085" lon="5.34102">
        <ele>379.7</ele>
        <time>2021-08-28T16:59:02.000Z</time>
      </trkpt>
      <trkpt lat="45.08541" lon="5.34087">
        <ele>381.3</ele>
        <time>2021-08-28T16:59:06.000Z</time>
      </trkpt>
      <trkpt lat="45.08567" lon="5.34056">
        <ele>380.5</ele>
        <time>2021-08-28T16:59:10.000Z</time>
      </trkpt>
      <trkpt lat="45.08592" lon="5.34026">
        <ele>377.2</ele>
        <time>2021-08-28T16:59:15.000Z</time>
      </trkpt>
      <trkpt lat="45.08592" lon="5.34026">
        <ele>377.2</ele>
        <time>2021-08-28T16:59:15.000Z</time>
      </trkpt>
      <trkpt lat="45.08603" lon="5.34028">
        <ele>376.6</ele>
        <time>2021-08-28T16:59:19.000Z</time>
      </trkpt>
      <trkpt lat="45.08615" lon="5.3405">
        <ele>377.1</ele>
        <time>2021-08-28T16:59:24.000Z</time>
      </trkpt>
      <trkpt lat="45.08623" lon="5.34075">
        <ele>378.1</ele>
        <time>2021-08-28T16:59:29.000Z</time>
      </trkpt>
      <trkpt lat="45.08629" lon="5.34101">
        <ele>379.7</ele>
        <time>2021-08-28T16:59:34.000Z</time>
      </trkpt>
      <trkpt lat="45.08636" lon="5.34131">
        <ele>381.7</ele>
        <time>2021-08-28T16:59:39.000Z</time>
      </trkpt>
      <trkpt lat="45.0864" lon="5.34155">
        <ele>383.4</ele>
        <time>2021-08-28T16:59:44.000Z</time>
      </trkpt>
      <trkpt lat="45.08647" lon="5.34173">
        <ele>383.9</ele>
        <time>2021-08-28T16:59:48.000Z</time>
      </trkpt>
      <trkpt lat="45.08655" lon="5.34193">
        <ele>384.3</ele>
        <time>2021-08-28T16:59:53.000Z</time>
      </trkpt>
      <trkpt lat="45.08662" lon="5.34213">
        <ele>385</ele>
        <time>2021-08-28T16:59:57.000Z</time>
      </trkpt>
      <trkpt lat="45.08669" lon="5.34234">
        <ele>385.8</ele>
        <time>2021-08-28T17:00:02.000Z</time>
      </trkpt>
      <trkpt lat="45.08673" lon="5.34247">
        <ele>386.7</ele>
        <time>2021-08-28T17:00:06.000Z</time>
      </trkpt>
      <trkpt lat="45.08679" lon="5.34268">
        <ele>388.1</ele>
        <time>2021-08-28T17:00:11.000Z</time>
      </trkpt>
      <trkpt lat="45.08685" lon="5.34283">
        <ele>388.8</ele>
        <time>2021-08-28T17:00:15.000Z</time>
      </trkpt>
      <trkpt lat="45.08694" lon="5.34297">
        <ele>389.5</ele>
        <time>2021-08-28T17:00:19.000Z</time>
      </trkpt>
      <trkpt lat="45.08706" lon="5.34312">
        <ele>390.9</ele>
        <time>2021-08-28T17:00:24.000Z</time>
      </trkpt>
      <trkpt lat="45.08723" lon="5.34319">
        <ele>390.9</ele>
        <time>2021-08-28T17:00:29.000Z</time>
      </trkpt>
      <trkpt lat="45.08739" lon="5.34319">
        <ele>390.9</ele>
        <time>2021-08-28T17:00:33.000Z</time>
      </trkpt>
      <trkpt lat="45.08754" lon="5.34316">
        <ele>390.7</ele>
        <time>2021-08-28T17:00:37.000Z</time>
      </trkpt>
      <trkpt lat="45.08771" lon="5.34311">
        <ele>391.2</ele>
        <time>2021-08-28T17:00:42.000Z</time>
      </trkpt>
      <trkpt lat="45.08785" lon="5.34306">
        <ele>391.5</ele>
        <time>2021-08-28T17:00:47.000Z</time>
      </trkpt>
      <trkpt lat="45.08796" lon="5.343">
        <ele>391.3</ele>
        <time>2021-08-28T17:00:51.000Z</time>
      </trkpt>
      <trkpt lat="45.08812" lon="5.34303">
        <ele>392.6</ele>
        <time>2021-08-28T17:00:56.000Z</time>
      </trkpt>
      <trkpt lat="45.08824" lon="5.3431">
        <ele>394.4</ele>
        <time>2021-08-28T17:01:00.000Z</time>
      </trkpt>
      <trkpt lat="45.08833" lon="5.34315">
        <ele>395.7</ele>
        <time>2021-08-28T17:01:04.000Z</time>
      </trkpt>
      <trkpt lat="45.08845" lon="5.34324">
        <ele>397.1</ele>
        <time>2021-08-28T17:01:09.000Z</time>
      </trkpt>
      <trkpt lat="45.08864" lon="5.34328">
        <ele>397.9</ele>
        <time>2021-08-28T17:01:14.000Z</time>
      </trkpt>
      <trkpt lat="45.08877" lon="5.34331">
        <ele>398.5</ele>
        <time>2021-08-28T17:01:18.000Z</time>
      </trkpt>
      <trkpt lat="45.08893" lon="5.34326">
        <ele>397.8</ele>
        <time>2021-08-28T17:01:23.000Z</time>
      </trkpt>
      <trkpt lat="45.08907" lon="5.34319">
        <ele>397</ele>
        <time>2021-08-28T17:01:28.000Z</time>
      </trkpt>
      <trkpt lat="45.08907" lon="5.34319">
        <ele>397</ele>
        <time>2021-08-28T17:01:28.000Z</time>
      </trkpt>
      <trkpt lat="45.08919" lon="5.34317">
        <ele>397.3</ele>
        <time>2021-08-28T17:01:32.000Z</time>
      </trkpt>
      <trkpt lat="45.08928" lon="5.34313">
        <ele>397.5</ele>
        <time>2021-08-28T17:01:36.000Z</time>
      </trkpt>
      <trkpt lat="45.08941" lon="5.34311">
        <ele>398.4</ele>
        <time>2021-08-28T17:01:41.000Z</time>
      </trkpt>
      <trkpt lat="45.08954" lon="5.34304">
        <ele>399.3</ele>
        <time>2021-08-28T17:01:45.000Z</time>
      </trkpt>
      <trkpt lat="45.08971" lon="5.34284">
        <ele>400.3</ele>
        <time>2021-08-28T17:01:50.000Z</time>
      </trkpt>
      <trkpt lat="45.08979" lon="5.34268">
        <ele>401.1</ele>
        <time>2021-08-28T17:01:54.000Z</time>
      </trkpt>
      <trkpt lat="45.08983" lon="5.34237">
        <ele>401</ele>
        <time>2021-08-28T17:01:59.000Z</time>
      </trkpt>
      <trkpt lat="45.08986" lon="5.34212">
        <ele>401.5</ele>
        <time>2021-08-28T17:02:03.000Z</time>
      </trkpt>
      <trkpt lat="45.08992" lon="5.34185">
        <ele>402.5</ele>
        <time>2021-08-28T17:02:08.000Z</time>
      </trkpt>
      <trkpt lat="45.09001" lon="5.34172">
        <ele>402.1</ele>
        <time>2021-08-28T17:02:12.000Z</time>
      </trkpt>
      <trkpt lat="45.09018" lon="5.34174">
        <ele>400.5</ele>
        <time>2021-08-28T17:02:16.000Z</time>
      </trkpt>
      <trkpt lat="45.0904" lon="5.34195">
        <ele>399.3</ele>
        <time>2021-08-28T17:02:21.000Z</time>
      </trkpt>
      <trkpt lat="45.09068" lon="5.34215">
        <ele>398.7</ele>
        <time>2021-08-28T17:02:26.000Z</time>
      </trkpt>
      <trkpt lat="45.09093" lon="5.34227">
        <ele>397.9</ele>
        <time>2021-08-28T17:02:30.000Z</time>
      </trkpt>
      <trkpt lat="45.09122" lon="5.34234">
        <ele>396</ele>
        <time>2021-08-28T17:02:34.000Z</time>
      </trkpt>
      <trkpt lat="45.09151" lon="5.34244">
        <ele>394.2</ele>
        <time>2021-08-28T17:02:38.000Z</time>
      </trkpt>
      <trkpt lat="45.09188" lon="5.34249">
        <ele>392.2</ele>
        <time>2021-08-28T17:02:42.000Z</time>
      </trkpt>
      <trkpt lat="45.09222" lon="5.34235">
        <ele>393.4</ele>
        <time>2021-08-28T17:02:46.000Z</time>
      </trkpt>
      <trkpt lat="45.09243" lon="5.34204">
        <ele>395.5</ele>
        <time>2021-08-28T17:02:50.000Z</time>
      </trkpt>
      <trkpt lat="45.09246" lon="5.3416">
        <ele>392.1</ele>
        <time>2021-08-28T17:02:54.000Z</time>
      </trkpt>
      <trkpt lat="45.09266" lon="5.34133">
        <ele>391.1</ele>
        <time>2021-08-28T17:02:58.000Z</time>
      </trkpt>
      <trkpt lat="45.09291" lon="5.34134">
        <ele>390.9</ele>
        <time>2021-08-28T17:03:02.000Z</time>
      </trkpt>
      <trkpt lat="45.09314" lon="5.34147">
        <ele>391.8</ele>
        <time>2021-08-28T17:03:06.000Z</time>
      </trkpt>
      <trkpt lat="45.09332" lon="5.34161">
        <ele>392.5</ele>
        <time>2021-08-28T17:03:10.000Z</time>
      </trkpt>
      <trkpt lat="45.0936" lon="5.34183">
        <ele>392.3</ele>
        <time>2021-08-28T17:03:15.000Z</time>
      </trkpt>
      <trkpt lat="45.09391" lon="5.342">
        <ele>390.1</ele>
        <time>2021-08-28T17:03:20.000Z</time>
      </trkpt>
      <trkpt lat="45.09422" lon="5.3421">
        <ele>386.5</ele>
        <time>2021-08-28T17:03:24.000Z</time>
      </trkpt>
      <trkpt lat="45.09463" lon="5.3422">
        <ele>383.4</ele>
        <time>2021-08-28T17:03:29.000Z</time>
      </trkpt>
      <trkpt lat="45.09492" lon="5.34217">
        <ele>382.7</ele>
        <time>2021-08-28T17:03:33.000Z</time>
      </trkpt>
      <trkpt lat="45.09511" lon="5.34189">
        <ele>384</ele>
        <time>2021-08-28T17:03:37.000Z</time>
      </trkpt>
      <trkpt lat="45.09519" lon="5.34153">
        <ele>386</ele>
        <time>2021-08-28T17:03:42.000Z</time>
      </trkpt>
      <trkpt lat="45.09526" lon="5.34119">
        <ele>386.2</ele>
        <time>2021-08-28T17:03:46.000Z</time>
      </trkpt>
      <trkpt lat="45.0954" lon="5.34076">
        <ele>386.3</ele>
        <time>2021-08-28T17:03:51.000Z</time>
      </trkpt>
      <trkpt lat="45.09557" lon="5.34051">
        <ele>386.3</ele>
        <time>2021-08-28T17:03:55.000Z</time>
      </trkpt>
      <trkpt lat="45.09588" lon="5.34044">
        <ele>387.5</ele>
        <time>2021-08-28T17:04:00.000Z</time>
      </trkpt>
      <trkpt lat="45.09608" lon="5.3405">
        <ele>388.9</ele>
        <time>2021-08-28T17:04:04.000Z</time>
      </trkpt>
      <trkpt lat="45.0963" lon="5.34057">
        <ele>389</ele>
        <time>2021-08-28T17:04:08.000Z</time>
      </trkpt>
      <trkpt lat="45.0965" lon="5.34069">
        <ele>389.6</ele>
        <time>2021-08-28T17:04:12.000Z</time>
      </trkpt>
      <trkpt lat="45.09669" lon="5.34079">
        <ele>389.7</ele>
        <time>2021-08-28T17:04:16.000Z</time>
      </trkpt>
      <trkpt lat="45.09685" lon="5.34089">
        <ele>389.3</ele>
        <time>2021-08-28T17:04:20.000Z</time>
      </trkpt>
      <trkpt lat="45.097" lon="5.34099">
        <ele>389.5</ele>
        <time>2021-08-28T17:04:24.000Z</time>
      </trkpt>
      <trkpt lat="45.09717" lon="5.34116">
        <ele>391.2</ele>
        <time>2021-08-28T17:04:29.000Z</time>
      </trkpt>
      <trkpt lat="45.09729" lon="5.34131">
        <ele>392.3</ele>
        <time>2021-08-28T17:04:33.000Z</time>
      </trkpt>
      <trkpt lat="45.09748" lon="5.3415">
        <ele>392.4</ele>
        <time>2021-08-28T17:04:38.000Z</time>
      </trkpt>
      <trkpt lat="45.09762" lon="5.34161">
        <ele>392.6</ele>
        <time>2021-08-28T17:04:42.000Z</time>
      </trkpt>
      <trkpt lat="45.09782" lon="5.34142">
        <ele>390.1</ele>
        <time>2021-08-28T17:04:47.000Z</time>
      </trkpt>
      <trkpt lat="45.09797" lon="5.34123">
        <ele>388</ele>
        <time>2021-08-28T17:04:51.000Z</time>
      </trkpt>
      <trkpt lat="45.09826" lon="5.34103">
        <ele>385.7</ele>
        <time>2021-08-28T17:04:56.000Z</time>
      </trkpt>
      <trkpt lat="45.09852" lon="5.34088">
        <ele>384.2</ele>
        <time>2021-08-28T17:05:00.000Z</time>
      </trkpt>
      <trkpt lat="45.09879" lon="5.34081">
        <ele>383.2</ele>
        <time>2021-08-28T17:05:04.000Z</time>
      </trkpt>
      <trkpt lat="45.09916" lon="5.3409">
        <ele>382.3</ele>
        <time>2021-08-28T17:05:09.000Z</time>
      </trkpt>
      <trkpt lat="45.09958" lon="5.34101">
        <ele>380.2</ele>
        <time>2021-08-28T17:05:14.000Z</time>
      </trkpt>
      <trkpt lat="45.09993" lon="5.34107">
        <ele>377</ele>
        <time>2021-08-28T17:05:18.000Z</time>
      </trkpt>
      <trkpt lat="45.10038" lon="5.34118">
        <ele>373.3</ele>
        <time>2021-08-28T17:05:23.000Z</time>
      </trkpt>
      <trkpt lat="45.10084" lon="5.34126">
        <ele>369.9</ele>
        <time>2021-08-28T17:05:28.000Z</time>
      </trkpt>
      <trkpt lat="45.10124" lon="5.3413">
        <ele>366.6</ele>
        <time>2021-08-28T17:05:32.000Z</time>
      </trkpt>
      <trkpt lat="45.10166" lon="5.34126">
        <ele>362.5</ele>
        <time>2021-08-28T17:05:36.000Z</time>
      </trkpt>
      <trkpt lat="45.10206" lon="5.3411">
        <ele>358.8</ele>
        <time>2021-08-28T17:05:40.000Z</time>
      </trkpt>
      <trkpt lat="45.10244" lon="5.3408">
        <ele>355.4</ele>
        <time>2021-08-28T17:05:44.000Z</time>
      </trkpt>
      <trkpt lat="45.10288" lon="5.34066">
        <ele>354.5</ele>
        <time>2021-08-28T17:05:48.000Z</time>
      </trkpt>
      <trkpt lat="45.10332" lon="5.34067">
        <ele>353.8</ele>
        <time>2021-08-28T17:05:52.000Z</time>
      </trkpt>
      <trkpt lat="45.10388" lon="5.34076">
        <ele>349.8</ele>
        <time>2021-08-28T17:05:57.000Z</time>
      </trkpt>
      <trkpt lat="45.10442" lon="5.34088">
        <ele>343.3</ele>
        <time>2021-08-28T17:06:02.000Z</time>
      </trkpt>
      <trkpt lat="45.10483" lon="5.34091">
        <ele>338.5</ele>
        <time>2021-08-28T17:06:06.000Z</time>
      </trkpt>
      <trkpt lat="45.10524" lon="5.34094">
        <ele>334.6</ele>
        <time>2021-08-28T17:06:10.000Z</time>
      </trkpt>
      <trkpt lat="45.10568" lon="5.34097">
        <ele>330.7</ele>
        <time>2021-08-28T17:06:14.000Z</time>
      </trkpt>
      <trkpt lat="45.10611" lon="5.34098">
        <ele>328.3</ele>
        <time>2021-08-28T17:06:18.000Z</time>
      </trkpt>
      <trkpt lat="45.10656" lon="5.34097">
        <ele>326</ele>
        <time>2021-08-28T17:06:22.000Z</time>
      </trkpt>
      <trkpt lat="45.10701" lon="5.34108">
        <ele>321.4</ele>
        <time>2021-08-28T17:06:26.000Z</time>
      </trkpt>
      <trkpt lat="45.10747" lon="5.34109">
        <ele>319.5</ele>
        <time>2021-08-28T17:06:30.000Z</time>
      </trkpt>
      <trkpt lat="45.10793" lon="5.34103">
        <ele>314</ele>
        <time>2021-08-28T17:06:34.000Z</time>
      </trkpt>
      <trkpt lat="45.10837" lon="5.34083">
        <ele>308.6</ele>
        <time>2021-08-28T17:06:38.000Z</time>
      </trkpt>
      <trkpt lat="45.10876" lon="5.3405">
        <ele>304.3</ele>
        <time>2021-08-28T17:06:42.000Z</time>
      </trkpt>
      <trkpt lat="45.10876" lon="5.3405">
        <ele>304.3</ele>
        <time>2021-08-28T17:06:42.000Z</time>
      </trkpt>
      <trkpt lat="45.10918" lon="5.34004">
        <ele>298.3</ele>
        <time>2021-08-28T17:06:47.000Z</time>
      </trkpt>
      <trkpt lat="45.10955" lon="5.3396">
        <ele>291.5</ele>
        <time>2021-08-28T17:06:51.000Z</time>
      </trkpt>
      <trkpt lat="45.1099" lon="5.33897">
        <ele>289.7</ele>
        <time>2021-08-28T17:06:56.000Z</time>
      </trkpt>
      <trkpt lat="45.11022" lon="5.33856">
        <ele>285.3</ele>
        <time>2021-08-28T17:07:00.000Z</time>
      </trkpt>
      <trkpt lat="45.11061" lon="5.33822">
        <ele>281.1</ele>
        <time>2021-08-28T17:07:04.000Z</time>
      </trkpt>
      <trkpt lat="45.11097" lon="5.33782">
        <ele>277.1</ele>
        <time>2021-08-28T17:07:08.000Z</time>
      </trkpt>
      <trkpt lat="45.11126" lon="5.33737">
        <ele>274.4</ele>
        <time>2021-08-28T17:07:12.000Z</time>
      </trkpt>
      <trkpt lat="45.11143" lon="5.33674">
        <ele>273.1</ele>
        <time>2021-08-28T17:07:16.000Z</time>
      </trkpt>
      <trkpt lat="45.11143" lon="5.33674">
        <ele>273.1</ele>
        <time>2021-08-28T17:07:16.000Z</time>
      </trkpt>
      <trkpt lat="45.11146" lon="5.33659">
        <ele>272.7</ele>
        <time>2021-08-28T17:07:17.000Z</time>
      </trkpt>
      <trkpt lat="45.11048" lon="5.33551">
        <ele>276.9</ele>
        <time>2021-08-28T17:07:25.000Z</time>
      </trkpt>
      <trkpt lat="45.11009" lon="5.33522">
        <ele>273.7</ele>
        <time>2021-08-28T17:07:30.000Z</time>
      </trkpt>
      <trkpt lat="45.10971" lon="5.33489">
        <ele>269.8</ele>
        <time>2021-08-28T17:07:34.000Z</time>
      </trkpt>
      <trkpt lat="45.10913" lon="5.33447">
        <ele>266.3</ele>
        <time>2021-08-28T17:07:39.000Z</time>
      </trkpt>
      <trkpt lat="45.10894" lon="5.334">
        <ele>263.5</ele>
        <time>2021-08-28T17:07:43.000Z</time>
      </trkpt>
      <trkpt lat="45.10873" lon="5.33351">
        <ele>261.2</ele>
        <time>2021-08-28T17:07:48.000Z</time>
      </trkpt>
      <trkpt lat="45.10847" lon="5.3332">
        <ele>259.5</ele>
        <time>2021-08-28T17:07:52.000Z</time>
      </trkpt>
      <trkpt lat="45.10809" lon="5.3328">
        <ele>257.1</ele>
        <time>2021-08-28T17:07:57.000Z</time>
      </trkpt>
      <trkpt lat="45.10792" lon="5.33225">
        <ele>255.1</ele>
        <time>2021-08-28T17:08:02.000Z</time>
      </trkpt>
      <trkpt lat="45.10792" lon="5.33225">
        <ele>255.1</ele>
        <time>2021-08-28T17:08:02.000Z</time>
      </trkpt>
      <trkpt lat="45.10809" lon="5.33171">
        <ele>252.1</ele>
        <time>2021-08-28T17:08:06.000Z</time>
      </trkpt>
      <trkpt lat="45.10831" lon="5.33106">
        <ele>250.1</ele>
        <time>2021-08-28T17:08:11.000Z</time>
      </trkpt>
      <trkpt lat="45.10843" lon="5.33058">
        <ele>249.1</ele>
        <time>2021-08-28T17:08:15.000Z</time>
      </trkpt>
      <trkpt lat="45.10858" lon="5.33012">
        <ele>247.5</ele>
        <time>2021-08-28T17:08:19.000Z</time>
      </trkpt>
      <trkpt lat="45.10875" lon="5.32949">
        <ele>246.2</ele>
        <time>2021-08-28T17:08:24.000Z</time>
      </trkpt>
      <trkpt lat="45.10885" lon="5.32895">
        <ele>244.2</ele>
        <time>2021-08-28T17:08:28.000Z</time>
      </trkpt>
      <trkpt lat="45.10897" lon="5.32847">
        <ele>242.5</ele>
        <time>2021-08-28T17:08:32.000Z</time>
      </trkpt>
      <trkpt lat="45.10897" lon="5.32847">
        <ele>242.5</ele>
        <time>2021-08-28T17:08:32.000Z</time>
      </trkpt>
      <trkpt lat="45.10924" lon="5.32834">
        <ele>242</ele>
        <time>2021-08-28T17:08:36.000Z</time>
      </trkpt>
      <trkpt lat="45.1096" lon="5.32845">
        <ele>242.4</ele>
        <time>2021-08-28T17:08:40.000Z</time>
      </trkpt>
      <trkpt lat="45.10999" lon="5.32849">
        <ele>242.6</ele>
        <time>2021-08-28T17:08:45.000Z</time>
      </trkpt>
      <trkpt lat="45.11037" lon="5.32858">
        <ele>242</ele>
        <time>2021-08-28T17:08:50.000Z</time>
      </trkpt>
      <trkpt lat="45.11062" lon="5.32847">
        <ele>242</ele>
        <time>2021-08-28T17:08:54.000Z</time>
      </trkpt>
      <trkpt lat="45.11082" lon="5.32802">
        <ele>241.9</ele>
        <time>2021-08-28T17:08:59.000Z</time>
      </trkpt>
      <trkpt lat="45.11099" lon="5.32756">
        <ele>241</ele>
        <time>2021-08-28T17:09:03.000Z</time>
      </trkpt>
      <trkpt lat="45.11115" lon="5.32705">
        <ele>239.4</ele>
        <time>2021-08-28T17:09:07.000Z</time>
      </trkpt>
      <trkpt lat="45.11133" lon="5.32645">
        <ele>237.8</ele>
        <time>2021-08-28T17:09:12.000Z</time>
      </trkpt>
      <trkpt lat="45.11147" lon="5.32601">
        <ele>235.8</ele>
        <time>2021-08-28T17:09:16.000Z</time>
      </trkpt>
      <trkpt lat="45.11158" lon="5.32572">
        <ele>233.5</ele>
        <time>2021-08-28T17:09:20.000Z</time>
      </trkpt>
      <trkpt lat="45.11179" lon="5.32571">
        <ele>231.8</ele>
        <time>2021-08-28T17:09:24.000Z</time>
      </trkpt>
      <trkpt lat="45.11207" lon="5.32582">
        <ele>230.9</ele>
        <time>2021-08-28T17:09:28.000Z</time>
      </trkpt>
      <trkpt lat="45.11245" lon="5.32597">
        <ele>230.3</ele>
        <time>2021-08-28T17:09:33.000Z</time>
      </trkpt>
      <trkpt lat="45.11271" lon="5.32612">
        <ele>231.6</ele>
        <time>2021-08-28T17:09:37.000Z</time>
      </trkpt>
      <trkpt lat="45.11303" lon="5.32631">
        <ele>231.6</ele>
        <time>2021-08-28T17:09:42.000Z</time>
      </trkpt>
      <trkpt lat="45.11328" lon="5.32662">
        <ele>230.5</ele>
        <time>2021-08-28T17:09:47.000Z</time>
      </trkpt>
      <trkpt lat="45.11328" lon="5.32662">
        <ele>230.5</ele>
        <time>2021-08-28T17:09:47.000Z</time>
      </trkpt>
      <trkpt lat="45.11344" lon="5.3267">
        <ele>229.2</ele>
        <time>2021-08-28T17:09:52.000Z</time>
      </trkpt>
      <trkpt lat="45.11332" lon="5.32638">
        <ele>227.1</ele>
        <time>2021-08-28T17:09:57.000Z</time>
      </trkpt>
      <trkpt lat="45.11317" lon="5.326">
        <ele>225.3</ele>
        <time>2021-08-28T17:10:01.000Z</time>
      </trkpt>
      <trkpt lat="45.11294" lon="5.3254">
        <ele>222.1</ele>
        <time>2021-08-28T17:10:06.000Z</time>
      </trkpt>
      <trkpt lat="45.1127" lon="5.32489">
        <ele>220.7</ele>
        <time>2021-08-28T17:10:10.000Z</time>
      </trkpt>
      <trkpt lat="45.11259" lon="5.32443">
        <ele>220.3</ele>
        <time>2021-08-28T17:10:14.000Z</time>
      </trkpt>
      <trkpt lat="45.11266" lon="5.32397">
        <ele>219</ele>
        <time>2021-08-28T17:10:18.000Z</time>
      </trkpt>
      <trkpt lat="45.11275" lon="5.32329">
        <ele>218</ele>
        <time>2021-08-28T17:10:23.000Z</time>
      </trkpt>
      <trkpt lat="45.11284" lon="5.32279">
        <ele>217.8</ele>
        <time>2021-08-28T17:10:27.000Z</time>
      </trkpt>
      <trkpt lat="45.11289" lon="5.32232">
        <ele>217.1</ele>
        <time>2021-08-28T17:10:31.000Z</time>
      </trkpt>
      <trkpt lat="45.11293" lon="5.32196">
        <ele>217.4</ele>
        <time>2021-08-28T17:10:36.000Z</time>
      </trkpt>
      <trkpt lat="45.11297" lon="5.32191">
        <ele>217.3</ele>
        <time>2021-08-28T17:10:40.000Z</time>
      </trkpt>
      <trkpt lat="45.11299" lon="5.32176">
        <ele>217.1</ele>
        <time>2021-08-28T17:10:44.000Z</time>
      </trkpt>
      <trkpt lat="45.11303" lon="5.32154">
        <ele>217</ele>
        <time>2021-08-28T17:10:48.000Z</time>
      </trkpt>
      <trkpt lat="45.11303" lon="5.32154">
        <ele>217</ele>
        <time>2021-08-28T17:10:48.000Z</time>
      </trkpt>
      <trkpt lat="45.11307" lon="5.32123">
        <ele>217</ele>
        <time>2021-08-28T17:10:53.000Z</time>
      </trkpt>
      <trkpt lat="45.11313" lon="5.32098">
        <ele>217</ele>
        <time>2021-08-28T17:10:58.000Z</time>
      </trkpt>
      <trkpt lat="45.11319" lon="5.3207">
        <ele>217</ele>
        <time>2021-08-28T17:11:03.000Z</time>
      </trkpt>
      <trkpt lat="45.11329" lon="5.3203">
        <ele>216.2</ele>
        <time>2021-08-28T17:11:08.000Z</time>
      </trkpt>
      <trkpt lat="45.11344" lon="5.32006">
        <ele>216.1</ele>
        <time>2021-08-28T17:11:12.000Z</time>
      </trkpt>
      <trkpt lat="45.11365" lon="5.31978">
        <ele>216.1</ele>
        <time>2021-08-28T17:11:17.000Z</time>
      </trkpt>
      <trkpt lat="45.11386" lon="5.31953">
        <ele>216.3</ele>
        <time>2021-08-28T17:11:22.000Z</time>
      </trkpt>
      <trkpt lat="45.11405" lon="5.31936">
        <ele>216</ele>
        <time>2021-08-28T17:11:26.000Z</time>
      </trkpt>
      <trkpt lat="45.11424" lon="5.31917">
        <ele>216</ele>
        <time>2021-08-28T17:11:30.000Z</time>
      </trkpt>
      <trkpt lat="45.11447" lon="5.31895">
        <ele>215.9</ele>
        <time>2021-08-28T17:11:35.000Z</time>
      </trkpt>
      <trkpt lat="45.11463" lon="5.31877">
        <ele>215.3</ele>
        <time>2021-08-28T17:11:39.000Z</time>
      </trkpt>
      <trkpt lat="45.11481" lon="5.31855">
        <ele>215</ele>
        <time>2021-08-28T17:11:44.000Z</time>
      </trkpt>
      <trkpt lat="45.11492" lon="5.31848">
        <ele>215</ele>
        <time>2021-08-28T17:11:48.000Z</time>
      </trkpt>
      <trkpt lat="45.11495" lon="5.31853">
        <ele>215</ele>
        <time>2021-08-28T17:12:06.000Z</time>
      </trkpt>
      <trkpt lat="45.11494" lon="5.31862">
        <ele>215</ele>
        <time>2021-08-28T17:12:10.000Z</time>
      </trkpt>
      <trkpt lat="45.11495" lon="5.31869">
        <ele>215</ele>
        <time>2021-08-28T17:12:15.000Z</time>
      </trkpt>
      <trkpt lat="45.11496" lon="5.31875">
        <ele>215</ele>
        <time>2021-08-28T17:12:20.000Z</time>
      </trkpt>
      <trkpt lat="45.11496" lon="5.31876">
        <ele>215</ele>
        <time>2021-08-28T17:12:25.000Z</time>
      </trkpt>
    </trkseg>
  </trk>
</gpx>